<?xml version='1.0' encoding='UTF-8'?><gpx version="1.1" creator="JPX - https://github.com/jenetics/jpx" xmlns="http://www.topografix.com/GPX/1/1"><trk><trkseg><trkpt lat="45.4273533" lon="10.7891383"><ele>146.0</ele><time>2026-04-18T10:58:36.176Z</time></trkpt><trkpt lat="45.42725" lon="10.7892083"><ele>146.0</ele><time>2026-04-18T10:58:38.223Z</time></trkpt><trkpt lat="45.4271" lon="10.78929"><ele>146.0</ele><time>2026-04-18T10:58:40.206Z</time></trkpt><trkpt lat="45.4269633" lon="10.78935"><ele>146.0</ele><time>2026-04-18T10:58:42.201Z</time></trkpt><trkpt lat="45.4268667" lon="10.7894233"><ele>145.6</ele><time>2026-04-18T10:58:45.167Z</time></trkpt><trkpt lat="45.42688" lon="10.789515"><ele>145.2</ele><time>2026-04-18T10:58:47.204Z</time></trkpt><trkpt lat="45.4269283" lon="10.7896417"><ele>144.8</ele><time>2026-04-18T10:58:49.218Z</time></trkpt><trkpt lat="45.4269683" lon="10.78979"><ele>144.4</ele><time>2026-04-18T10:58:51.163Z</time></trkpt><trkpt lat="45.4269833" lon="10.7899267"><ele>144.0</ele><time>2026-04-18T10:58:53.177Z</time></trkpt><trkpt lat="45.426955" lon="10.7900317"><ele>144.0</ele><time>2026-04-18T10:58:55.183Z</time></trkpt><trkpt lat="45.4268783" lon="10.7900883"><ele>144.0</ele><time>2026-04-18T10:58:57.174Z</time></trkpt><trkpt lat="45.4267567" lon="10.7901117"><ele>144.0</ele><time>2026-04-18T10:58:59.175Z</time></trkpt><trkpt lat="45.42668" lon="10.790115"><ele>144.0</ele><time>2026-04-18T10:59:00.185Z</time></trkpt><trkpt lat="45.42652" lon="10.790115"><ele>144.0</ele><time>2026-04-18T10:59:02.195Z</time></trkpt><trkpt lat="45.42645" lon="10.790115"><ele>144.0</ele><time>2026-04-18T10:59:03.212Z</time></trkpt><trkpt lat="45.4263183" lon="10.790105"><ele>144.0</ele><time>2026-04-18T10:59:05.168Z</time></trkpt><trkpt lat="45.4262517" lon="10.7900917"><ele>144.0</ele><time>2026-04-18T10:59:06.168Z</time></trkpt><trkpt lat="45.4261817" lon="10.7900683"><ele>144.0</ele><time>2026-04-18T10:59:07.186Z</time></trkpt><trkpt lat="45.4261167" lon="10.790045"><ele>144.0</ele><time>2026-04-18T10:59:08.182Z</time></trkpt><trkpt lat="45.4260083" lon="10.7900067"><ele>142.2</ele><time>2026-04-18T10:59:10.184Z</time></trkpt><trkpt lat="45.4259133" lon="10.7899333"><ele>140.4</ele><time>2026-04-18T10:59:13.17Z</time></trkpt><trkpt lat="45.4259017" lon="10.7898383"><ele>138.6</ele><time>2026-04-18T10:59:15.199Z</time></trkpt><trkpt lat="45.4259483" lon="10.7896767"><ele>136.8</ele><time>2026-04-18T10:59:17.199Z</time></trkpt><trkpt lat="45.4259783" lon="10.7895717"><ele>135.0</ele><time>2026-04-18T10:59:18.209Z</time></trkpt><trkpt lat="45.426015" lon="10.7894567"><ele>134.6</ele><time>2026-04-18T10:59:19.173Z</time></trkpt><trkpt lat="45.426055" lon="10.78934"><ele>134.2</ele><time>2026-04-18T10:59:20.167Z</time></trkpt><trkpt lat="45.4260917" lon="10.7892217"><ele>133.8</ele><time>2026-04-18T10:59:21.231Z</time></trkpt><trkpt lat="45.4261317" lon="10.78911"><ele>133.4</ele><time>2026-04-18T10:59:22.162Z</time></trkpt><trkpt lat="45.4261833" lon="10.7890067"><ele>133.0</ele><time>2026-04-18T10:59:23.18Z</time></trkpt><trkpt lat="45.4262467" lon="10.7889083"><ele>134.8</ele><time>2026-04-18T10:59:24.167Z</time></trkpt><trkpt lat="45.4263167" lon="10.7888167"><ele>136.60000000000002</ele><time>2026-04-18T10:59:25.171Z</time></trkpt><trkpt lat="45.4263967" lon="10.788725"><ele>138.39999999999998</ele><time>2026-04-18T10:59:26.189Z</time></trkpt><trkpt lat="45.4264783" lon="10.7886267"><ele>140.2</ele><time>2026-04-18T10:59:27.19Z</time></trkpt><trkpt lat="45.4265633" lon="10.78853"><ele>142.0</ele><time>2026-04-18T10:59:28.17Z</time></trkpt><trkpt lat="45.426645" lon="10.7884317"><ele>142.2</ele><time>2026-04-18T10:59:29.189Z</time></trkpt><trkpt lat="45.4267267" lon="10.7883333"><ele>142.39999999999998</ele><time>2026-04-18T10:59:30.17Z</time></trkpt><trkpt lat="45.4268033" lon="10.7882317"><ele>142.60000000000002</ele><time>2026-04-18T10:59:31.168Z</time></trkpt><trkpt lat="45.4268733" lon="10.7881417"><ele>142.8</ele><time>2026-04-18T10:59:32.179Z</time></trkpt><trkpt lat="45.426935" lon="10.7880733"><ele>143.0</ele><time>2026-04-18T10:59:33.192Z</time></trkpt><trkpt lat="45.42699" lon="10.7880183"><ele>143.0</ele><time>2026-04-18T10:59:34.171Z</time></trkpt><trkpt lat="45.4271283" lon="10.7879717"><ele>143.0</ele><time>2026-04-18T10:59:37.171Z</time></trkpt><trkpt lat="45.427285" lon="10.7881017"><ele>143.0</ele><time>2026-04-18T10:59:40.233Z</time></trkpt><trkpt lat="45.4273333" lon="10.7881717"><ele>143.0</ele><time>2026-04-18T10:59:41.158Z</time></trkpt><trkpt lat="45.4274367" lon="10.78827"><ele>143.6</ele><time>2026-04-18T10:59:43.183Z</time></trkpt><trkpt lat="45.4274933" lon="10.78832"><ele>144.20000000000002</ele><time>2026-04-18T10:59:44.164Z</time></trkpt><trkpt lat="45.4275483" lon="10.78837"><ele>144.8</ele><time>2026-04-18T10:59:45.197Z</time></trkpt><trkpt lat="45.4276767" lon="10.7884733"><ele>145.4</ele><time>2026-04-18T10:59:47.16Z</time></trkpt><trkpt lat="45.4277433" lon="10.78855"><ele>146.0</ele><time>2026-04-18T10:59:48.168Z</time></trkpt><trkpt lat="45.4278133" lon="10.788635"><ele>146.0</ele><time>2026-04-18T10:59:49.178Z</time></trkpt><trkpt lat="45.427885" lon="10.7887283"><ele>146.0</ele><time>2026-04-18T10:59:50.179Z</time></trkpt><trkpt lat="45.4280333" lon="10.7889283"><ele>146.0</ele><time>2026-04-18T10:59:52.193Z</time></trkpt><trkpt lat="45.42811" lon="10.78902"><ele>146.0</ele><time>2026-04-18T10:59:53.174Z</time></trkpt><trkpt lat="45.4281733" lon="10.7891283"><ele>145.6</ele><time>2026-04-18T10:59:54.171Z</time></trkpt><trkpt lat="45.428245" lon="10.7892083"><ele>145.2</ele><time>2026-04-18T10:59:55.193Z</time></trkpt><trkpt lat="45.4283133" lon="10.7892833"><ele>144.8</ele><time>2026-04-18T10:59:56.188Z</time></trkpt><trkpt lat="45.42839" lon="10.789345"><ele>144.4</ele><time>2026-04-18T10:59:57.19Z</time></trkpt><trkpt lat="45.428465" lon="10.7894183"><ele>144.0</ele><time>2026-04-18T10:59:58.179Z</time></trkpt><trkpt lat="45.4285517" lon="10.789485"><ele>143.0</ele><time>2026-04-18T10:59:59.213Z</time></trkpt><trkpt lat="45.4286417" lon="10.789555"><ele>142.0</ele><time>2026-04-18T11:00:00.171Z</time></trkpt><trkpt lat="45.4287433" lon="10.7896267"><ele>141.0</ele><time>2026-04-18T11:00:01.233Z</time></trkpt><trkpt lat="45.42897" lon="10.7897683"><ele>139.75</ele><time>2026-04-18T11:00:03.182Z</time></trkpt><trkpt lat="45.4291783" lon="10.7899067"><ele>138.5</ele><time>2026-04-18T11:00:05.196Z</time></trkpt><trkpt lat="45.4292633" lon="10.7899967"><ele>137.25</ele><time>2026-04-18T11:00:06.18Z</time></trkpt><trkpt lat="45.4293433" lon="10.7901033"><ele>136.0</ele><time>2026-04-18T11:00:07.207Z</time></trkpt><trkpt lat="45.4294217" lon="10.7902283"><ele>134.25</ele><time>2026-04-18T11:00:08.181Z</time></trkpt><trkpt lat="45.4294967" lon="10.7903617"><ele>132.5</ele><time>2026-04-18T11:00:09.232Z</time></trkpt><trkpt lat="45.4295633" lon="10.790495"><ele>130.75</ele><time>2026-04-18T11:00:10.186Z</time></trkpt><trkpt lat="45.4296283" lon="10.7906283"><ele>129.0</ele><time>2026-04-18T11:00:11.234Z</time></trkpt><trkpt lat="45.4296867" lon="10.7907583"><ele>128.25</ele><time>2026-04-18T11:00:12.187Z</time></trkpt><trkpt lat="45.4297483" lon="10.790885"><ele>127.5</ele><time>2026-04-18T11:00:13.192Z</time></trkpt><trkpt lat="45.42981" lon="10.7910133"><ele>126.75</ele><time>2026-04-18T11:00:14.179Z</time></trkpt><trkpt lat="45.4298717" lon="10.791145"><ele>126.0</ele><time>2026-04-18T11:00:15.185Z</time></trkpt><trkpt lat="45.4299917" lon="10.7913983"><ele>126.0</ele><time>2026-04-18T11:00:17.176Z</time></trkpt><trkpt lat="45.4300433" lon="10.791515"><ele>126.0</ele><time>2026-04-18T11:00:18.178Z</time></trkpt><trkpt lat="45.4300867" lon="10.79163"><ele>126.0</ele><time>2026-04-18T11:00:19.169Z</time></trkpt><trkpt lat="45.43013" lon="10.79175"><ele>126.0</ele><time>2026-04-18T11:00:20.179Z</time></trkpt><trkpt lat="45.4302133" lon="10.7920167"><ele>126.66666666666666</ele><time>2026-04-18T11:00:22.213Z</time></trkpt><trkpt lat="45.4302667" lon="10.7921633"><ele>127.33333333333333</ele><time>2026-04-18T11:00:23.164Z</time></trkpt><trkpt lat="45.4303817" lon="10.7924783"><ele>128.0</ele><time>2026-04-18T11:00:25.16Z</time></trkpt><trkpt lat="45.4304367" lon="10.7926383"><ele>127.75</ele><time>2026-04-18T11:00:26.23Z</time></trkpt><trkpt lat="45.4304967" lon="10.7928017"><ele>127.5</ele><time>2026-04-18T11:00:27.239Z</time></trkpt><trkpt lat="45.4305617" lon="10.7929667"><ele>127.25</ele><time>2026-04-18T11:00:28.218Z</time></trkpt><trkpt lat="45.4306383" lon="10.793135"><ele>127.0</ele><time>2026-04-18T11:00:29.229Z</time></trkpt><trkpt lat="45.4307283" lon="10.793305"><ele>127.0</ele><time>2026-04-18T11:00:30.169Z</time></trkpt><trkpt lat="45.4308233" lon="10.79348"><ele>127.0</ele><time>2026-04-18T11:00:31.185Z</time></trkpt><trkpt lat="45.4309183" lon="10.7936567"><ele>127.0</ele><time>2026-04-18T11:00:32.172Z</time></trkpt><trkpt lat="45.4310133" lon="10.7938367"><ele>127.33333333333334</ele><time>2026-04-18T11:00:33.163Z</time></trkpt><trkpt lat="45.43111" lon="10.7940167"><ele>127.66666666666666</ele><time>2026-04-18T11:00:34.163Z</time></trkpt><trkpt lat="45.4312067" lon="10.7941967"><ele>128.0</ele><time>2026-04-18T11:00:35.157Z</time></trkpt><trkpt lat="45.4313" lon="10.7943833"><ele>129.0</ele><time>2026-04-18T11:00:36.171Z</time></trkpt><trkpt lat="45.43139" lon="10.794575"><ele>130.0</ele><time>2026-04-18T11:00:37.191Z</time></trkpt><trkpt lat="45.4314817" lon="10.794775"><ele>131.0</ele><time>2026-04-18T11:00:38.158Z</time></trkpt><trkpt lat="45.4315767" lon="10.79498"><ele>132.0</ele><time>2026-04-18T11:00:39.276Z</time></trkpt><trkpt lat="45.4317633" lon="10.7954017"><ele>133.0</ele><time>2026-04-18T11:00:41.187Z</time></trkpt><trkpt lat="45.4318533" lon="10.7956033"><ele>133.0</ele><time>2026-04-18T11:00:42.164Z</time></trkpt><trkpt lat="45.4319367" lon="10.795785"><ele>133.0</ele><time>2026-04-18T11:00:43.188Z</time></trkpt><trkpt lat="45.43208" lon="10.79609"><ele>133.0</ele><time>2026-04-18T11:00:45.196Z</time></trkpt><trkpt lat="45.4321333" lon="10.7962067"><ele>134.33333333333334</ele><time>2026-04-18T11:00:46.17Z</time></trkpt><trkpt lat="45.4321833" lon="10.7962983"><ele>135.66666666666669</ele><time>2026-04-18T11:00:47.174Z</time></trkpt><trkpt lat="45.432235" lon="10.7963783"><ele>137.0</ele><time>2026-04-18T11:00:48.167Z</time></trkpt><trkpt lat="45.4322933" lon="10.7964583"><ele>138.33333333333334</ele><time>2026-04-18T11:00:49.173Z</time></trkpt><trkpt lat="45.432355" lon="10.7965417"><ele>139.66666666666666</ele><time>2026-04-18T11:00:50.168Z</time></trkpt><trkpt lat="45.4324017" lon="10.796635"><ele>141.0</ele><time>2026-04-18T11:00:51.187Z</time></trkpt><trkpt lat="45.432435" lon="10.7967383"><ele>141.75</ele><time>2026-04-18T11:00:52.179Z</time></trkpt><trkpt lat="45.4324433" lon="10.79686"><ele>142.5</ele><time>2026-04-18T11:00:53.166Z</time></trkpt><trkpt lat="45.432415" lon="10.797135"><ele>143.25</ele><time>2026-04-18T11:00:55.168Z</time></trkpt><trkpt lat="45.4324017" lon="10.797285"><ele>144.0</ele><time>2026-04-18T11:00:56.189Z</time></trkpt><trkpt lat="45.4323983" lon="10.797445"><ele>142.33333333333334</ele><time>2026-04-18T11:00:57.203Z</time></trkpt><trkpt lat="45.43243" lon="10.7978067"><ele>140.66666666666669</ele><time>2026-04-18T11:00:59.194Z</time></trkpt><trkpt lat="45.4324733" lon="10.7979833"><ele>139.0</ele><time>2026-04-18T11:01:00.167Z</time></trkpt><trkpt lat="45.432525" lon="10.7981383"><ele>139.0</ele><time>2026-04-18T11:01:01.181Z</time></trkpt><trkpt lat="45.4325633" lon="10.7983083"><ele>139.0</ele><time>2026-04-18T11:01:02.181Z</time></trkpt><trkpt lat="45.432595" lon="10.7984867"><ele>139.0</ele><time>2026-04-18T11:01:03.18Z</time></trkpt><trkpt lat="45.4326433" lon="10.798665"><ele>139.0</ele><time>2026-04-18T11:01:04.178Z</time></trkpt><trkpt lat="45.4327017" lon="10.7988033"><ele>137.75</ele><time>2026-04-18T11:01:05.175Z</time></trkpt><trkpt lat="45.43278" lon="10.79895"><ele>136.5</ele><time>2026-04-18T11:01:06.168Z</time></trkpt><trkpt lat="45.4328383" lon="10.7991267"><ele>135.25</ele><time>2026-04-18T11:01:07.158Z</time></trkpt><trkpt lat="45.432925" lon="10.7992717"><ele>134.0</ele><time>2026-04-18T11:01:08.168Z</time></trkpt><trkpt lat="45.4330133" lon="10.79941"><ele>133.0</ele><time>2026-04-18T11:01:09.2Z</time></trkpt><trkpt lat="45.433125" lon="10.7995633"><ele>132.0</ele><time>2026-04-18T11:01:10.196Z</time></trkpt><trkpt lat="45.43323" lon="10.7996967"><ele>131.0</ele><time>2026-04-18T11:01:11.16Z</time></trkpt><trkpt lat="45.4333117" lon="10.7998633"><ele>130.0</ele><time>2026-04-18T11:01:12.193Z</time></trkpt><trkpt lat="45.4334" lon="10.8000033"><ele>130.0</ele><time>2026-04-18T11:01:13.17Z</time></trkpt><trkpt lat="45.4334917" lon="10.80013"><ele>130.0</ele><time>2026-04-18T11:01:14.182Z</time></trkpt><trkpt lat="45.4335667" lon="10.8002867"><ele>130.0</ele><time>2026-04-18T11:01:15.179Z</time></trkpt><trkpt lat="45.43364" lon="10.8004617"><ele>130.0</ele><time>2026-04-18T11:01:16.158Z</time></trkpt><trkpt lat="45.4337017" lon="10.8006317"><ele>129.66666666666669</ele><time>2026-04-18T11:01:17.2Z</time></trkpt><trkpt lat="45.4337583" lon="10.8008233"><ele>129.33333333333334</ele><time>2026-04-18T11:01:18.174Z</time></trkpt><trkpt lat="45.43382" lon="10.801015"><ele>129.0</ele><time>2026-04-18T11:01:19.181Z</time></trkpt><trkpt lat="45.4338817" lon="10.80122"><ele>129.0</ele><time>2026-04-18T11:01:20.167Z</time></trkpt><trkpt lat="45.4339533" lon="10.8014133"><ele>129.0</ele><time>2026-04-18T11:01:21.178Z</time></trkpt><trkpt lat="45.434035" lon="10.8016033"><ele>129.0</ele><time>2026-04-18T11:01:22.162Z</time></trkpt><trkpt lat="45.43411" lon="10.8018067"><ele>130.0</ele><time>2026-04-18T11:01:23.169Z</time></trkpt><trkpt lat="45.43416" lon="10.802"><ele>131.0</ele><time>2026-04-18T11:01:24.165Z</time></trkpt><trkpt lat="45.4342333" lon="10.8021983"><ele>132.0</ele><time>2026-04-18T11:01:25.173Z</time></trkpt><trkpt lat="45.4342983" lon="10.802395"><ele>132.0</ele><time>2026-04-18T11:01:26.165Z</time></trkpt><trkpt lat="45.4343667" lon="10.8026117"><ele>132.0</ele><time>2026-04-18T11:01:27.158Z</time></trkpt><trkpt lat="45.4344467" lon="10.8028083"><ele>132.0</ele><time>2026-04-18T11:01:28.165Z</time></trkpt><trkpt lat="45.4345217" lon="10.803"><ele>131.75</ele><time>2026-04-18T11:01:29.167Z</time></trkpt><trkpt lat="45.43457" lon="10.8031933"><ele>131.5</ele><time>2026-04-18T11:01:30.17Z</time></trkpt><trkpt lat="45.434625" lon="10.8033883"><ele>131.25</ele><time>2026-04-18T11:01:31.169Z</time></trkpt><trkpt lat="45.4346817" lon="10.8035917"><ele>131.0</ele><time>2026-04-18T11:01:32.169Z</time></trkpt><trkpt lat="45.4347717" lon="10.8037617"><ele>130.66666666666666</ele><time>2026-04-18T11:01:33.193Z</time></trkpt><trkpt lat="45.4348767" lon="10.8039233"><ele>130.33333333333334</ele><time>2026-04-18T11:01:34.222Z</time></trkpt><trkpt lat="45.43499" lon="10.8040717"><ele>130.0</ele><time>2026-04-18T11:01:35.167Z</time></trkpt><trkpt lat="45.4351183" lon="10.8042067"><ele>130.0</ele><time>2026-04-18T11:01:36.178Z</time></trkpt><trkpt lat="45.4352517" lon="10.8043483"><ele>130.0</ele><time>2026-04-18T11:01:37.168Z</time></trkpt><trkpt lat="45.435385" lon="10.804495"><ele>130.0</ele><time>2026-04-18T11:01:38.167Z</time></trkpt><trkpt lat="45.4355183" lon="10.80465"><ele>130.66666666666669</ele><time>2026-04-18T11:01:39.165Z</time></trkpt><trkpt lat="45.4356583" lon="10.80481"><ele>131.33333333333334</ele><time>2026-04-18T11:01:40.17Z</time></trkpt><trkpt lat="45.4357917" lon="10.8049817"><ele>132.0</ele><time>2026-04-18T11:01:41.184Z</time></trkpt><trkpt lat="45.4360283" lon="10.8053117"><ele>132.0</ele><time>2026-04-18T11:01:43.16Z</time></trkpt><trkpt lat="45.4361483" lon="10.8054983"><ele>132.0</ele><time>2026-04-18T11:01:44.169Z</time></trkpt><trkpt lat="45.4362617" lon="10.8056583"><ele>132.0</ele><time>2026-04-18T11:01:45.191Z</time></trkpt><trkpt lat="45.4363733" lon="10.8058217"><ele>132.33333333333334</ele><time>2026-04-18T11:01:46.174Z</time></trkpt><trkpt lat="45.4364833" lon="10.8059883"><ele>132.66666666666669</ele><time>2026-04-18T11:01:47.171Z</time></trkpt><trkpt lat="45.4366" lon="10.806155"><ele>133.0</ele><time>2026-04-18T11:01:48.166Z</time></trkpt><trkpt lat="45.4367183" lon="10.8063233"><ele>133.66666666666669</ele><time>2026-04-18T11:01:49.166Z</time></trkpt><trkpt lat="45.4368383" lon="10.8064783"><ele>134.33333333333334</ele><time>2026-04-18T11:01:50.218Z</time></trkpt><trkpt lat="45.43695" lon="10.8066233"><ele>135.0</ele><time>2026-04-18T11:01:51.16Z</time></trkpt><trkpt lat="45.437055" lon="10.80676"><ele>135.5</ele><time>2026-04-18T11:01:52.16Z</time></trkpt><trkpt lat="45.4371583" lon="10.8068983"><ele>136.0</ele><time>2026-04-18T11:01:53.16Z</time></trkpt><trkpt lat="45.43726" lon="10.80704"><ele>136.5</ele><time>2026-04-18T11:01:54.187Z</time></trkpt><trkpt lat="45.4373617" lon="10.80718"><ele>137.0</ele><time>2026-04-18T11:01:55.245Z</time></trkpt><trkpt lat="45.4374633" lon="10.8073183"><ele>137.0</ele><time>2026-04-18T11:01:56.161Z</time></trkpt><trkpt lat="45.4375617" lon="10.8074583"><ele>137.0</ele><time>2026-04-18T11:01:57.17Z</time></trkpt><trkpt lat="45.43766" lon="10.8076017"><ele>137.0</ele><time>2026-04-18T11:01:58.25Z</time></trkpt><trkpt lat="45.4377667" lon="10.80774"><ele>137.0</ele><time>2026-04-18T11:01:59.173Z</time></trkpt><trkpt lat="45.437875" lon="10.8078817"><ele>137.0</ele><time>2026-04-18T11:02:00.193Z</time></trkpt><trkpt lat="45.4379867" lon="10.80802"><ele>137.0</ele><time>2026-04-18T11:02:01.167Z</time></trkpt><trkpt lat="45.4381017" lon="10.8081583"><ele>137.0</ele><time>2026-04-18T11:02:02.16Z</time></trkpt><trkpt lat="45.43822" lon="10.8082933"><ele>137.0</ele><time>2026-04-18T11:02:03.19Z</time></trkpt><trkpt lat="45.4383433" lon="10.8084217"><ele>137.0</ele><time>2026-04-18T11:02:04.166Z</time></trkpt><trkpt lat="45.4384683" lon="10.80855"><ele>137.0</ele><time>2026-04-18T11:02:05.185Z</time></trkpt><trkpt lat="45.4387167" lon="10.8087967"><ele>137.33333333333331</ele><time>2026-04-18T11:02:07.165Z</time></trkpt><trkpt lat="45.4388417" lon="10.8089167"><ele>137.66666666666666</ele><time>2026-04-18T11:02:08.175Z</time></trkpt><trkpt lat="45.438965" lon="10.80904"><ele>138.0</ele><time>2026-04-18T11:02:09.182Z</time></trkpt><trkpt lat="45.4390917" lon="10.8091617"><ele>138.0</ele><time>2026-04-18T11:02:10.168Z</time></trkpt><trkpt lat="45.4392217" lon="10.809275"><ele>138.0</ele><time>2026-04-18T11:02:11.174Z</time></trkpt><trkpt lat="45.4393633" lon="10.8093717"><ele>138.0</ele><time>2026-04-18T11:02:12.192Z</time></trkpt><trkpt lat="45.4394883" lon="10.8094817"><ele>137.75</ele><time>2026-04-18T11:02:13.182Z</time></trkpt><trkpt lat="45.4396033" lon="10.8096133"><ele>137.5</ele><time>2026-04-18T11:02:14.164Z</time></trkpt><trkpt lat="45.4397167" lon="10.8097433"><ele>137.25</ele><time>2026-04-18T11:02:15.175Z</time></trkpt><trkpt lat="45.4398083" lon="10.8099067"><ele>137.0</ele><time>2026-04-18T11:02:16.171Z</time></trkpt><trkpt lat="45.4398867" lon="10.81009"><ele>140.0</ele><time>2026-04-18T11:02:17.193Z</time></trkpt><trkpt lat="45.4399767" lon="10.81029"><ele>143.0</ele><time>2026-04-18T11:02:18.172Z</time></trkpt><trkpt lat="45.4400483" lon="10.8104883"><ele>146.0</ele><time>2026-04-18T11:02:19.161Z</time></trkpt><trkpt lat="45.4402233" lon="10.81083"><ele>146.0</ele><time>2026-04-18T11:02:21.166Z</time></trkpt><trkpt lat="45.440335" lon="10.8109883"><ele>146.0</ele><time>2026-04-18T11:02:22.208Z</time></trkpt><trkpt lat="45.4404417" lon="10.8111533"><ele>146.0</ele><time>2026-04-18T11:02:23.164Z</time></trkpt><trkpt lat="45.4405467" lon="10.8113267"><ele>148.0</ele><time>2026-04-18T11:02:24.192Z</time></trkpt><trkpt lat="45.44064" lon="10.8115217"><ele>150.0</ele><time>2026-04-18T11:02:25.178Z</time></trkpt><trkpt lat="45.440725" lon="10.8117217"><ele>152.0</ele><time>2026-04-18T11:02:26.199Z</time></trkpt><trkpt lat="45.4408167" lon="10.811915"><ele>152.66666666666666</ele><time>2026-04-18T11:02:27.165Z</time></trkpt><trkpt lat="45.4409233" lon="10.812105"><ele>153.33333333333334</ele><time>2026-04-18T11:02:28.172Z</time></trkpt><trkpt lat="45.4410067" lon="10.8122983"><ele>154.0</ele><time>2026-04-18T11:02:29.16Z</time></trkpt><trkpt lat="45.44111" lon="10.8125133"><ele>154.0</ele><time>2026-04-18T11:02:30.224Z</time></trkpt><trkpt lat="45.4413117" lon="10.8129067"><ele>154.0</ele><time>2026-04-18T11:02:32.208Z</time></trkpt><trkpt lat="45.4414133" lon="10.8131083"><ele>154.0</ele><time>2026-04-18T11:02:33.171Z</time></trkpt><trkpt lat="45.441515" lon="10.8132867"><ele>154.0</ele><time>2026-04-18T11:02:34.185Z</time></trkpt><trkpt lat="45.4416033" lon="10.81344"><ele>154.0</ele><time>2026-04-18T11:02:35.184Z</time></trkpt><trkpt lat="45.4416983" lon="10.8135783"><ele>154.0</ele><time>2026-04-18T11:02:36.24Z</time></trkpt><trkpt lat="45.44179" lon="10.813725"><ele>152.75</ele><time>2026-04-18T11:02:37.2Z</time></trkpt><trkpt lat="45.4418667" lon="10.8138733"><ele>151.5</ele><time>2026-04-18T11:02:38.18Z</time></trkpt><trkpt lat="45.441985" lon="10.814005"><ele>150.25</ele><time>2026-04-18T11:02:39.191Z</time></trkpt><trkpt lat="45.4420383" lon="10.8141517"><ele>149.0</ele><time>2026-04-18T11:02:40.173Z</time></trkpt><trkpt lat="45.4420783" lon="10.81448"><ele>147.66666666666666</ele><time>2026-04-18T11:02:42.166Z</time></trkpt><trkpt lat="45.4420517" lon="10.8146667"><ele>146.33333333333334</ele><time>2026-04-18T11:02:43.228Z</time></trkpt><trkpt lat="45.4419717" lon="10.8150667"><ele>145.0</ele><time>2026-04-18T11:02:45.162Z</time></trkpt><trkpt lat="45.4419467" lon="10.8152883"><ele>145.0</ele><time>2026-04-18T11:02:46.167Z</time></trkpt><trkpt lat="45.4419183" lon="10.815505"><ele>145.0</ele><time>2026-04-18T11:02:47.187Z</time></trkpt><trkpt lat="45.4418617" lon="10.81604"><ele>144.75</ele><time>2026-04-18T11:02:50.219Z</time></trkpt><trkpt lat="45.4418633" lon="10.8161983"><ele>144.5</ele><time>2026-04-18T11:02:51.235Z</time></trkpt><trkpt lat="45.4418867" lon="10.816355"><ele>144.25</ele><time>2026-04-18T11:02:52.188Z</time></trkpt><trkpt lat="45.44192" lon="10.81651"><ele>144.0</ele><time>2026-04-18T11:02:53.161Z</time></trkpt><trkpt lat="45.44195" lon="10.8166733"><ele>144.0</ele><time>2026-04-18T11:02:54.168Z</time></trkpt><trkpt lat="45.441985" lon="10.8168383"><ele>144.0</ele><time>2026-04-18T11:02:55.213Z</time></trkpt><trkpt lat="45.4420667" lon="10.81722"><ele>144.0</ele><time>2026-04-18T11:02:57.178Z</time></trkpt><trkpt lat="45.442115" lon="10.8174183"><ele>143.8</ele><time>2026-04-18T11:02:58.171Z</time></trkpt><trkpt lat="45.4421717" lon="10.817615"><ele>143.60000000000002</ele><time>2026-04-18T11:02:59.163Z</time></trkpt><trkpt lat="45.4421817" lon="10.817775"><ele>143.4</ele><time>2026-04-18T11:03:00.212Z</time></trkpt><trkpt lat="45.4421917" lon="10.8179017"><ele>143.20000000000002</ele><time>2026-04-18T11:03:01.164Z</time></trkpt><trkpt lat="45.4422283" lon="10.8180133"><ele>143.0</ele><time>2026-04-18T11:03:02.163Z</time></trkpt><trkpt lat="45.4423" lon="10.81814"><ele>143.0</ele><time>2026-04-18T11:03:04.164Z</time></trkpt><trkpt lat="45.4424367" lon="10.8181933"><ele>143.0</ele><time>2026-04-18T11:03:06.193Z</time></trkpt><trkpt lat="45.4425517" lon="10.818195"><ele>143.0</ele><time>2026-04-18T11:03:07.179Z</time></trkpt><trkpt lat="45.4426733" lon="10.81819"><ele>143.0</ele><time>2026-04-18T11:03:08.209Z</time></trkpt><trkpt lat="45.442785" lon="10.8181883"><ele>143.0</ele><time>2026-04-18T11:03:09.18Z</time></trkpt><trkpt lat="45.4429017" lon="10.8181867"><ele>143.0</ele><time>2026-04-18T11:03:10.191Z</time></trkpt><trkpt lat="45.4429917" lon="10.8181933"><ele>143.0</ele><time>2026-04-18T11:03:11.182Z</time></trkpt><trkpt lat="45.4430983" lon="10.8182017"><ele>143.0</ele><time>2026-04-18T11:03:13.166Z</time></trkpt><trkpt lat="45.4431283" lon="10.8183633"><ele>143.0</ele><time>2026-04-18T11:03:42.169Z</time></trkpt><trkpt lat="45.44314" lon="10.8184733"><ele>142.8</ele><time>2026-04-18T11:03:43.224Z</time></trkpt><trkpt lat="45.4431533" lon="10.818595"><ele>142.60000000000002</ele><time>2026-04-18T11:03:44.195Z</time></trkpt><trkpt lat="45.4431817" lon="10.8188267"><ele>142.39999999999998</ele><time>2026-04-18T11:03:46.181Z</time></trkpt><trkpt lat="45.4431967" lon="10.818935"><ele>142.2</ele><time>2026-04-18T11:03:47.169Z</time></trkpt><trkpt lat="45.4432133" lon="10.8190483"><ele>142.0</ele><time>2026-04-18T11:03:48.219Z</time></trkpt><trkpt lat="45.4432333" lon="10.8191767"><ele>141.4</ele><time>2026-04-18T11:03:49.171Z</time></trkpt><trkpt lat="45.4432717" lon="10.819325"><ele>140.79999999999998</ele><time>2026-04-18T11:03:50.193Z</time></trkpt><trkpt lat="45.443285" lon="10.8194717"><ele>140.2</ele><time>2026-04-18T11:03:51.17Z</time></trkpt><trkpt lat="45.44329" lon="10.8196233"><ele>139.6</ele><time>2026-04-18T11:03:52.167Z</time></trkpt><trkpt lat="45.4433" lon="10.8197517"><ele>139.0</ele><time>2026-04-18T11:03:53.159Z</time></trkpt><trkpt lat="45.4433117" lon="10.8198683"><ele>139.0</ele><time>2026-04-18T11:03:54.158Z</time></trkpt><trkpt lat="45.4433433" lon="10.82007"><ele>139.0</ele><time>2026-04-18T11:03:56.17Z</time></trkpt><trkpt lat="45.443365" lon="10.8202417"><ele>139.0</ele><time>2026-04-18T11:03:58.182Z</time></trkpt><trkpt lat="45.443385" lon="10.8203933"><ele>139.0</ele><time>2026-04-18T11:04:00.202Z</time></trkpt><trkpt lat="45.44341" lon="10.820515"><ele>138.75</ele><time>2026-04-18T11:04:02.204Z</time></trkpt><trkpt lat="45.44343" lon="10.8206367"><ele>138.5</ele><time>2026-04-18T11:04:05.181Z</time></trkpt><trkpt lat="45.44345" lon="10.8207533"><ele>138.25</ele><time>2026-04-18T11:04:22.217Z</time></trkpt><trkpt lat="45.4434933" lon="10.82094"><ele>138.0</ele><time>2026-04-18T11:04:24.205Z</time></trkpt><trkpt lat="45.4435433" lon="10.8211967"><ele>137.83333333333334</ele><time>2026-04-18T11:04:26.169Z</time></trkpt><trkpt lat="45.443565" lon="10.821315"><ele>137.66666666666666</ele><time>2026-04-18T11:04:27.191Z</time></trkpt><trkpt lat="45.44358" lon="10.8214133"><ele>137.5</ele><time>2026-04-18T11:04:28.23Z</time></trkpt><trkpt lat="45.4436" lon="10.8215433"><ele>137.33333333333331</ele><time>2026-04-18T11:04:30.182Z</time></trkpt><trkpt lat="45.443675" lon="10.8215983"><ele>137.16666666666666</ele><time>2026-04-18T11:04:42.166Z</time></trkpt><trkpt lat="45.443745" lon="10.821575"><ele>137.0</ele><time>2026-04-18T11:04:43.204Z</time></trkpt><trkpt lat="45.44383" lon="10.82153"><ele>137.0</ele><time>2026-04-18T11:04:44.18Z</time></trkpt><trkpt lat="45.4439217" lon="10.8214683"><ele>137.0</ele><time>2026-04-18T11:04:45.202Z</time></trkpt><trkpt lat="45.4440133" lon="10.821405"><ele>137.0</ele><time>2026-04-18T11:04:46.166Z</time></trkpt><trkpt lat="45.44411" lon="10.8213433"><ele>137.0</ele><time>2026-04-18T11:04:47.173Z</time></trkpt><trkpt lat="45.4442067" lon="10.821285"><ele>137.0</ele><time>2026-04-18T11:04:48.218Z</time></trkpt><trkpt lat="45.4444367" lon="10.8211617"><ele>137.0</ele><time>2026-04-18T11:04:50.172Z</time></trkpt><trkpt lat="45.4445467" lon="10.8210883"><ele>137.0</ele><time>2026-04-18T11:04:51.164Z</time></trkpt><trkpt lat="45.4447667" lon="10.8209583"><ele>137.0</ele><time>2026-04-18T11:04:53.161Z</time></trkpt><trkpt lat="45.4448917" lon="10.8209033"><ele>137.75</ele><time>2026-04-18T11:04:54.179Z</time></trkpt><trkpt lat="45.445005" lon="10.8208283"><ele>138.5</ele><time>2026-04-18T11:04:55.227Z</time></trkpt><trkpt lat="45.44511" lon="10.8207583"><ele>139.25</ele><time>2026-04-18T11:04:56.173Z</time></trkpt><trkpt lat="45.44522" lon="10.8206617"><ele>140.0</ele><time>2026-04-18T11:04:57.207Z</time></trkpt><trkpt lat="45.4453333" lon="10.8205967"><ele>140.0</ele><time>2026-04-18T11:04:58.162Z</time></trkpt><trkpt lat="45.4454417" lon="10.8205183"><ele>140.0</ele><time>2026-04-18T11:04:59.165Z</time></trkpt><trkpt lat="45.4455533" lon="10.82047"><ele>140.0</ele><time>2026-04-18T11:05:00.175Z</time></trkpt><trkpt lat="45.4456617" lon="10.820385"><ele>140.0</ele><time>2026-04-18T11:05:01.16Z</time></trkpt><trkpt lat="45.445785" lon="10.8203217"><ele>142.0</ele><time>2026-04-18T11:05:02.168Z</time></trkpt><trkpt lat="45.4459117" lon="10.82025"><ele>144.0</ele><time>2026-04-18T11:05:03.164Z</time></trkpt><trkpt lat="45.44604" lon="10.8201783"><ele>146.0</ele><time>2026-04-18T11:05:04.214Z</time></trkpt><trkpt lat="45.446165" lon="10.8201017"><ele>148.0</ele><time>2026-04-18T11:05:05.162Z</time></trkpt><trkpt lat="45.4462917" lon="10.8200267"><ele>150.33333333333334</ele><time>2026-04-18T11:05:06.211Z</time></trkpt><trkpt lat="45.44654" lon="10.8198833"><ele>152.66666666666666</ele><time>2026-04-18T11:05:08.159Z</time></trkpt><trkpt lat="45.446665" lon="10.8198233"><ele>155.0</ele><time>2026-04-18T11:05:09.172Z</time></trkpt><trkpt lat="45.4467883" lon="10.8197733"><ele>155.0</ele><time>2026-04-18T11:05:10.196Z</time></trkpt><trkpt lat="45.446895" lon="10.8197533"><ele>155.0</ele><time>2026-04-18T11:05:11.187Z</time></trkpt><trkpt lat="45.4470417" lon="10.8198033"><ele>155.0</ele><time>2026-04-18T11:05:12.206Z</time></trkpt><trkpt lat="45.4471717" lon="10.8198533"><ele>155.0</ele><time>2026-04-18T11:05:13.16Z</time></trkpt><trkpt lat="45.4474317" lon="10.8199483"><ele>157.25</ele><time>2026-04-18T11:05:15.177Z</time></trkpt><trkpt lat="45.4475533" lon="10.81997"><ele>159.5</ele><time>2026-04-18T11:05:16.234Z</time></trkpt><trkpt lat="45.4476767" lon="10.8199667"><ele>161.75</ele><time>2026-04-18T11:05:17.161Z</time></trkpt><trkpt lat="45.4478" lon="10.8199183"><ele>164.0</ele><time>2026-04-18T11:05:18.164Z</time></trkpt><trkpt lat="45.4480583" lon="10.8198"><ele>166.25</ele><time>2026-04-18T11:05:20.181Z</time></trkpt><trkpt lat="45.4481733" lon="10.8197117"><ele>168.5</ele><time>2026-04-18T11:05:21.201Z</time></trkpt><trkpt lat="45.4483017" lon="10.8196383"><ele>170.75</ele><time>2026-04-18T11:05:22.218Z</time></trkpt><trkpt lat="45.4484267" lon="10.819585"><ele>173.0</ele><time>2026-04-18T11:05:23.16Z</time></trkpt><trkpt lat="45.4485717" lon="10.8195483"><ele>173.0</ele><time>2026-04-18T11:05:24.156Z</time></trkpt><trkpt lat="45.4486983" lon="10.8195567"><ele>173.0</ele><time>2026-04-18T11:05:25.232Z</time></trkpt><trkpt lat="45.4488367" lon="10.81956"><ele>173.0</ele><time>2026-04-18T11:05:26.175Z</time></trkpt><trkpt lat="45.448975" lon="10.8195833"><ele>173.0</ele><time>2026-04-18T11:05:27.17Z</time></trkpt><trkpt lat="45.4491117" lon="10.8195933"><ele>174.66666666666666</ele><time>2026-04-18T11:05:28.176Z</time></trkpt><trkpt lat="45.4493817" lon="10.8195817"><ele>176.33333333333334</ele><time>2026-04-18T11:05:30.251Z</time></trkpt><trkpt lat="45.4495133" lon="10.8195767"><ele>178.0</ele><time>2026-04-18T11:05:31.157Z</time></trkpt><trkpt lat="45.44964" lon="10.819565"><ele>179.0</ele><time>2026-04-18T11:05:32.168Z</time></trkpt><trkpt lat="45.4497533" lon="10.8195433"><ele>180.0</ele><time>2026-04-18T11:05:33.156Z</time></trkpt><trkpt lat="45.449865" lon="10.8194967"><ele>181.0</ele><time>2026-04-18T11:05:34.178Z</time></trkpt><trkpt lat="45.4499533" lon="10.819455"><ele>182.0</ele><time>2026-04-18T11:05:35.182Z</time></trkpt><trkpt lat="45.450045" lon="10.81943"><ele>183.0</ele><time>2026-04-18T11:05:36.201Z</time></trkpt><trkpt lat="45.4502333" lon="10.8193533"><ele>181.75</ele><time>2026-04-18T11:05:39.18Z</time></trkpt><trkpt lat="45.45032" lon="10.8192883"><ele>180.5</ele><time>2026-04-18T11:05:41.18Z</time></trkpt><trkpt lat="45.4502967" lon="10.81908"><ele>179.25</ele><time>2026-04-18T11:05:43.164Z</time></trkpt><trkpt lat="45.4503317" lon="10.8188417"><ele>178.0</ele><time>2026-04-18T11:05:45.162Z</time></trkpt><trkpt lat="45.4503867" lon="10.818735"><ele>179.25</ele><time>2026-04-18T11:05:46.171Z</time></trkpt><trkpt lat="45.45046" lon="10.8186333"><ele>180.5</ele><time>2026-04-18T11:05:47.164Z</time></trkpt><trkpt lat="45.450545" lon="10.818535"><ele>181.75</ele><time>2026-04-18T11:05:48.164Z</time></trkpt><trkpt lat="45.45073" lon="10.8183317"><ele>183.0</ele><time>2026-04-18T11:05:50.164Z</time></trkpt><trkpt lat="45.4508417" lon="10.8182383"><ele>183.0</ele><time>2026-04-18T11:05:51.203Z</time></trkpt><trkpt lat="45.4509667" lon="10.81815"><ele>183.0</ele><time>2026-04-18T11:05:52.16Z</time></trkpt><trkpt lat="45.4510833" lon="10.818075"><ele>183.0</ele><time>2026-04-18T11:05:53.216Z</time></trkpt><trkpt lat="45.4512033" lon="10.8179733"><ele>183.0</ele><time>2026-04-18T11:05:54.248Z</time></trkpt><trkpt lat="45.451315" lon="10.8179183"><ele>183.60000000000002</ele><time>2026-04-18T11:05:55.208Z</time></trkpt><trkpt lat="45.4514267" lon="10.8178767"><ele>184.20000000000002</ele><time>2026-04-18T11:05:56.163Z</time></trkpt><trkpt lat="45.45153" lon="10.8178617"><ele>184.8</ele><time>2026-04-18T11:05:57.183Z</time></trkpt><trkpt lat="45.4516317" lon="10.8178533"><ele>185.4</ele><time>2026-04-18T11:05:58.188Z</time></trkpt><trkpt lat="45.45174" lon="10.8178383"><ele>186.0</ele><time>2026-04-18T11:05:59.204Z</time></trkpt><trkpt lat="45.4519633" lon="10.8178167"><ele>186.0</ele><time>2026-04-18T11:06:01.198Z</time></trkpt><trkpt lat="45.452065" lon="10.8178067"><ele>186.0</ele><time>2026-04-18T11:06:02.173Z</time></trkpt><trkpt lat="45.45226" lon="10.8177983"><ele>186.0</ele><time>2026-04-18T11:06:04.196Z</time></trkpt><trkpt lat="45.4523417" lon="10.8177883"><ele>186.0</ele><time>2026-04-18T11:06:05.16Z</time></trkpt><trkpt lat="45.4524183" lon="10.8177867"><ele>185.5</ele><time>2026-04-18T11:06:06.169Z</time></trkpt><trkpt lat="45.45258" lon="10.8178083"><ele>185.0</ele><time>2026-04-18T11:06:08.164Z</time></trkpt><trkpt lat="45.45274" lon="10.8178883"><ele>184.5</ele><time>2026-04-18T11:06:10.177Z</time></trkpt><trkpt lat="45.452805" lon="10.81792"><ele>184.0</ele><time>2026-04-18T11:06:11.176Z</time></trkpt><trkpt lat="45.4528733" lon="10.81797"><ele>183.0</ele><time>2026-04-18T11:06:13.261Z</time></trkpt><trkpt lat="45.452965" lon="10.81792"><ele>182.0</ele><time>2026-04-18T11:06:20.19Z</time></trkpt><trkpt lat="45.4530183" lon="10.817835"><ele>181.0</ele><time>2026-04-18T11:06:21.161Z</time></trkpt><trkpt lat="45.4530617" lon="10.8177183"><ele>180.0</ele><time>2026-04-18T11:06:22.182Z</time></trkpt><trkpt lat="45.4530967" lon="10.8176117"><ele>179.0</ele><time>2026-04-18T11:06:23.173Z</time></trkpt><trkpt lat="45.4531467" lon="10.8175533"><ele>178.0</ele><time>2026-04-18T11:06:24.202Z</time></trkpt><trkpt lat="45.4532217" lon="10.8175233"><ele>177.5</ele><time>2026-04-18T11:06:25.161Z</time></trkpt><trkpt lat="45.4533183" lon="10.817495"><ele>177.0</ele><time>2026-04-18T11:06:26.194Z</time></trkpt><trkpt lat="45.45342" lon="10.817475"><ele>176.5</ele><time>2026-04-18T11:06:27.169Z</time></trkpt><trkpt lat="45.45354" lon="10.8174633"><ele>176.0</ele><time>2026-04-18T11:06:28.198Z</time></trkpt><trkpt lat="45.4536833" lon="10.8174333"><ele>175.25</ele><time>2026-04-18T11:06:29.165Z</time></trkpt><trkpt lat="45.4538083" lon="10.8174067"><ele>174.5</ele><time>2026-04-18T11:06:30.162Z</time></trkpt><trkpt lat="45.4539283" lon="10.81741"><ele>173.75</ele><time>2026-04-18T11:06:31.165Z</time></trkpt><trkpt lat="45.4540433" lon="10.8173917"><ele>173.0</ele><time>2026-04-18T11:06:32.163Z</time></trkpt><trkpt lat="45.4541433" lon="10.8173833"><ele>173.0</ele><time>2026-04-18T11:06:33.2Z</time></trkpt><trkpt lat="45.4542717" lon="10.81744"><ele>173.0</ele><time>2026-04-18T11:06:34.164Z</time></trkpt><trkpt lat="45.4543683" lon="10.8174733"><ele>173.0</ele><time>2026-04-18T11:06:35.185Z</time></trkpt><trkpt lat="45.454465" lon="10.8175017"><ele>173.0</ele><time>2026-04-18T11:06:36.186Z</time></trkpt><trkpt lat="45.4545467" lon="10.81753"><ele>173.0</ele><time>2026-04-18T11:06:37.158Z</time></trkpt><trkpt lat="45.4546633" lon="10.8175617"><ele>172.5</ele><time>2026-04-18T11:06:38.17Z</time></trkpt><trkpt lat="45.4547767" lon="10.8175567"><ele>172.0</ele><time>2026-04-18T11:06:39.237Z</time></trkpt><trkpt lat="45.4548833" lon="10.8175933"><ele>171.5</ele><time>2026-04-18T11:06:40.223Z</time></trkpt><trkpt lat="45.4549983" lon="10.8176167"><ele>171.0</ele><time>2026-04-18T11:06:41.16Z</time></trkpt><trkpt lat="45.45513" lon="10.8176267"><ele>171.0</ele><time>2026-04-18T11:06:42.214Z</time></trkpt><trkpt lat="45.4552583" lon="10.817635"><ele>171.0</ele><time>2026-04-18T11:06:43.159Z</time></trkpt><trkpt lat="45.45537" lon="10.81762"><ele>171.0</ele><time>2026-04-18T11:06:44.184Z</time></trkpt><trkpt lat="45.45548" lon="10.8176133"><ele>171.0</ele><time>2026-04-18T11:06:45.171Z</time></trkpt><trkpt lat="45.45557" lon="10.8176233"><ele>171.0</ele><time>2026-04-18T11:06:46.179Z</time></trkpt><trkpt lat="45.455775" lon="10.8176283"><ele>171.0</ele><time>2026-04-18T11:06:48.159Z</time></trkpt><trkpt lat="45.4558867" lon="10.8176467"><ele>171.0</ele><time>2026-04-18T11:06:49.192Z</time></trkpt><trkpt lat="45.4559767" lon="10.81767"><ele>171.0</ele><time>2026-04-18T11:06:50.215Z</time></trkpt><trkpt lat="45.4560633" lon="10.8177183"><ele>171.0</ele><time>2026-04-18T11:06:51.2Z</time></trkpt><trkpt lat="45.4561467" lon="10.8177883"><ele>171.0</ele><time>2026-04-18T11:06:52.225Z</time></trkpt><trkpt lat="45.4562283" lon="10.8178967"><ele>167.25</ele><time>2026-04-18T11:06:53.163Z</time></trkpt><trkpt lat="45.4563017" lon="10.8180083"><ele>163.5</ele><time>2026-04-18T11:06:54.266Z</time></trkpt><trkpt lat="45.4563633" lon="10.8181417"><ele>159.75</ele><time>2026-04-18T11:06:55.17Z</time></trkpt><trkpt lat="45.4564483" lon="10.8184317"><ele>156.0</ele><time>2026-04-18T11:06:57.168Z</time></trkpt><trkpt lat="45.456485" lon="10.8185683"><ele>155.8</ele><time>2026-04-18T11:06:58.167Z</time></trkpt><trkpt lat="45.45651" lon="10.8187183"><ele>155.6</ele><time>2026-04-18T11:06:59.16Z</time></trkpt><trkpt lat="45.4565517" lon="10.8188617"><ele>155.4</ele><time>2026-04-18T11:07:00.253Z</time></trkpt><trkpt lat="45.4566067" lon="10.8190033"><ele>155.2</ele><time>2026-04-18T11:07:01.173Z</time></trkpt><trkpt lat="45.4566317" lon="10.8191533"><ele>155.0</ele><time>2026-04-18T11:07:02.166Z</time></trkpt><trkpt lat="45.4566833" lon="10.81926"><ele>154.6</ele><time>2026-04-18T11:07:03.206Z</time></trkpt><trkpt lat="45.45677" lon="10.8193817"><ele>154.2</ele><time>2026-04-18T11:07:04.195Z</time></trkpt><trkpt lat="45.4568567" lon="10.8194517"><ele>153.8</ele><time>2026-04-18T11:07:05.179Z</time></trkpt><trkpt lat="45.4569217" lon="10.81953"><ele>153.4</ele><time>2026-04-18T11:07:06.181Z</time></trkpt><trkpt lat="45.457045" lon="10.8196217"><ele>153.0</ele><time>2026-04-18T11:07:07.177Z</time></trkpt><trkpt lat="45.4571617" lon="10.8196617"><ele>152.75</ele><time>2026-04-18T11:07:08.181Z</time></trkpt><trkpt lat="45.4572767" lon="10.8197083"><ele>152.5</ele><time>2026-04-18T11:07:09.159Z</time></trkpt><trkpt lat="45.4573917" lon="10.8197717"><ele>152.25</ele><time>2026-04-18T11:07:10.162Z</time></trkpt><trkpt lat="45.4575067" lon="10.819855"><ele>152.0</ele><time>2026-04-18T11:07:11.189Z</time></trkpt><trkpt lat="45.45762" lon="10.8199267"><ele>152.0</ele><time>2026-04-18T11:07:12.21Z</time></trkpt><trkpt lat="45.457735" lon="10.819995"><ele>152.0</ele><time>2026-04-18T11:07:13.183Z</time></trkpt><trkpt lat="45.4578467" lon="10.820075"><ele>152.0</ele><time>2026-04-18T11:07:14.173Z</time></trkpt><trkpt lat="45.4579617" lon="10.8201483"><ele>152.0</ele><time>2026-04-18T11:07:15.185Z</time></trkpt><trkpt lat="45.4580933" lon="10.820195"><ele>151.33333333333331</ele><time>2026-04-18T11:07:16.178Z</time></trkpt><trkpt lat="45.45822" lon="10.8202217"><ele>150.66666666666666</ele><time>2026-04-18T11:07:17.244Z</time></trkpt><trkpt lat="45.45849" lon="10.8202167"><ele>150.0</ele><time>2026-04-18T11:07:19.185Z</time></trkpt><trkpt lat="45.4586433" lon="10.8202"><ele>150.33333333333334</ele><time>2026-04-18T11:07:20.225Z</time></trkpt><trkpt lat="45.4588067" lon="10.8201883"><ele>150.66666666666669</ele><time>2026-04-18T11:07:21.156Z</time></trkpt><trkpt lat="45.4589567" lon="10.8201633"><ele>151.0</ele><time>2026-04-18T11:07:22.18Z</time></trkpt><trkpt lat="45.4591" lon="10.8201467"><ele>151.0</ele><time>2026-04-18T11:07:23.175Z</time></trkpt><trkpt lat="45.459235" lon="10.8201017"><ele>151.0</ele><time>2026-04-18T11:07:24.178Z</time></trkpt><trkpt lat="45.45947" lon="10.8201333"><ele>151.0</ele><time>2026-04-18T11:07:26.163Z</time></trkpt><trkpt lat="45.459695" lon="10.8202567"><ele>149.75</ele><time>2026-04-18T11:07:28.219Z</time></trkpt><trkpt lat="45.4598" lon="10.8203733"><ele>148.5</ele><time>2026-04-18T11:07:29.181Z</time></trkpt><trkpt lat="45.4598967" lon="10.82051"><ele>147.25</ele><time>2026-04-18T11:07:30.185Z</time></trkpt><trkpt lat="45.45999" lon="10.820675"><ele>146.0</ele><time>2026-04-18T11:07:31.174Z</time></trkpt><trkpt lat="45.4600833" lon="10.8208533"><ele>145.0</ele><time>2026-04-18T11:07:32.245Z</time></trkpt><trkpt lat="45.4601833" lon="10.8210367"><ele>144.0</ele><time>2026-04-18T11:07:33.164Z</time></trkpt><trkpt lat="45.4602667" lon="10.8212583"><ele>143.0</ele><time>2026-04-18T11:07:34.176Z</time></trkpt><trkpt lat="45.460335" lon="10.82147"><ele>143.0</ele><time>2026-04-18T11:07:35.165Z</time></trkpt><trkpt lat="45.4604267" lon="10.8216833"><ele>143.0</ele><time>2026-04-18T11:07:36.17Z</time></trkpt><trkpt lat="45.4604833" lon="10.8218983"><ele>143.0</ele><time>2026-04-18T11:07:37.185Z</time></trkpt><trkpt lat="45.460555" lon="10.8221033"><ele>142.5</ele><time>2026-04-18T11:07:38.181Z</time></trkpt><trkpt lat="45.4606533" lon="10.822275"><ele>142.0</ele><time>2026-04-18T11:07:39.175Z</time></trkpt><trkpt lat="45.4607383" lon="10.8224383"><ele>141.5</ele><time>2026-04-18T11:07:40.16Z</time></trkpt><trkpt lat="45.4608567" lon="10.8225617"><ele>141.0</ele><time>2026-04-18T11:07:41.195Z</time></trkpt><trkpt lat="45.461" lon="10.82267"><ele>140.66666666666666</ele><time>2026-04-18T11:07:42.174Z</time></trkpt><trkpt lat="45.4611417" lon="10.8227567"><ele>140.33333333333331</ele><time>2026-04-18T11:07:43.203Z</time></trkpt><trkpt lat="45.4612933" lon="10.8228783"><ele>140.0</ele><time>2026-04-18T11:07:44.241Z</time></trkpt><trkpt lat="45.4614483" lon="10.8230183"><ele>140.0</ele><time>2026-04-18T11:07:45.167Z</time></trkpt><trkpt lat="45.4615917" lon="10.8231383"><ele>140.0</ele><time>2026-04-18T11:07:46.173Z</time></trkpt><trkpt lat="45.4617417" lon="10.8232833"><ele>140.0</ele><time>2026-04-18T11:07:47.207Z</time></trkpt><trkpt lat="45.4618883" lon="10.8234483"><ele>139.33333333333331</ele><time>2026-04-18T11:07:48.171Z</time></trkpt><trkpt lat="45.4620333" lon="10.8235917"><ele>138.66666666666666</ele><time>2026-04-18T11:07:49.165Z</time></trkpt><trkpt lat="45.4621833" lon="10.82377"><ele>138.0</ele><time>2026-04-18T11:07:50.208Z</time></trkpt><trkpt lat="45.46232" lon="10.8239517"><ele>138.66666666666666</ele><time>2026-04-18T11:07:51.162Z</time></trkpt><trkpt lat="45.4624483" lon="10.82412"><ele>139.33333333333331</ele><time>2026-04-18T11:07:52.215Z</time></trkpt><trkpt lat="45.46261" lon="10.8242833"><ele>140.0</ele><time>2026-04-18T11:07:53.215Z</time></trkpt><trkpt lat="45.462755" lon="10.824435"><ele>140.0</ele><time>2026-04-18T11:07:54.21Z</time></trkpt><trkpt lat="45.4629" lon="10.8245833"><ele>140.0</ele><time>2026-04-18T11:07:55.193Z</time></trkpt><trkpt lat="45.4630567" lon="10.824735"><ele>140.0</ele><time>2026-04-18T11:07:56.172Z</time></trkpt><trkpt lat="45.46321" lon="10.8248717"><ele>139.66666666666666</ele><time>2026-04-18T11:07:57.173Z</time></trkpt><trkpt lat="45.4633733" lon="10.825005"><ele>139.33333333333334</ele><time>2026-04-18T11:07:58.191Z</time></trkpt><trkpt lat="45.4635467" lon="10.8251233"><ele>139.0</ele><time>2026-04-18T11:07:59.173Z</time></trkpt><trkpt lat="45.46372" lon="10.8252483"><ele>140.0</ele><time>2026-04-18T11:08:00.185Z</time></trkpt><trkpt lat="45.4638767" lon="10.82539"><ele>141.0</ele><time>2026-04-18T11:08:01.192Z</time></trkpt><trkpt lat="45.4641667" lon="10.82566"><ele>141.0</ele><time>2026-04-18T11:08:03.161Z</time></trkpt><trkpt lat="45.464295" lon="10.8258033"><ele>141.0</ele><time>2026-04-18T11:08:04.168Z</time></trkpt><trkpt lat="45.4644183" lon="10.8259317"><ele>141.0</ele><time>2026-04-18T11:08:05.209Z</time></trkpt><trkpt lat="45.4645517" lon="10.82602"><ele>141.0</ele><time>2026-04-18T11:08:06.17Z</time></trkpt><trkpt lat="45.4646483" lon="10.8261367"><ele>141.0</ele><time>2026-04-18T11:08:07.206Z</time></trkpt><trkpt lat="45.4647567" lon="10.8262417"><ele>141.0</ele><time>2026-04-18T11:08:08.179Z</time></trkpt><trkpt lat="45.46492" lon="10.8263933"><ele>141.0</ele><time>2026-04-18T11:08:10.161Z</time></trkpt><trkpt lat="45.4649817" lon="10.826445"><ele>141.0</ele><time>2026-04-18T11:08:11.171Z</time></trkpt><trkpt lat="45.4650317" lon="10.8266"><ele>141.0</ele><time>2026-04-18T11:08:13.169Z</time></trkpt><trkpt lat="45.4650517" lon="10.8267017"><ele>141.0</ele><time>2026-04-18T11:08:14.188Z</time></trkpt><trkpt lat="45.465065" lon="10.8268167"><ele>141.0</ele><time>2026-04-18T11:08:15.163Z</time></trkpt><trkpt lat="45.4650783" lon="10.8269283"><ele>141.0</ele><time>2026-04-18T11:08:16.166Z</time></trkpt><trkpt lat="45.4651883" lon="10.8270317"><ele>140.33333333333334</ele><time>2026-04-18T11:08:18.175Z</time></trkpt><trkpt lat="45.4652983" lon="10.8270217"><ele>139.66666666666669</ele><time>2026-04-18T11:08:19.162Z</time></trkpt><trkpt lat="45.4654983" lon="10.8272633"><ele>139.0</ele><time>2026-04-18T11:08:22.182Z</time></trkpt><trkpt lat="45.4655617" lon="10.8274033"><ele>139.0</ele><time>2026-04-18T11:08:23.163Z</time></trkpt><trkpt lat="45.4656383" lon="10.8275617"><ele>139.0</ele><time>2026-04-18T11:08:24.175Z</time></trkpt><trkpt lat="45.4657833" lon="10.8278783"><ele>139.0</ele><time>2026-04-18T11:08:26.265Z</time></trkpt><trkpt lat="45.4659383" lon="10.8282083"><ele>138.33333333333334</ele><time>2026-04-18T11:08:28.288Z</time></trkpt><trkpt lat="45.4661167" lon="10.8285367"><ele>137.66666666666666</ele><time>2026-04-18T11:08:30.178Z</time></trkpt><trkpt lat="45.46619" lon="10.828695"><ele>137.0</ele><time>2026-04-18T11:08:31.196Z</time></trkpt><trkpt lat="45.4662617" lon="10.8288483"><ele>137.0</ele><time>2026-04-18T11:08:32.187Z</time></trkpt><trkpt lat="45.466345" lon="10.8290183"><ele>137.0</ele><time>2026-04-18T11:08:33.213Z</time></trkpt><trkpt lat="45.4664167" lon="10.8291817"><ele>137.0</ele><time>2026-04-18T11:08:34.195Z</time></trkpt><trkpt lat="45.466495" lon="10.82938"><ele>137.0</ele><time>2026-04-18T11:08:35.176Z</time></trkpt><trkpt lat="45.4666617" lon="10.82974"><ele>137.0</ele><time>2026-04-18T11:08:37.197Z</time></trkpt><trkpt lat="45.4667533" lon="10.82992"><ele>137.0</ele><time>2026-04-18T11:08:38.254Z</time></trkpt><trkpt lat="45.46685" lon="10.8300883"><ele>137.0</ele><time>2026-04-18T11:08:39.162Z</time></trkpt><trkpt lat="45.466945" lon="10.830255"><ele>136.0</ele><time>2026-04-18T11:08:40.179Z</time></trkpt><trkpt lat="45.4671283" lon="10.830585"><ele>135.0</ele><time>2026-04-18T11:08:42.174Z</time></trkpt><trkpt lat="45.467205" lon="10.83074"><ele>134.0</ele><time>2026-04-18T11:08:43.162Z</time></trkpt><trkpt lat="45.4673133" lon="10.8308933"><ele>134.0</ele><time>2026-04-18T11:08:44.157Z</time></trkpt><trkpt lat="45.4674083" lon="10.8310483"><ele>134.0</ele><time>2026-04-18T11:08:45.16Z</time></trkpt><trkpt lat="45.4675167" lon="10.8311967"><ele>134.0</ele><time>2026-04-18T11:08:46.165Z</time></trkpt><trkpt lat="45.4676333" lon="10.8313517"><ele>134.0</ele><time>2026-04-18T11:08:47.179Z</time></trkpt><trkpt lat="45.4677483" lon="10.8314883"><ele>134.0</ele><time>2026-04-18T11:08:48.179Z</time></trkpt><trkpt lat="45.4678733" lon="10.83159"><ele>134.0</ele><time>2026-04-18T11:08:49.168Z</time></trkpt><trkpt lat="45.4680333" lon="10.8316833"><ele>134.0</ele><time>2026-04-18T11:08:50.165Z</time></trkpt><trkpt lat="45.4681617" lon="10.8318"><ele>134.0</ele><time>2026-04-18T11:08:51.196Z</time></trkpt><trkpt lat="45.4682617" lon="10.8319417"><ele>134.0</ele><time>2026-04-18T11:08:52.158Z</time></trkpt><trkpt lat="45.4683483" lon="10.8321017"><ele>134.0</ele><time>2026-04-18T11:08:53.159Z</time></trkpt><trkpt lat="45.46848" lon="10.832475"><ele>134.0</ele><time>2026-04-18T11:08:55.163Z</time></trkpt><trkpt lat="45.468555" lon="10.832665"><ele>134.0</ele><time>2026-04-18T11:08:56.159Z</time></trkpt><trkpt lat="45.4686417" lon="10.8328583"><ele>134.0</ele><time>2026-04-18T11:08:57.177Z</time></trkpt><trkpt lat="45.4687017" lon="10.83305"><ele>134.33333333333331</ele><time>2026-04-18T11:08:58.174Z</time></trkpt><trkpt lat="45.4687783" lon="10.8332583"><ele>134.66666666666666</ele><time>2026-04-18T11:08:59.193Z</time></trkpt><trkpt lat="45.4688667" lon="10.833455"><ele>135.0</ele><time>2026-04-18T11:09:00.229Z</time></trkpt><trkpt lat="45.4689467" lon="10.8336417"><ele>134.33333333333334</ele><time>2026-04-18T11:09:01.19Z</time></trkpt><trkpt lat="45.4690367" lon="10.83381"><ele>133.66666666666669</ele><time>2026-04-18T11:09:02.158Z</time></trkpt><trkpt lat="45.4691417" lon="10.8339783"><ele>133.0</ele><time>2026-04-18T11:09:03.163Z</time></trkpt><trkpt lat="45.4692383" lon="10.8341533"><ele>133.0</ele><time>2026-04-18T11:09:04.166Z</time></trkpt><trkpt lat="45.4693467" lon="10.8343117"><ele>133.0</ele><time>2026-04-18T11:09:05.219Z</time></trkpt><trkpt lat="45.4694517" lon="10.8344983"><ele>133.0</ele><time>2026-04-18T11:09:06.191Z</time></trkpt><trkpt lat="45.46953" lon="10.8346983"><ele>132.33333333333334</ele><time>2026-04-18T11:09:07.191Z</time></trkpt><trkpt lat="45.469625" lon="10.834915"><ele>131.66666666666666</ele><time>2026-04-18T11:09:08.181Z</time></trkpt><trkpt lat="45.4696917" lon="10.83514"><ele>131.0</ele><time>2026-04-18T11:09:09.163Z</time></trkpt><trkpt lat="45.4697533" lon="10.8353767"><ele>129.66666666666666</ele><time>2026-04-18T11:09:10.154Z</time></trkpt><trkpt lat="45.4697933" lon="10.8356033"><ele>128.33333333333334</ele><time>2026-04-18T11:09:11.19Z</time></trkpt><trkpt lat="45.4698267" lon="10.8358183"><ele>127.0</ele><time>2026-04-18T11:09:12.179Z</time></trkpt><trkpt lat="45.4698767" lon="10.8360283"><ele>125.5</ele><time>2026-04-18T11:09:13.255Z</time></trkpt><trkpt lat="45.4699833" lon="10.83649"><ele>124.0</ele><time>2026-04-18T11:09:15.166Z</time></trkpt><trkpt lat="45.4700533" lon="10.8367017"><ele>123.66666666666667</ele><time>2026-04-18T11:09:16.163Z</time></trkpt><trkpt lat="45.4701183" lon="10.8369017"><ele>123.33333333333334</ele><time>2026-04-18T11:09:17.206Z</time></trkpt><trkpt lat="45.4701883" lon="10.8371"><ele>123.0</ele><time>2026-04-18T11:09:18.167Z</time></trkpt><trkpt lat="45.4702733" lon="10.837275"><ele>123.0</ele><time>2026-04-18T11:09:19.156Z</time></trkpt><trkpt lat="45.4703517" lon="10.83742"><ele>123.0</ele><time>2026-04-18T11:09:20.158Z</time></trkpt><trkpt lat="45.4704083" lon="10.8375817"><ele>123.0</ele><time>2026-04-18T11:09:21.2Z</time></trkpt><trkpt lat="45.47046" lon="10.837715"><ele>123.0</ele><time>2026-04-18T11:09:22.175Z</time></trkpt><trkpt lat="45.4705133" lon="10.8378167"><ele>123.0</ele><time>2026-04-18T11:09:23.169Z</time></trkpt><trkpt lat="45.4705717" lon="10.8378967"><ele>123.0</ele><time>2026-04-18T11:09:24.18Z</time></trkpt><trkpt lat="45.4706767" lon="10.8381017"><ele>123.0</ele><time>2026-04-18T11:09:26.201Z</time></trkpt><trkpt lat="45.4708017" lon="10.8383483"><ele>123.0</ele><time>2026-04-18T11:09:28.161Z</time></trkpt><trkpt lat="45.470875" lon="10.838475"><ele>123.00000000000001</ele><time>2026-04-18T11:09:29.222Z</time></trkpt><trkpt lat="45.4709483" lon="10.8385967"><ele>123.00000000000001</ele><time>2026-04-18T11:09:30.158Z</time></trkpt><trkpt lat="45.4710033" lon="10.8387283"><ele>123.0</ele><time>2026-04-18T11:09:31.205Z</time></trkpt><trkpt lat="45.4710633" lon="10.838845"><ele>123.0</ele><time>2026-04-18T11:09:32.181Z</time></trkpt><trkpt lat="45.4711233" lon="10.838975"><ele>123.0</ele><time>2026-04-18T11:09:33.178Z</time></trkpt><trkpt lat="45.471165" lon="10.8391333"><ele>123.0</ele><time>2026-04-18T11:09:34.174Z</time></trkpt><trkpt lat="45.4712283" lon="10.83927"><ele>123.0</ele><time>2026-04-18T11:09:35.156Z</time></trkpt><trkpt lat="45.4713167" lon="10.8393933"><ele>123.0</ele><time>2026-04-18T11:09:36.181Z</time></trkpt><trkpt lat="45.471465" lon="10.8397117"><ele>123.0</ele><time>2026-04-18T11:09:38.174Z</time></trkpt><trkpt lat="45.4715333" lon="10.8398667"><ele>123.0</ele><time>2026-04-18T11:09:39.183Z</time></trkpt><trkpt lat="45.4717133" lon="10.8401717"><ele>123.0</ele><time>2026-04-18T11:09:41.177Z</time></trkpt><trkpt lat="45.471915" lon="10.8404917"><ele>123.25</ele><time>2026-04-18T11:09:43.167Z</time></trkpt><trkpt lat="45.4720233" lon="10.84063"><ele>123.5</ele><time>2026-04-18T11:09:44.154Z</time></trkpt><trkpt lat="45.4721333" lon="10.8407733"><ele>123.75</ele><time>2026-04-18T11:09:45.187Z</time></trkpt><trkpt lat="45.4722267" lon="10.8409217"><ele>124.0</ele><time>2026-04-18T11:09:46.173Z</time></trkpt><trkpt lat="45.4723233" lon="10.8410633"><ele>124.0</ele><time>2026-04-18T11:09:47.222Z</time></trkpt><trkpt lat="45.472395" lon="10.8411867"><ele>124.0</ele><time>2026-04-18T11:09:48.157Z</time></trkpt><trkpt lat="45.472505" lon="10.8413067"><ele>124.0</ele><time>2026-04-18T11:09:49.161Z</time></trkpt><trkpt lat="45.4725767" lon="10.84141"><ele>124.0</ele><time>2026-04-18T11:09:50.2Z</time></trkpt><trkpt lat="45.4726533" lon="10.8414917"><ele>124.0</ele><time>2026-04-18T11:09:51.167Z</time></trkpt><trkpt lat="45.4727217" lon="10.841565"><ele>124.0</ele><time>2026-04-18T11:09:53.169Z</time></trkpt><trkpt lat="45.4727933" lon="10.8416567"><ele>124.0</ele><time>2026-04-18T11:10:49.171Z</time></trkpt><trkpt lat="45.4728517" lon="10.84171"><ele>124.0</ele><time>2026-04-18T11:10:50.16Z</time></trkpt><trkpt lat="45.47293" lon="10.8417667"><ele>124.0</ele><time>2026-04-18T11:10:51.22Z</time></trkpt><trkpt lat="45.47304" lon="10.8418283"><ele>124.0</ele><time>2026-04-18T11:10:52.235Z</time></trkpt><trkpt lat="45.4731617" lon="10.8418683"><ele>124.33333333333334</ele><time>2026-04-18T11:10:53.201Z</time></trkpt><trkpt lat="45.4732917" lon="10.841935"><ele>124.66666666666666</ele><time>2026-04-18T11:10:54.167Z</time></trkpt><trkpt lat="45.4734167" lon="10.8420067"><ele>125.0</ele><time>2026-04-18T11:10:55.188Z</time></trkpt><trkpt lat="45.473635" lon="10.8421333"><ele>125.0</ele><time>2026-04-18T11:10:57.156Z</time></trkpt><trkpt lat="45.4737333" lon="10.8421883"><ele>125.0</ele><time>2026-04-18T11:10:58.156Z</time></trkpt><trkpt lat="45.4738333" lon="10.8422533"><ele>125.0</ele><time>2026-04-18T11:10:59.165Z</time></trkpt><trkpt lat="45.47396" lon="10.8422917"><ele>125.0</ele><time>2026-04-18T11:11:00.17Z</time></trkpt><trkpt lat="45.4740817" lon="10.8423117"><ele>125.0</ele><time>2026-04-18T11:11:01.157Z</time></trkpt><trkpt lat="45.4742033" lon="10.8423367"><ele>125.0</ele><time>2026-04-18T11:11:02.169Z</time></trkpt><trkpt lat="45.4743583" lon="10.8423383"><ele>125.0</ele><time>2026-04-18T11:11:03.157Z</time></trkpt><trkpt lat="45.47455" lon="10.8423233"><ele>125.5</ele><time>2026-04-18T11:11:04.16Z</time></trkpt><trkpt lat="45.4747067" lon="10.8423417"><ele>126.0</ele><time>2026-04-18T11:11:05.167Z</time></trkpt><trkpt lat="45.47485" lon="10.8423633"><ele>126.5</ele><time>2026-04-18T11:11:06.162Z</time></trkpt><trkpt lat="45.4749933" lon="10.8423717"><ele>127.0</ele><time>2026-04-18T11:11:07.165Z</time></trkpt><trkpt lat="45.4751183" lon="10.8423817"><ele>127.0</ele><time>2026-04-18T11:11:08.17Z</time></trkpt><trkpt lat="45.4752333" lon="10.8423983"><ele>126.99999999999999</ele><time>2026-04-18T11:11:09.162Z</time></trkpt><trkpt lat="45.475345" lon="10.8424067"><ele>126.99999999999999</ele><time>2026-04-18T11:11:10.164Z</time></trkpt><trkpt lat="45.4754383" lon="10.84242"><ele>127.0</ele><time>2026-04-18T11:11:11.178Z</time></trkpt><trkpt lat="45.4755217" lon="10.8424533"><ele>127.0</ele><time>2026-04-18T11:11:12.188Z</time></trkpt><trkpt lat="45.475605" lon="10.8424517"><ele>127.33333333333334</ele><time>2026-04-18T11:11:14.156Z</time></trkpt><trkpt lat="45.475695" lon="10.8424633"><ele>127.66666666666667</ele><time>2026-04-18T11:11:43.161Z</time></trkpt><trkpt lat="45.4757633" lon="10.8424933"><ele>128.0</ele><time>2026-04-18T11:11:45.156Z</time></trkpt><trkpt lat="45.4758" lon="10.842595"><ele>128.33333333333334</ele><time>2026-04-18T11:11:47.168Z</time></trkpt><trkpt lat="45.47577" lon="10.8427717"><ele>128.66666666666666</ele><time>2026-04-18T11:11:49.159Z</time></trkpt><trkpt lat="45.4757367" lon="10.842875"><ele>129.0</ele><time>2026-04-18T11:11:50.165Z</time></trkpt><trkpt lat="45.4757017" lon="10.8429967"><ele>129.0</ele><time>2026-04-18T11:11:51.157Z</time></trkpt><trkpt lat="45.4756667" lon="10.84313"><ele>129.0</ele><time>2026-04-18T11:11:52.158Z</time></trkpt><trkpt lat="45.475615" lon="10.8432933"><ele>129.0</ele><time>2026-04-18T11:11:53.158Z</time></trkpt><trkpt lat="45.4755883" lon="10.8434383"><ele>129.0</ele><time>2026-04-18T11:11:54.163Z</time></trkpt><trkpt lat="45.47555" lon="10.843575"><ele>129.0</ele><time>2026-04-18T11:11:55.16Z</time></trkpt><trkpt lat="45.4755167" lon="10.84371"><ele>129.0</ele><time>2026-04-18T11:11:56.157Z</time></trkpt><trkpt lat="45.4754767" lon="10.8438633"><ele>129.0</ele><time>2026-04-18T11:11:57.157Z</time></trkpt><trkpt lat="45.4754433" lon="10.84402"><ele>129.0</ele><time>2026-04-18T11:11:58.163Z</time></trkpt><trkpt lat="45.4754067" lon="10.8441817"><ele>129.0</ele><time>2026-04-18T11:11:59.16Z</time></trkpt><trkpt lat="45.475375" lon="10.8443467"><ele>128.75</ele><time>2026-04-18T11:12:00.162Z</time></trkpt><trkpt lat="45.4753467" lon="10.8445083"><ele>128.5</ele><time>2026-04-18T11:12:01.159Z</time></trkpt><trkpt lat="45.475315" lon="10.8446617"><ele>128.25</ele><time>2026-04-18T11:12:02.165Z</time></trkpt><trkpt lat="45.4752833" lon="10.8448117"><ele>128.0</ele><time>2026-04-18T11:12:03.156Z</time></trkpt><trkpt lat="45.475255" lon="10.8449717"><ele>128.0</ele><time>2026-04-18T11:12:04.172Z</time></trkpt><trkpt lat="45.4752083" lon="10.8451167"><ele>128.0</ele><time>2026-04-18T11:12:05.172Z</time></trkpt><trkpt lat="45.4751783" lon="10.8452417"><ele>128.0</ele><time>2026-04-18T11:12:06.16Z</time></trkpt><trkpt lat="45.4751533" lon="10.8453717"><ele>128.0</ele><time>2026-04-18T11:12:07.165Z</time></trkpt><trkpt lat="45.4751267" lon="10.845505"><ele>128.0</ele><time>2026-04-18T11:12:08.153Z</time></trkpt><trkpt lat="45.475095" lon="10.8456433"><ele>128.20000000000002</ele><time>2026-04-18T11:12:09.166Z</time></trkpt><trkpt lat="45.475065" lon="10.8457967"><ele>128.4</ele><time>2026-04-18T11:12:10.158Z</time></trkpt><trkpt lat="45.475035" lon="10.8459533"><ele>128.60000000000002</ele><time>2026-04-18T11:12:11.163Z</time></trkpt><trkpt lat="45.4750067" lon="10.846105"><ele>128.8</ele><time>2026-04-18T11:12:12.181Z</time></trkpt><trkpt lat="45.47498" lon="10.846255"><ele>129.0</ele><time>2026-04-18T11:12:13.158Z</time></trkpt><trkpt lat="45.4749517" lon="10.846395"><ele>129.0</ele><time>2026-04-18T11:12:14.169Z</time></trkpt><trkpt lat="45.4749267" lon="10.8465233"><ele>129.0</ele><time>2026-04-18T11:12:15.164Z</time></trkpt><trkpt lat="45.47491" lon="10.8466383"><ele>129.0</ele><time>2026-04-18T11:12:16.168Z</time></trkpt><trkpt lat="45.4748883" lon="10.8467317"><ele>129.0</ele><time>2026-04-18T11:12:17.161Z</time></trkpt><trkpt lat="45.4748867" lon="10.8469"><ele>129.0</ele><time>2026-04-18T11:12:19.158Z</time></trkpt><trkpt lat="45.4748667" lon="10.8470533"><ele>128.66666666666666</ele><time>2026-04-18T11:12:21.167Z</time></trkpt><trkpt lat="45.4748317" lon="10.84717"><ele>128.33333333333334</ele><time>2026-04-18T11:12:23.163Z</time></trkpt><trkpt lat="45.474875" lon="10.847255"><ele>128.0</ele><time>2026-04-18T11:12:27.155Z</time></trkpt><trkpt lat="45.4749633" lon="10.8472683"><ele>127.66666666666667</ele><time>2026-04-18T11:12:29.158Z</time></trkpt><trkpt lat="45.4750267" lon="10.8472833"><ele>127.33333333333334</ele><time>2026-04-18T11:12:31.166Z</time></trkpt><trkpt lat="45.4750917" lon="10.8472933"><ele>127.0</ele><time>2026-04-18T11:12:33.164Z</time></trkpt><trkpt lat="45.475185" lon="10.8472933"><ele>127.0</ele><time>2026-04-18T11:12:35.171Z</time></trkpt><trkpt lat="45.475295" lon="10.8473083"><ele>126.99999999999999</ele><time>2026-04-18T11:12:37.159Z</time></trkpt><trkpt lat="45.47536" lon="10.8473217"><ele>126.99999999999999</ele><time>2026-04-18T11:12:38.165Z</time></trkpt><trkpt lat="45.4754583" lon="10.8474017"><ele>127.0</ele><time>2026-04-18T11:12:40.157Z</time></trkpt><trkpt lat="45.4754967" lon="10.8475317"><ele>127.0</ele><time>2026-04-18T11:12:42.17Z</time></trkpt><trkpt lat="45.4754933" lon="10.8476733"><ele>127.0</ele><time>2026-04-18T11:12:44.154Z</time></trkpt><trkpt lat="45.47546" lon="10.8477733"><ele>126.99999999999999</ele><time>2026-04-18T11:12:45.16Z</time></trkpt><trkpt lat="45.4754083" lon="10.8479"><ele>126.99999999999999</ele><time>2026-04-18T11:12:46.157Z</time></trkpt><trkpt lat="45.4753683" lon="10.8480433"><ele>127.0</ele><time>2026-04-18T11:12:47.159Z</time></trkpt><trkpt lat="45.475325" lon="10.8482033"><ele>127.0</ele><time>2026-04-18T11:12:48.159Z</time></trkpt><trkpt lat="45.4752933" lon="10.8483483"><ele>126.75</ele><time>2026-04-18T11:12:49.158Z</time></trkpt><trkpt lat="45.4752667" lon="10.8485117"><ele>126.5</ele><time>2026-04-18T11:12:50.164Z</time></trkpt><trkpt lat="45.4752433" lon="10.8486733"><ele>126.25</ele><time>2026-04-18T11:12:51.165Z</time></trkpt><trkpt lat="45.4752217" lon="10.8488633"><ele>126.0</ele><time>2026-04-18T11:12:52.159Z</time></trkpt><trkpt lat="45.4752367" lon="10.849045"><ele>126.0</ele><time>2026-04-18T11:12:53.164Z</time></trkpt><trkpt lat="45.47522" lon="10.8491833"><ele>126.0</ele><time>2026-04-18T11:12:54.157Z</time></trkpt><trkpt lat="45.4751817" lon="10.84933"><ele>126.0</ele><time>2026-04-18T11:12:55.166Z</time></trkpt><trkpt lat="45.4751033" lon="10.8495017"><ele>126.0</ele><time>2026-04-18T11:12:56.17Z</time></trkpt><trkpt lat="45.4750467" lon="10.8496767"><ele>125.4</ele><time>2026-04-18T11:12:57.158Z</time></trkpt><trkpt lat="45.47501" lon="10.8498133"><ele>124.8</ele><time>2026-04-18T11:12:58.164Z</time></trkpt><trkpt lat="45.4749667" lon="10.849965"><ele>124.20000000000002</ele><time>2026-04-18T11:12:59.166Z</time></trkpt><trkpt lat="45.4749033" lon="10.8501133"><ele>123.60000000000001</ele><time>2026-04-18T11:13:00.165Z</time></trkpt><trkpt lat="45.47484" lon="10.85024"><ele>123.0</ele><time>2026-04-18T11:13:01.161Z</time></trkpt><trkpt lat="45.474735" lon="10.85036"><ele>122.80000000000001</ele><time>2026-04-18T11:13:02.165Z</time></trkpt><trkpt lat="45.4746283" lon="10.8504783"><ele>122.60000000000001</ele><time>2026-04-18T11:13:03.16Z</time></trkpt><trkpt lat="45.47456" lon="10.8505967"><ele>122.39999999999999</ele><time>2026-04-18T11:13:04.158Z</time></trkpt><trkpt lat="45.474485" lon="10.8506867"><ele>122.19999999999999</ele><time>2026-04-18T11:13:05.159Z</time></trkpt><trkpt lat="45.474435" lon="10.85079"><ele>122.0</ele><time>2026-04-18T11:13:06.166Z</time></trkpt><trkpt lat="45.4744317" lon="10.8509233"><ele>121.5</ele><time>2026-04-18T11:13:07.166Z</time></trkpt><trkpt lat="45.4744417" lon="10.8510933"><ele>121.0</ele><time>2026-04-18T11:13:08.162Z</time></trkpt><trkpt lat="45.4744317" lon="10.851275"><ele>120.5</ele><time>2026-04-18T11:13:09.168Z</time></trkpt><trkpt lat="45.47441" lon="10.85145"><ele>120.0</ele><time>2026-04-18T11:13:10.166Z</time></trkpt><trkpt lat="45.4744033" lon="10.851615"><ele>120.0</ele><time>2026-04-18T11:13:11.164Z</time></trkpt><trkpt lat="45.47441" lon="10.8517617"><ele>120.0</ele><time>2026-04-18T11:13:12.166Z</time></trkpt><trkpt lat="45.4743817" lon="10.8518867"><ele>120.0</ele><time>2026-04-18T11:13:13.162Z</time></trkpt><trkpt lat="45.47435" lon="10.85205"><ele>120.0</ele><time>2026-04-18T11:13:15.164Z</time></trkpt><trkpt lat="45.4743817" lon="10.8522283"><ele>120.0</ele><time>2026-04-18T11:13:17.161Z</time></trkpt><trkpt lat="45.4744433" lon="10.8523367"><ele>119.5</ele><time>2026-04-18T11:13:18.173Z</time></trkpt><trkpt lat="45.474515" lon="10.85245"><ele>119.0</ele><time>2026-04-18T11:13:19.163Z</time></trkpt><trkpt lat="45.4745733" lon="10.852585"><ele>118.5</ele><time>2026-04-18T11:13:20.155Z</time></trkpt><trkpt lat="45.4746433" lon="10.8527333"><ele>118.0</ele><time>2026-04-18T11:13:21.164Z</time></trkpt><trkpt lat="45.4747083" lon="10.8529067"><ele>117.0</ele><time>2026-04-18T11:13:22.157Z</time></trkpt><trkpt lat="45.474785" lon="10.853085"><ele>116.0</ele><time>2026-04-18T11:13:23.162Z</time></trkpt><trkpt lat="45.474835" lon="10.8532483"><ele>115.0</ele><time>2026-04-18T11:13:24.16Z</time></trkpt><trkpt lat="45.4748783" lon="10.8533967"><ele>114.0</ele><time>2026-04-18T11:13:25.161Z</time></trkpt><trkpt lat="45.4749267" lon="10.8535433"><ele>113.5</ele><time>2026-04-18T11:13:26.157Z</time></trkpt><trkpt lat="45.4750017" lon="10.8536883"><ele>113.0</ele><time>2026-04-18T11:13:27.166Z</time></trkpt><trkpt lat="45.4750517" lon="10.8538017"><ele>112.5</ele><time>2026-04-18T11:13:28.162Z</time></trkpt><trkpt lat="45.4751083" lon="10.8539483"><ele>112.0</ele><time>2026-04-18T11:13:29.179Z</time></trkpt><trkpt lat="45.4751667" lon="10.8540883"><ele>112.0</ele><time>2026-04-18T11:13:30.166Z</time></trkpt><trkpt lat="45.4752233" lon="10.854225"><ele>111.99999999999999</ele><time>2026-04-18T11:13:31.163Z</time></trkpt><trkpt lat="45.4752717" lon="10.8543617"><ele>111.99999999999999</ele><time>2026-04-18T11:13:32.16Z</time></trkpt><trkpt lat="45.4753233" lon="10.8544983"><ele>112.0</ele><time>2026-04-18T11:13:33.157Z</time></trkpt><trkpt lat="45.47537" lon="10.854645"><ele>112.0</ele><time>2026-04-18T11:13:34.171Z</time></trkpt><trkpt lat="45.4754117" lon="10.854795"><ele>109.25</ele><time>2026-04-18T11:13:35.168Z</time></trkpt><trkpt lat="45.475455" lon="10.8549717"><ele>106.5</ele><time>2026-04-18T11:13:36.154Z</time></trkpt><trkpt lat="45.47551" lon="10.85513"><ele>103.75</ele><time>2026-04-18T11:13:37.163Z</time></trkpt><trkpt lat="45.4755883" lon="10.8553217"><ele>101.0</ele><time>2026-04-18T11:13:38.167Z</time></trkpt><trkpt lat="45.475645" lon="10.8555017"><ele>99.8</ele><time>2026-04-18T11:13:39.166Z</time></trkpt><trkpt lat="45.4757" lon="10.85563"><ele>98.6</ele><time>2026-04-18T11:13:40.159Z</time></trkpt><trkpt lat="45.4757333" lon="10.85577"><ele>97.4</ele><time>2026-04-18T11:13:41.164Z</time></trkpt><trkpt lat="45.475755" lon="10.8559267"><ele>96.2</ele><time>2026-04-18T11:13:42.156Z</time></trkpt><trkpt lat="45.47578" lon="10.8560217"><ele>95.0</ele><time>2026-04-18T11:13:43.154Z</time></trkpt><trkpt lat="45.4757783" lon="10.8561367"><ele>93.8</ele><time>2026-04-18T11:13:44.168Z</time></trkpt><trkpt lat="45.475775" lon="10.85624"><ele>92.6</ele><time>2026-04-18T11:13:45.157Z</time></trkpt><trkpt lat="45.4758683" lon="10.8563683"><ele>91.4</ele><time>2026-04-18T11:13:47.162Z</time></trkpt><trkpt lat="45.47595" lon="10.8564167"><ele>90.2</ele><time>2026-04-18T11:13:48.168Z</time></trkpt><trkpt lat="45.4760533" lon="10.8564667"><ele>89.0</ele><time>2026-04-18T11:13:49.152Z</time></trkpt><trkpt lat="45.476135" lon="10.8566067"><ele>89.0</ele><time>2026-04-18T11:13:50.161Z</time></trkpt><trkpt lat="45.4762183" lon="10.856765"><ele>89.0</ele><time>2026-04-18T11:13:51.156Z</time></trkpt><trkpt lat="45.4763033" lon="10.8569183"><ele>89.0</ele><time>2026-04-18T11:13:52.154Z</time></trkpt><trkpt lat="45.4763767" lon="10.8571117"><ele>89.0</ele><time>2026-04-18T11:13:53.167Z</time></trkpt><trkpt lat="45.476415" lon="10.857335"><ele>87.66666666666667</ele><time>2026-04-18T11:13:54.166Z</time></trkpt><trkpt lat="45.4765033" lon="10.8575533"><ele>86.33333333333333</ele><time>2026-04-18T11:13:55.153Z</time></trkpt><trkpt lat="45.4765533" lon="10.8577633"><ele>85.0</ele><time>2026-04-18T11:13:56.16Z</time></trkpt><trkpt lat="45.4765983" lon="10.8579333"><ele>85.0</ele><time>2026-04-18T11:13:57.165Z</time></trkpt><trkpt lat="45.4766233" lon="10.858085"><ele>85.0</ele><time>2026-04-18T11:13:58.155Z</time></trkpt><trkpt lat="45.4766533" lon="10.8582233"><ele>85.0</ele><time>2026-04-18T11:13:59.163Z</time></trkpt><trkpt lat="45.47667" lon="10.8583567"><ele>85.0</ele><time>2026-04-18T11:14:00.182Z</time></trkpt><trkpt lat="45.4766933" lon="10.8584767"><ele>85.0</ele><time>2026-04-18T11:14:01.169Z</time></trkpt><trkpt lat="45.4767333" lon="10.85858"><ele>85.5</ele><time>2026-04-18T11:14:02.164Z</time></trkpt><trkpt lat="45.476765" lon="10.8586717"><ele>86.0</ele><time>2026-04-18T11:14:03.164Z</time></trkpt><trkpt lat="45.4767833" lon="10.85876"><ele>86.5</ele><time>2026-04-18T11:14:04.156Z</time></trkpt><trkpt lat="45.4768117" lon="10.8589133"><ele>87.0</ele><time>2026-04-18T11:14:06.159Z</time></trkpt><trkpt lat="45.4768383" lon="10.8590867"><ele>87.5</ele><time>2026-04-18T11:14:08.159Z</time></trkpt><trkpt lat="45.47686" lon="10.859175"><ele>88.0</ele><time>2026-04-18T11:14:09.157Z</time></trkpt><trkpt lat="45.4768833" lon="10.859265"><ele>88.14285714285714</ele><time>2026-04-18T11:14:10.159Z</time></trkpt><trkpt lat="45.4769133" lon="10.85936"><ele>88.28571428571428</ele><time>2026-04-18T11:14:11.157Z</time></trkpt><trkpt lat="45.476945" lon="10.8594517"><ele>88.42857142857142</ele><time>2026-04-18T11:14:12.157Z</time></trkpt><trkpt lat="45.4769767" lon="10.8595433"><ele>88.57142857142857</ele><time>2026-04-18T11:14:13.156Z</time></trkpt><trkpt lat="45.4770067" lon="10.85964"><ele>88.71428571428571</ele><time>2026-04-18T11:14:14.161Z</time></trkpt><trkpt lat="45.4770367" lon="10.8597367"><ele>88.85714285714285</ele><time>2026-04-18T11:14:15.159Z</time></trkpt><trkpt lat="45.4770683" lon="10.8598267"><ele>89.0</ele><time>2026-04-18T11:14:16.158Z</time></trkpt><trkpt lat="45.4770983" lon="10.85992"><ele>88.16666666666667</ele><time>2026-04-18T11:14:17.157Z</time></trkpt><trkpt lat="45.4771283" lon="10.8600133"><ele>87.33333333333334</ele><time>2026-04-18T11:14:18.155Z</time></trkpt><trkpt lat="45.4771567" lon="10.860105"><ele>86.5</ele><time>2026-04-18T11:14:19.157Z</time></trkpt><trkpt lat="45.4771883" lon="10.8602"><ele>85.66666666666667</ele><time>2026-04-18T11:14:20.153Z</time></trkpt><trkpt lat="45.477225" lon="10.8603033"><ele>84.83333333333333</ele><time>2026-04-18T11:14:21.165Z</time></trkpt><trkpt lat="45.4772567" lon="10.8604133"><ele>84.0</ele><time>2026-04-18T11:14:22.164Z</time></trkpt><trkpt lat="45.4772917" lon="10.8605317"><ele>84.0</ele><time>2026-04-18T11:14:23.159Z</time></trkpt><trkpt lat="45.4773217" lon="10.8606567"><ele>84.0</ele><time>2026-04-18T11:14:24.154Z</time></trkpt><trkpt lat="45.4773717" lon="10.8607933"><ele>84.0</ele><time>2026-04-18T11:14:25.164Z</time></trkpt><trkpt lat="45.4774133" lon="10.860955"><ele>84.0</ele><time>2026-04-18T11:14:26.177Z</time></trkpt><trkpt lat="45.4774583" lon="10.8611183"><ele>84.0</ele><time>2026-04-18T11:14:27.156Z</time></trkpt><trkpt lat="45.4775017" lon="10.8612583"><ele>84.5</ele><time>2026-04-18T11:14:28.156Z</time></trkpt><trkpt lat="45.477535" lon="10.86137"><ele>85.0</ele><time>2026-04-18T11:14:29.162Z</time></trkpt><trkpt lat="45.4775633" lon="10.8614717"><ele>85.5</ele><time>2026-04-18T11:14:30.158Z</time></trkpt><trkpt lat="45.4775983" lon="10.86157"><ele>86.0</ele><time>2026-04-18T11:14:31.161Z</time></trkpt><trkpt lat="45.4776283" lon="10.8616783"><ele>86.5</ele><time>2026-04-18T11:14:32.166Z</time></trkpt><trkpt lat="45.4776617" lon="10.8617967"><ele>87.0</ele><time>2026-04-18T11:14:33.163Z</time></trkpt><trkpt lat="45.4777083" lon="10.861935"><ele>87.5</ele><time>2026-04-18T11:14:34.158Z</time></trkpt><trkpt lat="45.4777467" lon="10.8620783"><ele>88.0</ele><time>2026-04-18T11:14:35.167Z</time></trkpt><trkpt lat="45.4777917" lon="10.86223"><ele>88.5</ele><time>2026-04-18T11:14:36.165Z</time></trkpt><trkpt lat="45.4778417" lon="10.86239"><ele>89.0</ele><time>2026-04-18T11:14:37.155Z</time></trkpt><trkpt lat="45.477885" lon="10.8625467"><ele>87.2</ele><time>2026-04-18T11:14:38.167Z</time></trkpt><trkpt lat="45.4779367" lon="10.862685"><ele>85.4</ele><time>2026-04-18T11:14:39.167Z</time></trkpt><trkpt lat="45.477985" lon="10.862815"><ele>83.6</ele><time>2026-04-18T11:14:40.154Z</time></trkpt><trkpt lat="45.4780317" lon="10.862965"><ele>81.8</ele><time>2026-04-18T11:14:41.156Z</time></trkpt><trkpt lat="45.4780967" lon="10.8631067"><ele>80.0</ele><time>2026-04-18T11:14:42.156Z</time></trkpt><trkpt lat="45.4781567" lon="10.8632317"><ele>80.0</ele><time>2026-04-18T11:14:43.189Z</time></trkpt><trkpt lat="45.4782033" lon="10.863345"><ele>80.0</ele><time>2026-04-18T11:14:44.158Z</time></trkpt><trkpt lat="45.4782617" lon="10.8634717"><ele>80.0</ele><time>2026-04-18T11:14:45.158Z</time></trkpt><trkpt lat="45.4783067" lon="10.8635967"><ele>80.0</ele><time>2026-04-18T11:14:46.16Z</time></trkpt><trkpt lat="45.478355" lon="10.8637017"><ele>80.0</ele><time>2026-04-18T11:14:47.156Z</time></trkpt><trkpt lat="45.478405" lon="10.8638317"><ele>80.6</ele><time>2026-04-18T11:14:48.154Z</time></trkpt><trkpt lat="45.4784383" lon="10.8639283"><ele>81.2</ele><time>2026-04-18T11:14:49.158Z</time></trkpt><trkpt lat="45.4784683" lon="10.8640167"><ele>81.80000000000001</ele><time>2026-04-18T11:14:50.161Z</time></trkpt><trkpt lat="45.478525" lon="10.86416"><ele>82.4</ele><time>2026-04-18T11:14:52.156Z</time></trkpt><trkpt lat="45.4785833" lon="10.8642817"><ele>83.0</ele><time>2026-04-18T11:14:54.171Z</time></trkpt><trkpt lat="45.4786667" lon="10.8643733"><ele>82.0</ele><time>2026-04-18T11:14:56.157Z</time></trkpt><trkpt lat="45.4787867" lon="10.8643567"><ele>81.0</ele><time>2026-04-18T11:14:58.155Z</time></trkpt><trkpt lat="45.4788617" lon="10.864295"><ele>80.0</ele><time>2026-04-18T11:14:59.156Z</time></trkpt><trkpt lat="45.4789317" lon="10.8642367"><ele>79.0</ele><time>2026-04-18T11:15:00.164Z</time></trkpt><trkpt lat="45.4790067" lon="10.864175"><ele>78.0</ele><time>2026-04-18T11:15:01.166Z</time></trkpt><trkpt lat="45.4790817" lon="10.86412"><ele>78.0</ele><time>2026-04-18T11:15:02.155Z</time></trkpt><trkpt lat="45.4791617" lon="10.8640567"><ele>78.0</ele><time>2026-04-18T11:15:03.159Z</time></trkpt><trkpt lat="45.4792467" lon="10.8639917"><ele>78.0</ele><time>2026-04-18T11:15:04.169Z</time></trkpt><trkpt lat="45.4793467" lon="10.863915"><ele>78.0</ele><time>2026-04-18T11:15:05.153Z</time></trkpt><trkpt lat="45.479425" lon="10.86386"><ele>78.0</ele><time>2026-04-18T11:15:06.172Z</time></trkpt><trkpt lat="45.4794983" lon="10.8638033"><ele>78.0</ele><time>2026-04-18T11:15:07.161Z</time></trkpt><trkpt lat="45.4795667" lon="10.863755"><ele>78.0</ele><time>2026-04-18T11:15:08.159Z</time></trkpt><trkpt lat="45.4796317" lon="10.863715"><ele>78.0</ele><time>2026-04-18T11:15:09.163Z</time></trkpt><trkpt lat="45.4796917" lon="10.8636783"><ele>78.0</ele><time>2026-04-18T11:15:10.164Z</time></trkpt><trkpt lat="45.47978" lon="10.863645"><ele>78.0</ele><time>2026-04-18T11:15:12.155Z</time></trkpt><trkpt lat="45.47984" lon="10.86361"><ele>78.0</ele><time>2026-04-18T11:16:02.163Z</time></trkpt><trkpt lat="45.4799117" lon="10.8635983"><ele>78.0</ele><time>2026-04-18T11:16:04.159Z</time></trkpt><trkpt lat="45.4799767" lon="10.8636417"><ele>78.0</ele><time>2026-04-18T11:16:06.156Z</time></trkpt><trkpt lat="45.48001" lon="10.8637567"><ele>78.0</ele><time>2026-04-18T11:16:08.159Z</time></trkpt><trkpt lat="45.48003" lon="10.8638867"><ele>78.0</ele><time>2026-04-18T11:16:10.159Z</time></trkpt><trkpt lat="45.48002" lon="10.863985"><ele>78.0</ele><time>2026-04-18T11:16:14.156Z</time></trkpt><trkpt lat="45.4800383" lon="10.86408"><ele>78.0</ele><time>2026-04-18T11:16:17.164Z</time></trkpt><trkpt lat="45.480055" lon="10.8642033"><ele>78.0</ele><time>2026-04-18T11:16:19.159Z</time></trkpt><trkpt lat="45.4800817" lon="10.86435"><ele>78.0</ele><time>2026-04-18T11:16:21.153Z</time></trkpt><trkpt lat="45.4801183" lon="10.8645033"><ele>78.0</ele><time>2026-04-18T11:16:23.158Z</time></trkpt><trkpt lat="45.480125" lon="10.864595"><ele>78.0</ele><time>2026-04-18T11:16:24.169Z</time></trkpt><trkpt lat="45.4801433" lon="10.864695"><ele>78.0</ele><time>2026-04-18T11:16:25.166Z</time></trkpt><trkpt lat="45.480165" lon="10.8647933"><ele>78.0</ele><time>2026-04-18T11:16:26.154Z</time></trkpt><trkpt lat="45.4801867" lon="10.8648883"><ele>78.0</ele><time>2026-04-18T11:16:27.153Z</time></trkpt><trkpt lat="45.480205" lon="10.8649783"><ele>77.75</ele><time>2026-04-18T11:16:28.167Z</time></trkpt><trkpt lat="45.4802267" lon="10.8651317"><ele>77.5</ele><time>2026-04-18T11:16:30.158Z</time></trkpt><trkpt lat="45.480255" lon="10.865275"><ele>77.25</ele><time>2026-04-18T11:16:32.162Z</time></trkpt><trkpt lat="45.4803033" lon="10.86542"><ele>77.0</ele><time>2026-04-18T11:16:34.153Z</time></trkpt><trkpt lat="45.4803433" lon="10.865595"><ele>77.0</ele><time>2026-04-18T11:16:36.156Z</time></trkpt><trkpt lat="45.4803683" lon="10.8656933"><ele>77.0</ele><time>2026-04-18T11:16:37.162Z</time></trkpt><trkpt lat="45.4804" lon="10.8657967"><ele>77.0</ele><time>2026-04-18T11:16:38.153Z</time></trkpt><trkpt lat="45.4804317" lon="10.865905"><ele>77.0</ele><time>2026-04-18T11:16:39.162Z</time></trkpt><trkpt lat="45.4804733" lon="10.866015"><ele>77.0</ele><time>2026-04-18T11:16:40.156Z</time></trkpt><trkpt lat="45.4805167" lon="10.866125"><ele>77.0</ele><time>2026-04-18T11:16:41.155Z</time></trkpt><trkpt lat="45.4805517" lon="10.8662367"><ele>77.5</ele><time>2026-04-18T11:16:42.155Z</time></trkpt><trkpt lat="45.4805883" lon="10.8663383"><ele>78.0</ele><time>2026-04-18T11:16:43.166Z</time></trkpt><trkpt lat="45.4806183" lon="10.866445"><ele>78.5</ele><time>2026-04-18T11:16:44.156Z</time></trkpt><trkpt lat="45.4806417" lon="10.8665517"><ele>79.0</ele><time>2026-04-18T11:16:45.154Z</time></trkpt><trkpt lat="45.480665" lon="10.8666583"><ele>79.5</ele><time>2026-04-18T11:16:46.164Z</time></trkpt><trkpt lat="45.480705" lon="10.86675"><ele>80.0</ele><time>2026-04-18T11:16:47.161Z</time></trkpt><trkpt lat="45.48074" lon="10.8668383"><ele>80.2</ele><time>2026-04-18T11:16:48.165Z</time></trkpt><trkpt lat="45.480765" lon="10.86693"><ele>80.4</ele><time>2026-04-18T11:16:49.163Z</time></trkpt><trkpt lat="45.4808" lon="10.867095"><ele>80.6</ele><time>2026-04-18T11:16:51.159Z</time></trkpt><trkpt lat="45.4808333" lon="10.86723"><ele>80.8</ele><time>2026-04-18T11:16:53.157Z</time></trkpt><trkpt lat="45.480905" lon="10.8673117"><ele>81.0</ele><time>2026-04-18T11:16:55.152Z</time></trkpt><trkpt lat="45.4809867" lon="10.8673583"><ele>81.0</ele><time>2026-04-18T11:16:57.158Z</time></trkpt><trkpt lat="45.4810467" lon="10.8674317"><ele>81.0</ele><time>2026-04-18T11:16:59.166Z</time></trkpt><trkpt lat="45.4810783" lon="10.86756"><ele>81.0</ele><time>2026-04-18T11:17:01.157Z</time></trkpt><trkpt lat="45.4810667" lon="10.8677217"><ele>81.0</ele><time>2026-04-18T11:17:03.159Z</time></trkpt><trkpt lat="45.4810383" lon="10.8678067"><ele>81.0</ele><time>2026-04-18T11:17:04.151Z</time></trkpt><trkpt lat="45.4809967" lon="10.86791"><ele>81.0</ele><time>2026-04-18T11:17:05.173Z</time></trkpt><trkpt lat="45.4809783" lon="10.8680267"><ele>81.5</ele><time>2026-04-18T11:17:06.156Z</time></trkpt><trkpt lat="45.48091" lon="10.8681933"><ele>82.0</ele><time>2026-04-18T11:17:07.155Z</time></trkpt><trkpt lat="45.4808783" lon="10.86833"><ele>82.5</ele><time>2026-04-18T11:17:08.154Z</time></trkpt><trkpt lat="45.4808467" lon="10.86854"><ele>83.0</ele><time>2026-04-18T11:17:09.156Z</time></trkpt><trkpt lat="45.48082" lon="10.8686367"><ele>83.5</ele><time>2026-04-18T11:17:10.164Z</time></trkpt><trkpt lat="45.4807883" lon="10.86873"><ele>84.0</ele><time>2026-04-18T11:17:11.16Z</time></trkpt><trkpt lat="45.48075" lon="10.8688117"><ele>84.5</ele><time>2026-04-18T11:17:12.159Z</time></trkpt><trkpt lat="45.4807283" lon="10.8689617"><ele>85.0</ele><time>2026-04-18T11:17:14.171Z</time></trkpt><trkpt lat="45.4807367" lon="10.8691017"><ele>85.5</ele><time>2026-04-18T11:17:16.157Z</time></trkpt><trkpt lat="45.48077" lon="10.869185"><ele>86.0</ele><time>2026-04-18T11:17:17.164Z</time></trkpt><trkpt lat="45.480775" lon="10.8692767"><ele>86.16666666666667</ele><time>2026-04-18T11:17:18.173Z</time></trkpt><trkpt lat="45.4807767" lon="10.8693783"><ele>86.33333333333334</ele><time>2026-04-18T11:17:19.156Z</time></trkpt><trkpt lat="45.4807817" lon="10.8694833"><ele>86.5</ele><time>2026-04-18T11:17:20.154Z</time></trkpt><trkpt lat="45.4808" lon="10.8696"><ele>86.66666666666667</ele><time>2026-04-18T11:17:21.152Z</time></trkpt><trkpt lat="45.4808067" lon="10.8697117"><ele>86.83333333333333</ele><time>2026-04-18T11:17:22.158Z</time></trkpt><trkpt lat="45.4808183" lon="10.8698217"><ele>87.0</ele><time>2026-04-18T11:17:23.158Z</time></trkpt><trkpt lat="45.4808267" lon="10.8699317"><ele>87.0</ele><time>2026-04-18T11:17:24.163Z</time></trkpt><trkpt lat="45.4808367" lon="10.8700467"><ele>87.0</ele><time>2026-04-18T11:17:25.153Z</time></trkpt><trkpt lat="45.4808317" lon="10.8701483"><ele>87.0</ele><time>2026-04-18T11:17:26.157Z</time></trkpt><trkpt lat="45.4808383" lon="10.8702617"><ele>87.0</ele><time>2026-04-18T11:17:27.168Z</time></trkpt><trkpt lat="45.4808383" lon="10.8703633"><ele>87.0</ele><time>2026-04-18T11:17:28.161Z</time></trkpt><trkpt lat="45.48085" lon="10.8705383"><ele>87.0</ele><time>2026-04-18T11:17:30.154Z</time></trkpt><trkpt lat="45.4808717" lon="10.8706367"><ele>87.39999999999999</ele><time>2026-04-18T11:17:31.159Z</time></trkpt><trkpt lat="45.4809" lon="10.87074"><ele>87.8</ele><time>2026-04-18T11:17:32.159Z</time></trkpt><trkpt lat="45.4809283" lon="10.87086"><ele>88.2</ele><time>2026-04-18T11:17:33.156Z</time></trkpt><trkpt lat="45.4809517" lon="10.8709933"><ele>88.6</ele><time>2026-04-18T11:17:34.151Z</time></trkpt><trkpt lat="45.4809683" lon="10.8711467"><ele>89.0</ele><time>2026-04-18T11:17:35.154Z</time></trkpt><trkpt lat="45.48098" lon="10.8712967"><ele>89.2</ele><time>2026-04-18T11:17:36.153Z</time></trkpt><trkpt lat="45.481" lon="10.87146"><ele>89.4</ele><time>2026-04-18T11:17:37.156Z</time></trkpt><trkpt lat="45.4810167" lon="10.87164"><ele>89.6</ele><time>2026-04-18T11:17:38.155Z</time></trkpt><trkpt lat="45.481025" lon="10.87178"><ele>89.8</ele><time>2026-04-18T11:17:39.153Z</time></trkpt><trkpt lat="45.4810317" lon="10.87193"><ele>90.0</ele><time>2026-04-18T11:17:40.156Z</time></trkpt><trkpt lat="45.48111" lon="10.87209"><ele>90.0</ele><time>2026-04-18T11:17:41.163Z</time></trkpt><trkpt lat="45.4811233" lon="10.8722233"><ele>90.0</ele><time>2026-04-18T11:17:42.152Z</time></trkpt><trkpt lat="45.4811767" lon="10.8724067"><ele>90.0</ele><time>2026-04-18T11:17:43.17Z</time></trkpt><trkpt lat="45.4811517" lon="10.8725567"><ele>90.0</ele><time>2026-04-18T11:17:44.159Z</time></trkpt><trkpt lat="45.4811767" lon="10.8727667"><ele>90.0</ele><time>2026-04-18T11:17:45.16Z</time></trkpt><trkpt lat="45.4811817" lon="10.8729617"><ele>90.0</ele><time>2026-04-18T11:17:46.153Z</time></trkpt><trkpt lat="45.4812083" lon="10.8731467"><ele>90.0</ele><time>2026-04-18T11:17:47.157Z</time></trkpt><trkpt lat="45.4812167" lon="10.8733133"><ele>90.0</ele><time>2026-04-18T11:17:48.161Z</time></trkpt><trkpt lat="45.4812233" lon="10.87345"><ele>90.0</ele><time>2026-04-18T11:17:49.156Z</time></trkpt><trkpt lat="45.4812317" lon="10.8735767"><ele>90.0</ele><time>2026-04-18T11:17:50.172Z</time></trkpt><trkpt lat="45.48124" lon="10.8737067"><ele>90.0</ele><time>2026-04-18T11:17:51.158Z</time></trkpt><trkpt lat="45.481245" lon="10.8738367"><ele>90.0</ele><time>2026-04-18T11:17:52.159Z</time></trkpt><trkpt lat="45.4812717" lon="10.8740117"><ele>90.0</ele><time>2026-04-18T11:17:53.165Z</time></trkpt><trkpt lat="45.4813033" lon="10.8741617"><ele>90.25</ele><time>2026-04-18T11:17:54.181Z</time></trkpt><trkpt lat="45.4813217" lon="10.87433"><ele>90.5</ele><time>2026-04-18T11:17:55.162Z</time></trkpt><trkpt lat="45.4813567" lon="10.8745033"><ele>90.75</ele><time>2026-04-18T11:17:56.158Z</time></trkpt><trkpt lat="45.4813833" lon="10.8746733"><ele>91.0</ele><time>2026-04-18T11:17:57.164Z</time></trkpt><trkpt lat="45.48139" lon="10.8748717"><ele>91.0</ele><time>2026-04-18T11:17:58.154Z</time></trkpt><trkpt lat="45.4814217" lon="10.8750483"><ele>91.0</ele><time>2026-04-18T11:17:59.163Z</time></trkpt><trkpt lat="45.481415" lon="10.8752217"><ele>91.0</ele><time>2026-04-18T11:18:00.164Z</time></trkpt><trkpt lat="45.4814167" lon="10.875375"><ele>91.0</ele><time>2026-04-18T11:18:01.157Z</time></trkpt><trkpt lat="45.4814383" lon="10.8755183"><ele>91.25</ele><time>2026-04-18T11:18:02.169Z</time></trkpt><trkpt lat="45.481495" lon="10.8756767"><ele>91.5</ele><time>2026-04-18T11:18:03.159Z</time></trkpt><trkpt lat="45.4815517" lon="10.87584"><ele>91.75</ele><time>2026-04-18T11:18:04.155Z</time></trkpt><trkpt lat="45.4816317" lon="10.8759883"><ele>92.0</ele><time>2026-04-18T11:18:05.162Z</time></trkpt><trkpt lat="45.481705" lon="10.876155"><ele>92.25</ele><time>2026-04-18T11:18:06.167Z</time></trkpt><trkpt lat="45.4817767" lon="10.8763017"><ele>92.5</ele><time>2026-04-18T11:18:07.159Z</time></trkpt><trkpt lat="45.4818467" lon="10.8764333"><ele>92.75</ele><time>2026-04-18T11:18:08.161Z</time></trkpt><trkpt lat="45.4819067" lon="10.8766133"><ele>93.0</ele><time>2026-04-18T11:18:09.161Z</time></trkpt><trkpt lat="45.4819517" lon="10.8767683"><ele>93.25</ele><time>2026-04-18T11:18:10.154Z</time></trkpt><trkpt lat="45.4819917" lon="10.8769467"><ele>93.5</ele><time>2026-04-18T11:18:11.162Z</time></trkpt><trkpt lat="45.4820367" lon="10.8771283"><ele>93.75</ele><time>2026-04-18T11:18:12.156Z</time></trkpt><trkpt lat="45.4821017" lon="10.877305"><ele>94.0</ele><time>2026-04-18T11:18:13.157Z</time></trkpt><trkpt lat="45.4821567" lon="10.8774883"><ele>93.75</ele><time>2026-04-18T11:18:14.156Z</time></trkpt><trkpt lat="45.48222" lon="10.8776617"><ele>93.5</ele><time>2026-04-18T11:18:15.159Z</time></trkpt><trkpt lat="45.4822533" lon="10.8778117"><ele>93.25</ele><time>2026-04-18T11:18:16.162Z</time></trkpt><trkpt lat="45.48226" lon="10.8779633"><ele>93.0</ele><time>2026-04-18T11:18:17.156Z</time></trkpt><trkpt lat="45.4823233" lon="10.87811"><ele>93.0</ele><time>2026-04-18T11:18:18.155Z</time></trkpt><trkpt lat="45.4823333" lon="10.87827"><ele>93.0</ele><time>2026-04-18T11:18:19.152Z</time></trkpt><trkpt lat="45.4823717" lon="10.8784367"><ele>93.0</ele><time>2026-04-18T11:18:20.152Z</time></trkpt><trkpt lat="45.4824" lon="10.8786133"><ele>93.0</ele><time>2026-04-18T11:18:21.155Z</time></trkpt><trkpt lat="45.482445" lon="10.87879"><ele>93.0</ele><time>2026-04-18T11:18:22.16Z</time></trkpt><trkpt lat="45.4824617" lon="10.8789667"><ele>93.0</ele><time>2026-04-18T11:18:23.155Z</time></trkpt><trkpt lat="45.4824967" lon="10.8791483"><ele>93.0</ele><time>2026-04-18T11:18:24.158Z</time></trkpt><trkpt lat="45.4825467" lon="10.879335"><ele>93.0</ele><time>2026-04-18T11:18:25.152Z</time></trkpt><trkpt lat="45.4825983" lon="10.8795217"><ele>93.0</ele><time>2026-04-18T11:18:26.162Z</time></trkpt><trkpt lat="45.4826567" lon="10.8797167"><ele>93.0</ele><time>2026-04-18T11:18:27.154Z</time></trkpt><trkpt lat="45.4827117" lon="10.8799183"><ele>93.0</ele><time>2026-04-18T11:18:28.165Z</time></trkpt><trkpt lat="45.4827733" lon="10.8801133"><ele>92.75</ele><time>2026-04-18T11:18:29.159Z</time></trkpt><trkpt lat="45.4828367" lon="10.8803017"><ele>92.5</ele><time>2026-04-18T11:18:30.157Z</time></trkpt><trkpt lat="45.4828933" lon="10.880485"><ele>92.25</ele><time>2026-04-18T11:18:31.156Z</time></trkpt><trkpt lat="45.48295" lon="10.8806783"><ele>92.0</ele><time>2026-04-18T11:18:32.151Z</time></trkpt><trkpt lat="45.4830133" lon="10.8808683"><ele>91.25</ele><time>2026-04-18T11:18:33.159Z</time></trkpt><trkpt lat="45.483075" lon="10.8810617"><ele>90.5</ele><time>2026-04-18T11:18:34.153Z</time></trkpt><trkpt lat="45.4831233" lon="10.88126"><ele>89.75</ele><time>2026-04-18T11:18:35.16Z</time></trkpt><trkpt lat="45.483175" lon="10.8814583"><ele>89.0</ele><time>2026-04-18T11:18:36.152Z</time></trkpt><trkpt lat="45.4832267" lon="10.8816367"><ele>89.25</ele><time>2026-04-18T11:18:37.16Z</time></trkpt><trkpt lat="45.4832617" lon="10.88183"><ele>89.5</ele><time>2026-04-18T11:18:38.164Z</time></trkpt><trkpt lat="45.4833033" lon="10.882005"><ele>89.75</ele><time>2026-04-18T11:18:39.161Z</time></trkpt><trkpt lat="45.4833467" lon="10.8821683"><ele>90.0</ele><time>2026-04-18T11:18:40.158Z</time></trkpt><trkpt lat="45.4833817" lon="10.8823417"><ele>90.0</ele><time>2026-04-18T11:18:41.162Z</time></trkpt><trkpt lat="45.4834167" lon="10.8824983"><ele>90.0</ele><time>2026-04-18T11:18:42.156Z</time></trkpt><trkpt lat="45.4834517" lon="10.8826433"><ele>90.0</ele><time>2026-04-18T11:18:43.156Z</time></trkpt><trkpt lat="45.4834833" lon="10.8827833"><ele>90.0</ele><time>2026-04-18T11:18:44.163Z</time></trkpt><trkpt lat="45.4835233" lon="10.8829367"><ele>90.0</ele><time>2026-04-18T11:18:45.163Z</time></trkpt><trkpt lat="45.4835683" lon="10.883095"><ele>90.0</ele><time>2026-04-18T11:18:46.155Z</time></trkpt><trkpt lat="45.4836017" lon="10.8832367"><ele>90.0</ele><time>2026-04-18T11:18:47.152Z</time></trkpt><trkpt lat="45.4836383" lon="10.88341"><ele>90.0</ele><time>2026-04-18T11:18:48.172Z</time></trkpt><trkpt lat="45.483665" lon="10.8835683"><ele>90.0</ele><time>2026-04-18T11:18:49.16Z</time></trkpt><trkpt lat="45.4836933" lon="10.8837233"><ele>89.75</ele><time>2026-04-18T11:18:50.152Z</time></trkpt><trkpt lat="45.4837433" lon="10.883885"><ele>89.5</ele><time>2026-04-18T11:18:51.162Z</time></trkpt><trkpt lat="45.48379" lon="10.8840683"><ele>89.25</ele><time>2026-04-18T11:18:52.155Z</time></trkpt><trkpt lat="45.4838117" lon="10.8842183"><ele>89.0</ele><time>2026-04-18T11:18:53.165Z</time></trkpt><trkpt lat="45.4838367" lon="10.8843867"><ele>89.4</ele><time>2026-04-18T11:18:54.165Z</time></trkpt><trkpt lat="45.4838633" lon="10.8845433"><ele>89.80000000000001</ele><time>2026-04-18T11:18:55.158Z</time></trkpt><trkpt lat="45.4838633" lon="10.88469"><ele>90.19999999999999</ele><time>2026-04-18T11:18:56.155Z</time></trkpt><trkpt lat="45.4838867" lon="10.8848183"><ele>90.6</ele><time>2026-04-18T11:18:57.156Z</time></trkpt><trkpt lat="45.4838967" lon="10.8849533"><ele>91.0</ele><time>2026-04-18T11:18:58.166Z</time></trkpt><trkpt lat="45.483925" lon="10.88512"><ele>91.75</ele><time>2026-04-18T11:18:59.156Z</time></trkpt><trkpt lat="45.4839333" lon="10.8852883"><ele>92.5</ele><time>2026-04-18T11:19:00.168Z</time></trkpt><trkpt lat="45.4839233" lon="10.88545"><ele>93.25</ele><time>2026-04-18T11:19:01.158Z</time></trkpt><trkpt lat="45.4838933" lon="10.885635"><ele>94.0</ele><time>2026-04-18T11:19:02.154Z</time></trkpt><trkpt lat="45.4838833" lon="10.88581"><ele>94.0</ele><time>2026-04-18T11:19:03.158Z</time></trkpt><trkpt lat="45.4838717" lon="10.8859833"><ele>94.0</ele><time>2026-04-18T11:19:04.159Z</time></trkpt><trkpt lat="45.4838683" lon="10.8861683"><ele>94.0</ele><time>2026-04-18T11:19:05.162Z</time></trkpt><trkpt lat="45.48383" lon="10.88633"><ele>94.0</ele><time>2026-04-18T11:19:06.155Z</time></trkpt><trkpt lat="45.48383" lon="10.8864683"><ele>94.0</ele><time>2026-04-18T11:19:07.165Z</time></trkpt><trkpt lat="45.48381" lon="10.8866067"><ele>94.0</ele><time>2026-04-18T11:19:08.155Z</time></trkpt><trkpt lat="45.4837983" lon="10.8867217"><ele>94.0</ele><time>2026-04-18T11:19:09.158Z</time></trkpt><trkpt lat="45.4838083" lon="10.8868317"><ele>94.0</ele><time>2026-04-18T11:19:10.168Z</time></trkpt><trkpt lat="45.483835" lon="10.8869367"><ele>94.0</ele><time>2026-04-18T11:19:11.16Z</time></trkpt><trkpt lat="45.4838883" lon="10.887045"><ele>94.0</ele><time>2026-04-18T11:19:12.153Z</time></trkpt><trkpt lat="45.4839717" lon="10.887155"><ele>93.75</ele><time>2026-04-18T11:19:13.164Z</time></trkpt><trkpt lat="45.4840317" lon="10.8872883"><ele>93.5</ele><time>2026-04-18T11:19:14.159Z</time></trkpt><trkpt lat="45.484085" lon="10.8874317"><ele>93.25</ele><time>2026-04-18T11:19:15.155Z</time></trkpt><trkpt lat="45.4841533" lon="10.887575"><ele>93.0</ele><time>2026-04-18T11:19:16.152Z</time></trkpt><trkpt lat="45.4842283" lon="10.887735"><ele>92.75</ele><time>2026-04-18T11:19:17.162Z</time></trkpt><trkpt lat="45.4843133" lon="10.88792"><ele>92.5</ele><time>2026-04-18T11:19:18.154Z</time></trkpt><trkpt lat="45.4843883" lon="10.8880733"><ele>92.25</ele><time>2026-04-18T11:19:19.161Z</time></trkpt><trkpt lat="45.484445" lon="10.8882517"><ele>92.0</ele><time>2026-04-18T11:19:20.157Z</time></trkpt><trkpt lat="45.484525" lon="10.8884033"><ele>92.5</ele><time>2026-04-18T11:19:21.154Z</time></trkpt><trkpt lat="45.4846083" lon="10.8885867"><ele>93.0</ele><time>2026-04-18T11:19:22.157Z</time></trkpt><trkpt lat="45.484675" lon="10.8887817"><ele>93.5</ele><time>2026-04-18T11:19:23.164Z</time></trkpt><trkpt lat="45.4847533" lon="10.888925"><ele>94.0</ele><time>2026-04-18T11:19:24.157Z</time></trkpt><trkpt lat="45.4848333" lon="10.8890883"><ele>94.0</ele><time>2026-04-18T11:19:25.153Z</time></trkpt><trkpt lat="45.4849317" lon="10.889235"><ele>94.0</ele><time>2026-04-18T11:19:26.157Z</time></trkpt><trkpt lat="45.484985" lon="10.889395"><ele>94.0</ele><time>2026-04-18T11:19:27.153Z</time></trkpt><trkpt lat="45.4850483" lon="10.889545"><ele>94.0</ele><time>2026-04-18T11:19:28.151Z</time></trkpt><trkpt lat="45.4851067" lon="10.889705"><ele>94.25</ele><time>2026-04-18T11:19:29.156Z</time></trkpt><trkpt lat="45.4851633" lon="10.8898583"><ele>94.5</ele><time>2026-04-18T11:19:30.161Z</time></trkpt><trkpt lat="45.4852183" lon="10.8900217"><ele>94.75</ele><time>2026-04-18T11:19:31.149Z</time></trkpt><trkpt lat="45.4852733" lon="10.8901833"><ele>95.0</ele><time>2026-04-18T11:19:32.157Z</time></trkpt><trkpt lat="45.485335" lon="10.8903233"><ele>95.25</ele><time>2026-04-18T11:19:33.155Z</time></trkpt><trkpt lat="45.485385" lon="10.8904817"><ele>95.5</ele><time>2026-04-18T11:19:34.15Z</time></trkpt><trkpt lat="45.4854333" lon="10.89064"><ele>95.75</ele><time>2026-04-18T11:19:35.156Z</time></trkpt><trkpt lat="45.4854767" lon="10.8907983"><ele>96.0</ele><time>2026-04-18T11:19:36.158Z</time></trkpt><trkpt lat="45.48552" lon="10.8909517"><ele>96.25</ele><time>2026-04-18T11:19:37.15Z</time></trkpt><trkpt lat="45.4855633" lon="10.8911083"><ele>96.5</ele><time>2026-04-18T11:19:38.153Z</time></trkpt><trkpt lat="45.4856067" lon="10.89126"><ele>96.75</ele><time>2026-04-18T11:19:39.157Z</time></trkpt><trkpt lat="45.4856517" lon="10.8914117"><ele>97.0</ele><time>2026-04-18T11:19:40.151Z</time></trkpt><trkpt lat="45.4857033" lon="10.8915633"><ele>97.0</ele><time>2026-04-18T11:19:41.151Z</time></trkpt><trkpt lat="45.4857567" lon="10.8917133"><ele>97.0</ele><time>2026-04-18T11:19:42.165Z</time></trkpt><trkpt lat="45.48583" lon="10.8918783"><ele>97.0</ele><time>2026-04-18T11:19:43.162Z</time></trkpt><trkpt lat="45.4858883" lon="10.8920283"><ele>97.0</ele><time>2026-04-18T11:19:44.159Z</time></trkpt><trkpt lat="45.4859683" lon="10.892175"><ele>96.25</ele><time>2026-04-18T11:19:45.158Z</time></trkpt><trkpt lat="45.486055" lon="10.8923167"><ele>95.5</ele><time>2026-04-18T11:19:46.156Z</time></trkpt><trkpt lat="45.48615" lon="10.8924683"><ele>94.75</ele><time>2026-04-18T11:19:47.155Z</time></trkpt><trkpt lat="45.486245" lon="10.8926317"><ele>94.0</ele><time>2026-04-18T11:19:48.154Z</time></trkpt><trkpt lat="45.4863517" lon="10.8928083"><ele>93.0</ele><time>2026-04-18T11:19:49.161Z</time></trkpt><trkpt lat="45.4864467" lon="10.89298"><ele>92.0</ele><time>2026-04-18T11:19:50.156Z</time></trkpt><trkpt lat="45.486545" lon="10.8931333"><ele>91.0</ele><time>2026-04-18T11:19:51.164Z</time></trkpt><trkpt lat="45.48665" lon="10.8932583"><ele>90.0</ele><time>2026-04-18T11:19:52.167Z</time></trkpt><trkpt lat="45.4867767" lon="10.8933767"><ele>89.6</ele><time>2026-04-18T11:19:53.155Z</time></trkpt><trkpt lat="45.4868667" lon="10.893495"><ele>89.2</ele><time>2026-04-18T11:19:54.155Z</time></trkpt><trkpt lat="45.4869567" lon="10.8935967"><ele>88.80000000000001</ele><time>2026-04-18T11:19:55.153Z</time></trkpt><trkpt lat="45.4870083" lon="10.8936867"><ele>88.4</ele><time>2026-04-18T11:19:56.154Z</time></trkpt><trkpt lat="45.4870367" lon="10.8937833"><ele>88.0</ele><time>2026-04-18T11:19:57.154Z</time></trkpt><trkpt lat="45.4870367" lon="10.8938967"><ele>88.0</ele><time>2026-04-18T11:19:58.158Z</time></trkpt><trkpt lat="45.4870133" lon="10.894015"><ele>88.0</ele><time>2026-04-18T11:19:59.155Z</time></trkpt><trkpt lat="45.48696" lon="10.8941383"><ele>88.0</ele><time>2026-04-18T11:20:00.168Z</time></trkpt><trkpt lat="45.48691" lon="10.8942683"><ele>88.0</ele><time>2026-04-18T11:20:01.155Z</time></trkpt><trkpt lat="45.4868533" lon="10.89442"><ele>88.0</ele><time>2026-04-18T11:20:02.159Z</time></trkpt><trkpt lat="45.4868033" lon="10.894575"><ele>88.5</ele><time>2026-04-18T11:20:03.164Z</time></trkpt><trkpt lat="45.4867567" lon="10.894745"><ele>89.0</ele><time>2026-04-18T11:20:04.16Z</time></trkpt><trkpt lat="45.4867017" lon="10.8949317"><ele>89.5</ele><time>2026-04-18T11:20:05.156Z</time></trkpt><trkpt lat="45.486615" lon="10.89513"><ele>90.0</ele><time>2026-04-18T11:20:06.157Z</time></trkpt><trkpt lat="45.48652" lon="10.8953267"><ele>90.5</ele><time>2026-04-18T11:20:07.159Z</time></trkpt><trkpt lat="45.4864483" lon="10.8955333"><ele>91.0</ele><time>2026-04-18T11:20:08.159Z</time></trkpt><trkpt lat="45.4863783" lon="10.8956983"><ele>91.5</ele><time>2026-04-18T11:20:09.153Z</time></trkpt><trkpt lat="45.486325" lon="10.8958267"><ele>92.0</ele><time>2026-04-18T11:20:10.156Z</time></trkpt><trkpt lat="45.4862867" lon="10.8959817"><ele>92.0</ele><time>2026-04-18T11:20:11.171Z</time></trkpt><trkpt lat="45.486305" lon="10.8961067"><ele>92.0</ele><time>2026-04-18T11:20:12.191Z</time></trkpt><trkpt lat="45.4863617" lon="10.8962117"><ele>92.0</ele><time>2026-04-18T11:20:14.168Z</time></trkpt><trkpt lat="45.486425" lon="10.8962017"><ele>92.0</ele><time>2026-04-18T11:20:15.164Z</time></trkpt><trkpt lat="45.48649" lon="10.896165"><ele>92.0</ele><time>2026-04-18T11:20:16.164Z</time></trkpt><trkpt lat="45.4865717" lon="10.896075"><ele>92.0</ele><time>2026-04-18T11:20:17.168Z</time></trkpt><trkpt lat="45.48665" lon="10.89594"><ele>92.0</ele><time>2026-04-18T11:20:18.154Z</time></trkpt><trkpt lat="45.4867467" lon="10.8958133"><ele>92.0</ele><time>2026-04-18T11:20:19.159Z</time></trkpt><trkpt lat="45.4868683" lon="10.8956817"><ele>92.0</ele><time>2026-04-18T11:20:20.158Z</time></trkpt><trkpt lat="45.4869783" lon="10.89553"><ele>92.0</ele><time>2026-04-18T11:20:21.172Z</time></trkpt><trkpt lat="45.48708" lon="10.8954"><ele>92.33333333333334</ele><time>2026-04-18T11:20:22.154Z</time></trkpt><trkpt lat="45.4871683" lon="10.8953"><ele>92.66666666666667</ele><time>2026-04-18T11:20:23.162Z</time></trkpt><trkpt lat="45.487255" lon="10.8952717"><ele>93.0</ele><time>2026-04-18T11:20:24.16Z</time></trkpt><trkpt lat="45.4873283" lon="10.8952833"><ele>93.33333333333333</ele><time>2026-04-18T11:20:25.172Z</time></trkpt><trkpt lat="45.4874" lon="10.8953517"><ele>93.66666666666666</ele><time>2026-04-18T11:20:26.154Z</time></trkpt><trkpt lat="45.487455" lon="10.89544"><ele>94.0</ele><time>2026-04-18T11:20:27.152Z</time></trkpt><trkpt lat="45.48751" lon="10.8955817"><ele>94.0</ele><time>2026-04-18T11:20:28.163Z</time></trkpt><trkpt lat="45.4875567" lon="10.895785"><ele>94.0</ele><time>2026-04-18T11:20:29.159Z</time></trkpt><trkpt lat="45.48761" lon="10.8959717"><ele>94.0</ele><time>2026-04-18T11:20:30.157Z</time></trkpt><trkpt lat="45.4876633" lon="10.89618"><ele>94.0</ele><time>2026-04-18T11:20:31.153Z</time></trkpt><trkpt lat="45.4877267" lon="10.89638"><ele>94.0</ele><time>2026-04-18T11:20:32.154Z</time></trkpt><trkpt lat="45.487805" lon="10.896615"><ele>94.0</ele><time>2026-04-18T11:20:33.156Z</time></trkpt><trkpt lat="45.4879067" lon="10.8968667"><ele>94.0</ele><time>2026-04-18T11:20:34.161Z</time></trkpt><trkpt lat="45.4880033" lon="10.8971483"><ele>96.0</ele><time>2026-04-18T11:20:35.159Z</time></trkpt><trkpt lat="45.48813" lon="10.8974233"><ele>98.0</ele><time>2026-04-18T11:20:36.165Z</time></trkpt><trkpt lat="45.4882417" lon="10.89772"><ele>98.5</ele><time>2026-04-18T11:20:37.154Z</time></trkpt><trkpt lat="45.4883567" lon="10.8980283"><ele>99.0</ele><time>2026-04-18T11:20:38.152Z</time></trkpt><trkpt lat="45.488465" lon="10.898305"><ele>99.66666666666666</ele><time>2026-04-18T11:20:39.15Z</time></trkpt><trkpt lat="45.48856" lon="10.898565"><ele>100.33333333333333</ele><time>2026-04-18T11:20:40.155Z</time></trkpt><trkpt lat="45.4886517" lon="10.8987917"><ele>101.0</ele><time>2026-04-18T11:20:41.156Z</time></trkpt><trkpt lat="45.4887283" lon="10.8989717"><ele>104.66666666666666</ele><time>2026-04-18T11:20:42.151Z</time></trkpt><trkpt lat="45.4887917" lon="10.899195"><ele>108.33333333333334</ele><time>2026-04-18T11:20:43.156Z</time></trkpt><trkpt lat="45.488835" lon="10.899425"><ele>112.0</ele><time>2026-04-18T11:20:44.163Z</time></trkpt><trkpt lat="45.4888683" lon="10.8996483"><ele>112.75</ele><time>2026-04-18T11:20:45.151Z</time></trkpt><trkpt lat="45.4888867" lon="10.8998617"><ele>113.5</ele><time>2026-04-18T11:20:46.161Z</time></trkpt><trkpt lat="45.4888817" lon="10.9000367"><ele>114.25</ele><time>2026-04-18T11:20:47.159Z</time></trkpt><trkpt lat="45.4888883" lon="10.9001883"><ele>115.0</ele><time>2026-04-18T11:20:48.153Z</time></trkpt><trkpt lat="45.48886" lon="10.900335"><ele>115.0</ele><time>2026-04-18T11:20:49.161Z</time></trkpt><trkpt lat="45.4887733" lon="10.9004917"><ele>115.0</ele><time>2026-04-18T11:20:50.155Z</time></trkpt><trkpt lat="45.4886917" lon="10.90066"><ele>115.0</ele><time>2026-04-18T11:20:51.163Z</time></trkpt><trkpt lat="45.4886333" lon="10.90084"><ele>115.0</ele><time>2026-04-18T11:20:52.153Z</time></trkpt><trkpt lat="45.4885767" lon="10.9010017"><ele>114.8</ele><time>2026-04-18T11:20:53.16Z</time></trkpt><trkpt lat="45.48855" lon="10.901145"><ele>114.6</ele><time>2026-04-18T11:20:54.158Z</time></trkpt><trkpt lat="45.4885267" lon="10.9012917"><ele>114.4</ele><time>2026-04-18T11:20:55.16Z</time></trkpt><trkpt lat="45.4885183" lon="10.9014517"><ele>114.2</ele><time>2026-04-18T11:20:56.159Z</time></trkpt><trkpt lat="45.4885233" lon="10.9015883"><ele>114.0</ele><time>2026-04-18T11:20:57.15Z</time></trkpt><trkpt lat="45.4885" lon="10.9017133"><ele>113.6</ele><time>2026-04-18T11:20:58.15Z</time></trkpt><trkpt lat="45.4884783" lon="10.9018417"><ele>113.2</ele><time>2026-04-18T11:20:59.155Z</time></trkpt><trkpt lat="45.4884683" lon="10.9019867"><ele>112.79999999999998</ele><time>2026-04-18T11:21:00.154Z</time></trkpt><trkpt lat="45.48845" lon="10.9021383"><ele>112.39999999999999</ele><time>2026-04-18T11:21:01.149Z</time></trkpt><trkpt lat="45.4884367" lon="10.9023033"><ele>112.0</ele><time>2026-04-18T11:21:02.158Z</time></trkpt><trkpt lat="45.488425" lon="10.90247"><ele>112.39999999999999</ele><time>2026-04-18T11:21:03.159Z</time></trkpt><trkpt lat="45.488405" lon="10.9026283"><ele>112.79999999999998</ele><time>2026-04-18T11:21:04.155Z</time></trkpt><trkpt lat="45.4883917" lon="10.9027833"><ele>113.2</ele><time>2026-04-18T11:21:05.155Z</time></trkpt><trkpt lat="45.488385" lon="10.9029367"><ele>113.6</ele><time>2026-04-18T11:21:06.154Z</time></trkpt><trkpt lat="45.4883967" lon="10.903105"><ele>114.0</ele><time>2026-04-18T11:21:07.152Z</time></trkpt><trkpt lat="45.4884117" lon="10.9032517"><ele>114.0</ele><time>2026-04-18T11:21:08.151Z</time></trkpt><trkpt lat="45.4884317" lon="10.9034017"><ele>114.0</ele><time>2026-04-18T11:21:09.162Z</time></trkpt><trkpt lat="45.4884633" lon="10.9035817"><ele>114.0</ele><time>2026-04-18T11:21:10.161Z</time></trkpt><trkpt lat="45.488495" lon="10.9037567"><ele>114.0</ele><time>2026-04-18T11:21:11.153Z</time></trkpt><trkpt lat="45.4884983" lon="10.903935"><ele>114.0</ele><time>2026-04-18T11:21:12.161Z</time></trkpt><trkpt lat="45.4884817" lon="10.9041"><ele>114.0</ele><time>2026-04-18T11:21:13.153Z</time></trkpt><trkpt lat="45.4884433" lon="10.9042833"><ele>114.0</ele><time>2026-04-18T11:21:14.156Z</time></trkpt><trkpt lat="45.4884017" lon="10.90447"><ele>114.0</ele><time>2026-04-18T11:21:15.162Z</time></trkpt><trkpt lat="45.48837" lon="10.9046683"><ele>114.0</ele><time>2026-04-18T11:21:16.166Z</time></trkpt><trkpt lat="45.4883533" lon="10.9048583"><ele>114.0</ele><time>2026-04-18T11:21:17.16Z</time></trkpt><trkpt lat="45.4883133" lon="10.9050617"><ele>114.0</ele><time>2026-04-18T11:21:18.159Z</time></trkpt><trkpt lat="45.4882833" lon="10.9052383"><ele>114.0</ele><time>2026-04-18T11:21:19.159Z</time></trkpt><trkpt lat="45.4882367" lon="10.9054333"><ele>114.0</ele><time>2026-04-18T11:21:20.151Z</time></trkpt><trkpt lat="45.4881883" lon="10.9056267"><ele>114.0</ele><time>2026-04-18T11:21:21.162Z</time></trkpt><trkpt lat="45.4881383" lon="10.9058217"><ele>114.0</ele><time>2026-04-18T11:21:22.156Z</time></trkpt><trkpt lat="45.4880867" lon="10.9060117"><ele>114.0</ele><time>2026-04-18T11:21:23.16Z</time></trkpt><trkpt lat="45.4880383" lon="10.9062067"><ele>114.5</ele><time>2026-04-18T11:21:24.158Z</time></trkpt><trkpt lat="45.487995" lon="10.9063933"><ele>115.0</ele><time>2026-04-18T11:21:25.157Z</time></trkpt><trkpt lat="45.487945" lon="10.9065683"><ele>115.5</ele><time>2026-04-18T11:21:26.155Z</time></trkpt><trkpt lat="45.487925" lon="10.90675"><ele>116.0</ele><time>2026-04-18T11:21:27.156Z</time></trkpt><trkpt lat="45.4879017" lon="10.9069517"><ele>113.5</ele><time>2026-04-18T11:21:28.16Z</time></trkpt><trkpt lat="45.48788" lon="10.90715"><ele>111.0</ele><time>2026-04-18T11:21:29.153Z</time></trkpt><trkpt lat="45.4878717" lon="10.9073433"><ele>108.5</ele><time>2026-04-18T11:21:30.154Z</time></trkpt><trkpt lat="45.4878883" lon="10.9075567"><ele>106.0</ele><time>2026-04-18T11:21:31.157Z</time></trkpt><trkpt lat="45.487905" lon="10.907745"><ele>107.75</ele><time>2026-04-18T11:21:32.153Z</time></trkpt><trkpt lat="45.487955" lon="10.9079483"><ele>109.5</ele><time>2026-04-18T11:21:33.152Z</time></trkpt><trkpt lat="45.4879767" lon="10.9081383"><ele>111.25</ele><time>2026-04-18T11:21:34.164Z</time></trkpt><trkpt lat="45.4879917" lon="10.9083217"><ele>113.0</ele><time>2026-04-18T11:21:35.152Z</time></trkpt><trkpt lat="45.48802" lon="10.90849"><ele>113.0</ele><time>2026-04-18T11:21:36.154Z</time></trkpt><trkpt lat="45.4880517" lon="10.9086567"><ele>113.0</ele><time>2026-04-18T11:21:37.158Z</time></trkpt><trkpt lat="45.48807" lon="10.9088267"><ele>113.0</ele><time>2026-04-18T11:21:38.161Z</time></trkpt><trkpt lat="45.4880917" lon="10.9089867"><ele>113.0</ele><time>2026-04-18T11:21:39.158Z</time></trkpt><trkpt lat="45.4881317" lon="10.9091467"><ele>112.75</ele><time>2026-04-18T11:21:40.151Z</time></trkpt><trkpt lat="45.48817" lon="10.9093033"><ele>112.5</ele><time>2026-04-18T11:21:41.15Z</time></trkpt><trkpt lat="45.4882183" lon="10.9094617"><ele>112.25</ele><time>2026-04-18T11:21:42.152Z</time></trkpt><trkpt lat="45.4882717" lon="10.909625"><ele>112.0</ele><time>2026-04-18T11:21:43.155Z</time></trkpt><trkpt lat="45.4882933" lon="10.9098"><ele>112.0</ele><time>2026-04-18T11:21:44.161Z</time></trkpt><trkpt lat="45.4884117" lon="10.9099367"><ele>112.0</ele><time>2026-04-18T11:21:45.151Z</time></trkpt><trkpt lat="45.4884767" lon="10.9100933"><ele>112.0</ele><time>2026-04-18T11:21:46.154Z</time></trkpt><trkpt lat="45.4885317" lon="10.910275"><ele>112.0</ele><time>2026-04-18T11:21:47.164Z</time></trkpt><trkpt lat="45.4885933" lon="10.9104383"><ele>111.25</ele><time>2026-04-18T11:21:48.154Z</time></trkpt><trkpt lat="45.48867" lon="10.9106133"><ele>110.5</ele><time>2026-04-18T11:21:49.154Z</time></trkpt><trkpt lat="45.4887383" lon="10.9107867"><ele>109.75</ele><time>2026-04-18T11:21:50.159Z</time></trkpt><trkpt lat="45.48882" lon="10.9109333"><ele>109.0</ele><time>2026-04-18T11:21:51.159Z</time></trkpt><trkpt lat="45.4888933" lon="10.9111067"><ele>108.75</ele><time>2026-04-18T11:21:52.157Z</time></trkpt><trkpt lat="45.4889567" lon="10.9112733"><ele>108.5</ele><time>2026-04-18T11:21:53.158Z</time></trkpt><trkpt lat="45.4890133" lon="10.91143"><ele>108.25</ele><time>2026-04-18T11:21:54.156Z</time></trkpt><trkpt lat="45.4890733" lon="10.9115683"><ele>108.0</ele><time>2026-04-18T11:21:55.15Z</time></trkpt><trkpt lat="45.4891083" lon="10.9117033"><ele>107.66666666666667</ele><time>2026-04-18T11:21:56.158Z</time></trkpt><trkpt lat="45.4891517" lon="10.9118217"><ele>107.33333333333334</ele><time>2026-04-18T11:21:57.156Z</time></trkpt><trkpt lat="45.489185" lon="10.911915"><ele>107.0</ele><time>2026-04-18T11:21:58.157Z</time></trkpt><trkpt lat="45.4892167" lon="10.9120117"><ele>106.66666666666667</ele><time>2026-04-18T11:21:59.166Z</time></trkpt><trkpt lat="45.4892583" lon="10.912115"><ele>106.33333333333334</ele><time>2026-04-18T11:22:00.162Z</time></trkpt><trkpt lat="45.4893083" lon="10.9122233"><ele>106.0</ele><time>2026-04-18T11:22:01.155Z</time></trkpt><trkpt lat="45.489375" lon="10.9123233"><ele>106.0</ele><time>2026-04-18T11:22:02.16Z</time></trkpt><trkpt lat="45.4894433" lon="10.9124267"><ele>106.0</ele><time>2026-04-18T11:22:03.157Z</time></trkpt><trkpt lat="45.4895233" lon="10.912555"><ele>106.0</ele><time>2026-04-18T11:22:04.153Z</time></trkpt><trkpt lat="45.4895967" lon="10.9126683"><ele>106.0</ele><time>2026-04-18T11:22:05.154Z</time></trkpt><trkpt lat="45.489685" lon="10.9127817"><ele>106.0</ele><time>2026-04-18T11:22:06.152Z</time></trkpt><trkpt lat="45.4898" lon="10.9128967"><ele>106.0</ele><time>2026-04-18T11:22:07.155Z</time></trkpt><trkpt lat="45.489935" lon="10.913035"><ele>106.0</ele><time>2026-04-18T11:22:08.171Z</time></trkpt><trkpt lat="45.49008" lon="10.9132033"><ele>106.0</ele><time>2026-04-18T11:22:09.154Z</time></trkpt><trkpt lat="45.49022" lon="10.9133667"><ele>106.0</ele><time>2026-04-18T11:22:10.159Z</time></trkpt><trkpt lat="45.4903667" lon="10.9135533"><ele>106.0</ele><time>2026-04-18T11:22:11.151Z</time></trkpt><trkpt lat="45.490525" lon="10.9137317"><ele>106.0</ele><time>2026-04-18T11:22:12.168Z</time></trkpt><trkpt lat="45.49068" lon="10.9139383"><ele>106.0</ele><time>2026-04-18T11:22:13.151Z</time></trkpt><trkpt lat="45.490845" lon="10.9141467"><ele>106.0</ele><time>2026-04-18T11:22:14.154Z</time></trkpt><trkpt lat="45.49101" lon="10.91436"><ele>106.0</ele><time>2026-04-18T11:22:15.15Z</time></trkpt><trkpt lat="45.4911833" lon="10.914575"><ele>105.5</ele><time>2026-04-18T11:22:16.161Z</time></trkpt><trkpt lat="45.4913567" lon="10.914795"><ele>105.0</ele><time>2026-04-18T11:22:17.153Z</time></trkpt><trkpt lat="45.4915333" lon="10.9150233"><ele>104.5</ele><time>2026-04-18T11:22:18.156Z</time></trkpt><trkpt lat="45.4917083" lon="10.915245"><ele>104.0</ele><time>2026-04-18T11:22:19.159Z</time></trkpt><trkpt lat="45.491875" lon="10.9154583"><ele>104.0</ele><time>2026-04-18T11:22:20.156Z</time></trkpt><trkpt lat="45.4920317" lon="10.915655"><ele>104.0</ele><time>2026-04-18T11:22:21.155Z</time></trkpt><trkpt lat="45.4921733" lon="10.91584"><ele>104.0</ele><time>2026-04-18T11:22:22.158Z</time></trkpt><trkpt lat="45.4922983" lon="10.916"><ele>103.66666666666666</ele><time>2026-04-18T11:22:23.152Z</time></trkpt><trkpt lat="45.4924467" lon="10.9161733"><ele>103.33333333333334</ele><time>2026-04-18T11:22:24.155Z</time></trkpt><trkpt lat="45.4926133" lon="10.91626"><ele>103.0</ele><time>2026-04-18T11:22:25.161Z</time></trkpt><trkpt lat="45.4927783" lon="10.91632"><ele>103.0</ele><time>2026-04-18T11:22:26.151Z</time></trkpt><trkpt lat="45.49298" lon="10.9163733"><ele>103.0</ele><time>2026-04-18T11:22:27.157Z</time></trkpt><trkpt lat="45.4932183" lon="10.9164317"><ele>103.0</ele><time>2026-04-18T11:22:28.164Z</time></trkpt><trkpt lat="45.4934133" lon="10.916485"><ele>103.0</ele><time>2026-04-18T11:22:29.156Z</time></trkpt><trkpt lat="45.493595" lon="10.9165367"><ele>103.0</ele><time>2026-04-18T11:22:30.155Z</time></trkpt><trkpt lat="45.4937867" lon="10.9166"><ele>103.0</ele><time>2026-04-18T11:22:31.166Z</time></trkpt><trkpt lat="45.4939683" lon="10.9166433"><ele>103.0</ele><time>2026-04-18T11:22:32.157Z</time></trkpt><trkpt lat="45.4941533" lon="10.9167"><ele>103.0</ele><time>2026-04-18T11:22:33.151Z</time></trkpt><trkpt lat="45.4943217" lon="10.9167517"><ele>103.0</ele><time>2026-04-18T11:22:34.163Z</time></trkpt><trkpt lat="45.49448" lon="10.9168067"><ele>101.0</ele><time>2026-04-18T11:22:35.164Z</time></trkpt><trkpt lat="45.49463" lon="10.9168767"><ele>99.0</ele><time>2026-04-18T11:22:36.157Z</time></trkpt><trkpt lat="45.4947733" lon="10.9169583"><ele>97.0</ele><time>2026-04-18T11:22:37.152Z</time></trkpt><trkpt lat="45.49491" lon="10.9170683"><ele>97.0</ele><time>2026-04-18T11:22:38.16Z</time></trkpt><trkpt lat="45.4950383" lon="10.917145"><ele>97.0</ele><time>2026-04-18T11:22:39.151Z</time></trkpt><trkpt lat="45.4951567" lon="10.9172383"><ele>97.0</ele><time>2026-04-18T11:22:40.153Z</time></trkpt><trkpt lat="45.49526" lon="10.9173433"><ele>97.0</ele><time>2026-04-18T11:22:41.157Z</time></trkpt><trkpt lat="45.4953617" lon="10.9174767"><ele>97.33333333333334</ele><time>2026-04-18T11:22:42.167Z</time></trkpt><trkpt lat="45.4954483" lon="10.917675"><ele>97.66666666666666</ele><time>2026-04-18T11:22:43.15Z</time></trkpt><trkpt lat="45.4955533" lon="10.9178983"><ele>98.0</ele><time>2026-04-18T11:22:44.168Z</time></trkpt><trkpt lat="45.495685" lon="10.918115"><ele>98.0</ele><time>2026-04-18T11:22:45.157Z</time></trkpt><trkpt lat="45.4958483" lon="10.9183333"><ele>98.0</ele><time>2026-04-18T11:22:46.155Z</time></trkpt><trkpt lat="45.4959683" lon="10.91856"><ele>98.0</ele><time>2026-04-18T11:22:47.155Z</time></trkpt><trkpt lat="45.4960733" lon="10.918795"><ele>97.0</ele><time>2026-04-18T11:22:48.166Z</time></trkpt><trkpt lat="45.4961567" lon="10.91902"><ele>96.0</ele><time>2026-04-18T11:22:49.156Z</time></trkpt><trkpt lat="45.496225" lon="10.9192533"><ele>95.0</ele><time>2026-04-18T11:22:50.157Z</time></trkpt><trkpt lat="45.4962883" lon="10.91946"><ele>94.75</ele><time>2026-04-18T11:22:51.169Z</time></trkpt><trkpt lat="45.4963683" lon="10.9196433"><ele>94.5</ele><time>2026-04-18T11:22:52.154Z</time></trkpt><trkpt lat="45.49646" lon="10.9198083"><ele>94.25</ele><time>2026-04-18T11:22:53.189Z</time></trkpt><trkpt lat="45.49656" lon="10.9199617"><ele>94.0</ele><time>2026-04-18T11:22:54.159Z</time></trkpt><trkpt lat="45.4966267" lon="10.92009"><ele>93.80000000000001</ele><time>2026-04-18T11:22:55.165Z</time></trkpt><trkpt lat="45.4966617" lon="10.9202133"><ele>93.60000000000001</ele><time>2026-04-18T11:22:56.157Z</time></trkpt><trkpt lat="45.4967" lon="10.92029"><ele>93.4</ele><time>2026-04-18T11:22:57.157Z</time></trkpt><trkpt lat="45.4967517" lon="10.920415"><ele>93.2</ele><time>2026-04-18T11:22:59.157Z</time></trkpt><trkpt lat="45.4968167" lon="10.9205133"><ele>93.0</ele><time>2026-04-18T11:23:14.159Z</time></trkpt><trkpt lat="45.496915" lon="10.9204917"><ele>93.0</ele><time>2026-04-18T11:23:23.162Z</time></trkpt><trkpt lat="45.49697" lon="10.92043"><ele>93.0</ele><time>2026-04-18T11:23:24.152Z</time></trkpt><trkpt lat="45.4970333" lon="10.9203433"><ele>93.0</ele><time>2026-04-18T11:23:25.157Z</time></trkpt><trkpt lat="45.497115" lon="10.9202583"><ele>93.0</ele><time>2026-04-18T11:23:26.157Z</time></trkpt><trkpt lat="45.497235" lon="10.920205"><ele>93.0</ele><time>2026-04-18T11:23:27.156Z</time></trkpt><trkpt lat="45.4973833" lon="10.9201883"><ele>93.66666666666667</ele><time>2026-04-18T11:23:28.165Z</time></trkpt><trkpt lat="45.4975283" lon="10.92018"><ele>94.33333333333334</ele><time>2026-04-18T11:23:29.16Z</time></trkpt><trkpt lat="45.4977117" lon="10.9201933"><ele>95.0</ele><time>2026-04-18T11:23:30.157Z</time></trkpt><trkpt lat="45.497915" lon="10.9201983"><ele>97.0</ele><time>2026-04-18T11:23:31.166Z</time></trkpt><trkpt lat="45.4981" lon="10.92019"><ele>99.0</ele><time>2026-04-18T11:23:32.153Z</time></trkpt><trkpt lat="45.49827" lon="10.9201967"><ele>101.0</ele><time>2026-04-18T11:23:33.174Z</time></trkpt><trkpt lat="45.4984217" lon="10.9202083"><ele>101.0</ele><time>2026-04-18T11:23:34.153Z</time></trkpt><trkpt lat="45.4985667" lon="10.9202383"><ele>101.0</ele><time>2026-04-18T11:23:35.16Z</time></trkpt><trkpt lat="45.4986917" lon="10.920235"><ele>101.0</ele><time>2026-04-18T11:23:36.163Z</time></trkpt><trkpt lat="45.4988267" lon="10.9202267"><ele>101.0</ele><time>2026-04-18T11:23:37.153Z</time></trkpt><trkpt lat="45.4989483" lon="10.9202367"><ele>101.75</ele><time>2026-04-18T11:23:38.155Z</time></trkpt><trkpt lat="45.4990583" lon="10.9202383"><ele>102.5</ele><time>2026-04-18T11:23:39.157Z</time></trkpt><trkpt lat="45.4991717" lon="10.9202367"><ele>103.25</ele><time>2026-04-18T11:23:40.164Z</time></trkpt><trkpt lat="45.4992883" lon="10.9202333"><ele>104.0</ele><time>2026-04-18T11:23:41.153Z</time></trkpt><trkpt lat="45.4994067" lon="10.9202433"><ele>103.99999999999999</ele><time>2026-04-18T11:23:42.16Z</time></trkpt><trkpt lat="45.499515" lon="10.9202433"><ele>104.0</ele><time>2026-04-18T11:23:43.156Z</time></trkpt><trkpt lat="45.4996133" lon="10.9202483"><ele>104.0</ele><time>2026-04-18T11:23:44.155Z</time></trkpt><trkpt lat="45.4997033" lon="10.9202383"><ele>104.0</ele><time>2026-04-18T11:23:45.153Z</time></trkpt><trkpt lat="45.4997833" lon="10.9202367"><ele>103.99999999999999</ele><time>2026-04-18T11:23:46.158Z</time></trkpt><trkpt lat="45.49985" lon="10.9202183"><ele>104.0</ele><time>2026-04-18T11:23:47.158Z</time></trkpt><trkpt lat="45.4999217" lon="10.920205"><ele>104.0</ele><time>2026-04-18T11:23:48.158Z</time></trkpt><trkpt lat="45.500005" lon="10.9202"><ele>104.0</ele><time>2026-04-18T11:23:49.151Z</time></trkpt><trkpt lat="45.50009" lon="10.9201833"><ele>104.0</ele><time>2026-04-18T11:23:50.151Z</time></trkpt><trkpt lat="45.5001817" lon="10.9201617"><ele>104.0</ele><time>2026-04-18T11:23:51.154Z</time></trkpt><trkpt lat="45.5002783" lon="10.9201233"><ele>104.0</ele><time>2026-04-18T11:23:52.156Z</time></trkpt><trkpt lat="45.50038" lon="10.920095"><ele>105.0</ele><time>2026-04-18T11:23:53.159Z</time></trkpt><trkpt lat="45.50049" lon="10.92004"><ele>106.0</ele><time>2026-04-18T11:23:54.152Z</time></trkpt><trkpt lat="45.5006017" lon="10.9199817"><ele>107.0</ele><time>2026-04-18T11:23:55.153Z</time></trkpt><trkpt lat="45.50071" lon="10.9199367"><ele>108.0</ele><time>2026-04-18T11:23:56.156Z</time></trkpt><trkpt lat="45.5008067" lon="10.9198917"><ele>108.0</ele><time>2026-04-18T11:23:57.161Z</time></trkpt><trkpt lat="45.500895" lon="10.9198467"><ele>108.00000000000001</ele><time>2026-04-18T11:23:58.151Z</time></trkpt><trkpt lat="45.5009683" lon="10.9198167"><ele>108.00000000000001</ele><time>2026-04-18T11:23:59.151Z</time></trkpt><trkpt lat="45.5010683" lon="10.919765"><ele>108.0</ele><time>2026-04-18T11:24:01.17Z</time></trkpt><trkpt lat="45.5011433" lon="10.9197333"><ele>108.0</ele><time>2026-04-18T11:24:03.154Z</time></trkpt><trkpt lat="45.5012417" lon="10.9196667"><ele>108.0</ele><time>2026-04-18T11:24:05.159Z</time></trkpt><trkpt lat="45.5013433" lon="10.91961"><ele>108.00000000000001</ele><time>2026-04-18T11:24:07.159Z</time></trkpt><trkpt lat="45.5014733" lon="10.9195367"><ele>108.00000000000001</ele><time>2026-04-18T11:24:09.154Z</time></trkpt><trkpt lat="45.5015517" lon="10.9194917"><ele>108.0</ele><time>2026-04-18T11:24:10.151Z</time></trkpt><trkpt lat="45.501635" lon="10.9194517"><ele>108.0</ele><time>2026-04-18T11:24:11.159Z</time></trkpt><trkpt lat="45.5017217" lon="10.9194167"><ele>108.0</ele><time>2026-04-18T11:24:12.154Z</time></trkpt><trkpt lat="45.50181" lon="10.9193817"><ele>108.0</ele><time>2026-04-18T11:24:13.156Z</time></trkpt><trkpt lat="45.501885" lon="10.91934"><ele>108.0</ele><time>2026-04-18T11:24:14.17Z</time></trkpt><trkpt lat="45.501975" lon="10.9193067"><ele>108.0</ele><time>2026-04-18T11:24:15.159Z</time></trkpt><trkpt lat="45.5020583" lon="10.9192833"><ele>108.0</ele><time>2026-04-18T11:24:16.153Z</time></trkpt><trkpt lat="45.5021317" lon="10.919265"><ele>108.0</ele><time>2026-04-18T11:24:17.15Z</time></trkpt><trkpt lat="45.5022317" lon="10.9192317"><ele>108.33333333333333</ele><time>2026-04-18T11:24:19.152Z</time></trkpt><trkpt lat="45.502295" lon="10.91922"><ele>108.66666666666666</ele><time>2026-04-18T11:24:21.151Z</time></trkpt><trkpt lat="45.5023933" lon="10.919205"><ele>109.0</ele><time>2026-04-18T11:24:23.157Z</time></trkpt><trkpt lat="45.5024617" lon="10.919195"><ele>109.33333333333333</ele><time>2026-04-18T11:24:24.153Z</time></trkpt><trkpt lat="45.50254" lon="10.9191833"><ele>109.66666666666666</ele><time>2026-04-18T11:24:25.152Z</time></trkpt><trkpt lat="45.502625" lon="10.9191683"><ele>110.0</ele><time>2026-04-18T11:24:26.155Z</time></trkpt><trkpt lat="45.5027167" lon="10.919155"><ele>110.0</ele><time>2026-04-18T11:24:27.156Z</time></trkpt><trkpt lat="45.5028133" lon="10.9191383"><ele>110.0</ele><time>2026-04-18T11:24:28.164Z</time></trkpt><trkpt lat="45.502905" lon="10.9191233"><ele>110.0</ele><time>2026-04-18T11:24:29.154Z</time></trkpt><trkpt lat="45.5030033" lon="10.919135"><ele>110.0</ele><time>2026-04-18T11:24:30.162Z</time></trkpt><trkpt lat="45.50309" lon="10.91912"><ele>110.0</ele><time>2026-04-18T11:24:31.156Z</time></trkpt><trkpt lat="45.50317" lon="10.9190883"><ele>110.8</ele><time>2026-04-18T11:24:32.159Z</time></trkpt><trkpt lat="45.5032467" lon="10.919045"><ele>111.6</ele><time>2026-04-18T11:24:33.16Z</time></trkpt><trkpt lat="45.5033283" lon="10.9189917"><ele>112.4</ele><time>2026-04-18T11:24:34.152Z</time></trkpt><trkpt lat="45.5034117" lon="10.9189267"><ele>113.2</ele><time>2026-04-18T11:24:35.156Z</time></trkpt><trkpt lat="45.5034933" lon="10.9188533"><ele>114.0</ele><time>2026-04-18T11:24:36.159Z</time></trkpt><trkpt lat="45.5036067" lon="10.9187283"><ele>114.0</ele><time>2026-04-18T11:24:37.155Z</time></trkpt><trkpt lat="45.5036667" lon="10.9186583"><ele>114.0</ele><time>2026-04-18T11:24:38.168Z</time></trkpt><trkpt lat="45.503765" lon="10.918585"><ele>114.0</ele><time>2026-04-18T11:24:40.16Z</time></trkpt><trkpt lat="45.50392" lon="10.9186083"><ele>114.0</ele><time>2026-04-18T11:24:43.157Z</time></trkpt><trkpt lat="45.5040083" lon="10.9187433"><ele>115.0</ele><time>2026-04-18T11:24:45.158Z</time></trkpt><trkpt lat="45.5040767" lon="10.9188267"><ele>116.0</ele><time>2026-04-18T11:24:47.155Z</time></trkpt><trkpt lat="45.5041417" lon="10.91881"><ele>117.0</ele><time>2026-04-18T11:24:56.16Z</time></trkpt><trkpt lat="45.5040683" lon="10.9188283"><ele>118.0</ele><time>2026-04-18T11:25:14.155Z</time></trkpt><trkpt lat="45.5040783" lon="10.918955"><ele>119.0</ele><time>2026-04-18T11:25:17.156Z</time></trkpt><trkpt lat="45.5040933" lon="10.91915"><ele>118.99999999999999</ele><time>2026-04-18T11:25:19.161Z</time></trkpt><trkpt lat="45.5041233" lon="10.91929"><ele>119.0</ele><time>2026-04-18T11:25:20.154Z</time></trkpt><trkpt lat="45.5041433" lon="10.9194217"><ele>119.0</ele><time>2026-04-18T11:25:21.161Z</time></trkpt><trkpt lat="45.5041567" lon="10.9195383"><ele>119.0</ele><time>2026-04-18T11:25:22.166Z</time></trkpt><trkpt lat="45.50417" lon="10.9196467"><ele>118.99999999999999</ele><time>2026-04-18T11:25:23.157Z</time></trkpt><trkpt lat="45.5041833" lon="10.9197467"><ele>119.0</ele><time>2026-04-18T11:25:24.171Z</time></trkpt><trkpt lat="45.504215" lon="10.9198383"><ele>119.0</ele><time>2026-04-18T11:25:26.169Z</time></trkpt><trkpt lat="45.5042533" lon="10.9199967"><ele>119.0</ele><time>2026-04-18T11:25:29.163Z</time></trkpt><trkpt lat="45.5042833" lon="10.920155"><ele>119.0</ele><time>2026-04-18T11:25:31.167Z</time></trkpt><trkpt lat="45.5043233" lon="10.9202783"><ele>119.0</ele><time>2026-04-18T11:25:33.151Z</time></trkpt><trkpt lat="45.504375" lon="10.92035"><ele>119.0</ele><time>2026-04-18T11:25:34.161Z</time></trkpt><trkpt lat="45.5044417" lon="10.92043"><ele>119.2</ele><time>2026-04-18T11:25:35.163Z</time></trkpt><trkpt lat="45.504525" lon="10.9205117"><ele>119.4</ele><time>2026-04-18T11:25:36.157Z</time></trkpt><trkpt lat="45.5046267" lon="10.9206083"><ele>119.6</ele><time>2026-04-18T11:25:37.163Z</time></trkpt><trkpt lat="45.504725" lon="10.9206783"><ele>119.8</ele><time>2026-04-18T11:25:38.162Z</time></trkpt><trkpt lat="45.5048333" lon="10.9207233"><ele>120.0</ele><time>2026-04-18T11:25:39.163Z</time></trkpt><trkpt lat="45.5048983" lon="10.9208367"><ele>119.0</ele><time>2026-04-18T11:25:40.155Z</time></trkpt><trkpt lat="45.5050017" lon="10.92096"><ele>118.0</ele><time>2026-04-18T11:25:42.161Z</time></trkpt><trkpt lat="45.5050683" lon="10.9210983"><ele>117.0</ele><time>2026-04-18T11:25:43.153Z</time></trkpt><trkpt lat="45.505145" lon="10.92121"><ele>116.0</ele><time>2026-04-18T11:25:44.156Z</time></trkpt><trkpt lat="45.5052" lon="10.9212967"><ele>115.0</ele><time>2026-04-18T11:25:45.153Z</time></trkpt><trkpt lat="45.5052683" lon="10.9214"><ele>115.00000000000001</ele><time>2026-04-18T11:25:46.151Z</time></trkpt><trkpt lat="45.50533" lon="10.9214833"><ele>115.0</ele><time>2026-04-18T11:25:47.15Z</time></trkpt><trkpt lat="45.5054017" lon="10.9215583"><ele>115.0</ele><time>2026-04-18T11:25:48.155Z</time></trkpt><trkpt lat="45.5054717" lon="10.9216417"><ele>115.0</ele><time>2026-04-18T11:25:49.157Z</time></trkpt><trkpt lat="45.50556" lon="10.9217383"><ele>115.00000000000001</ele><time>2026-04-18T11:25:51.153Z</time></trkpt><trkpt lat="45.505615" lon="10.921805"><ele>115.0</ele><time>2026-04-18T11:25:54.155Z</time></trkpt><trkpt lat="45.5056667" lon="10.9218567"><ele>115.16666666666667</ele><time>2026-04-18T11:25:57.149Z</time></trkpt><trkpt lat="45.505755" lon="10.921895"><ele>115.33333333333334</ele><time>2026-04-18T11:25:59.155Z</time></trkpt><trkpt lat="45.5058467" lon="10.9219333"><ele>115.5</ele><time>2026-04-18T11:26:01.152Z</time></trkpt><trkpt lat="45.5059083" lon="10.92196"><ele>115.66666666666666</ele><time>2026-04-18T11:26:03.153Z</time></trkpt><trkpt lat="45.5059783" lon="10.9220233"><ele>115.83333333333333</ele><time>2026-04-18T11:26:06.156Z</time></trkpt><trkpt lat="45.5060267" lon="10.9220967"><ele>116.0</ele><time>2026-04-18T11:26:08.157Z</time></trkpt><trkpt lat="45.5060983" lon="10.9221233"><ele>116.00000000000001</ele><time>2026-04-18T11:26:12.154Z</time></trkpt><trkpt lat="45.506055" lon="10.9220517"><ele>116.0</ele><time>2026-04-18T11:26:17.161Z</time></trkpt><trkpt lat="45.50599" lon="10.922005"><ele>116.00000000000001</ele><time>2026-04-18T11:26:20.158Z</time></trkpt><trkpt lat="45.505915" lon="10.9219617"><ele>116.00000000000001</ele><time>2026-04-18T11:26:23.158Z</time></trkpt><trkpt lat="45.505855" lon="10.921925"><ele>116.0</ele><time>2026-04-18T11:26:25.168Z</time></trkpt><trkpt lat="45.5058017" lon="10.92187"><ele>116.00000000000001</ele><time>2026-04-18T11:26:29.162Z</time></trkpt><trkpt lat="45.5057267" lon="10.9218033"><ele>116.00000000000001</ele><time>2026-04-18T11:26:32.164Z</time></trkpt><trkpt lat="45.505665" lon="10.9217333"><ele>115.99999999999999</ele><time>2026-04-18T11:26:35.156Z</time></trkpt><trkpt lat="45.5056467" lon="10.92182"><ele>116.0</ele><time>2026-04-18T11:26:40.157Z</time></trkpt><trkpt lat="45.505715" lon="10.92185"><ele>116.0</ele><time>2026-04-18T11:26:51.159Z</time></trkpt><trkpt lat="45.5057933" lon="10.9218533"><ele>116.0</ele><time>2026-04-18T11:26:53.163Z</time></trkpt><trkpt lat="45.5058583" lon="10.9218017"><ele>115.99999999999999</ele><time>2026-04-18T11:26:55.151Z</time></trkpt><trkpt lat="45.5059083" lon="10.9216967"><ele>116.0</ele><time>2026-04-18T11:26:57.157Z</time></trkpt><trkpt lat="45.50593" lon="10.9215933"><ele>116.4</ele><time>2026-04-18T11:26:59.18Z</time></trkpt><trkpt lat="45.5060083" lon="10.9215783"><ele>116.8</ele><time>2026-04-18T11:27:02.153Z</time></trkpt><trkpt lat="45.5061" lon="10.9216267"><ele>117.20000000000002</ele><time>2026-04-18T11:27:04.164Z</time></trkpt><trkpt lat="45.50621" lon="10.9216817"><ele>117.60000000000001</ele><time>2026-04-18T11:27:06.153Z</time></trkpt><trkpt lat="45.5063267" lon="10.9217333"><ele>118.0</ele><time>2026-04-18T11:27:08.154Z</time></trkpt><trkpt lat="45.5063883" lon="10.921765"><ele>118.0</ele><time>2026-04-18T11:27:09.16Z</time></trkpt><trkpt lat="45.5064533" lon="10.9218017"><ele>118.0</ele><time>2026-04-18T11:27:10.158Z</time></trkpt><trkpt lat="45.5065183" lon="10.9218317"><ele>118.0</ele><time>2026-04-18T11:27:11.154Z</time></trkpt><trkpt lat="45.5065817" lon="10.9218583"><ele>118.0</ele><time>2026-04-18T11:27:12.153Z</time></trkpt><trkpt lat="45.50665" lon="10.921885"><ele>118.0</ele><time>2026-04-18T11:27:13.155Z</time></trkpt><trkpt lat="45.5067183" lon="10.9219117"><ele>118.0</ele><time>2026-04-18T11:27:14.155Z</time></trkpt><trkpt lat="45.5067917" lon="10.9219333"><ele>118.0</ele><time>2026-04-18T11:27:15.156Z</time></trkpt><trkpt lat="45.5068683" lon="10.9219583"><ele>118.00000000000001</ele><time>2026-04-18T11:27:16.156Z</time></trkpt><trkpt lat="45.5069483" lon="10.921975"><ele>118.0</ele><time>2026-04-18T11:27:17.158Z</time></trkpt><trkpt lat="45.50703" lon="10.921985"><ele>118.0</ele><time>2026-04-18T11:27:18.149Z</time></trkpt><trkpt lat="45.50711" lon="10.9219933"><ele>118.0</ele><time>2026-04-18T11:27:19.157Z</time></trkpt><trkpt lat="45.507195" lon="10.9220083"><ele>118.00000000000001</ele><time>2026-04-18T11:27:20.158Z</time></trkpt><trkpt lat="45.5072767" lon="10.9220417"><ele>118.0</ele><time>2026-04-18T11:27:21.164Z</time></trkpt><trkpt lat="45.5073583" lon="10.9220817"><ele>120.0</ele><time>2026-04-18T11:27:22.154Z</time></trkpt><trkpt lat="45.5074433" lon="10.9221217"><ele>122.00000000000001</ele><time>2026-04-18T11:27:23.157Z</time></trkpt><trkpt lat="45.5075283" lon="10.922165"><ele>124.00000000000001</ele><time>2026-04-18T11:27:24.157Z</time></trkpt><trkpt lat="45.507635" lon="10.92221"><ele>126.0</ele><time>2026-04-18T11:27:25.156Z</time></trkpt><trkpt lat="45.5077533" lon="10.92223"><ele>128.0</ele><time>2026-04-18T11:27:26.162Z</time></trkpt><trkpt lat="45.50785" lon="10.922285"><ele>131.20000000000002</ele><time>2026-04-18T11:27:27.149Z</time></trkpt><trkpt lat="45.50795" lon="10.9223117"><ele>134.4</ele><time>2026-04-18T11:27:28.149Z</time></trkpt><trkpt lat="45.5080417" lon="10.9223367"><ele>137.60000000000002</ele><time>2026-04-18T11:27:29.158Z</time></trkpt><trkpt lat="45.5081217" lon="10.9223867"><ele>140.8</ele><time>2026-04-18T11:27:30.156Z</time></trkpt><trkpt lat="45.50822" lon="10.922435"><ele>144.0</ele><time>2026-04-18T11:27:31.152Z</time></trkpt><trkpt lat="45.50831" lon="10.922445"><ele>144.0</ele><time>2026-04-18T11:27:32.162Z</time></trkpt><trkpt lat="45.5083867" lon="10.922495"><ele>144.0</ele><time>2026-04-18T11:27:33.151Z</time></trkpt><trkpt lat="45.5084583" lon="10.92255"><ele>144.0</ele><time>2026-04-18T11:27:34.15Z</time></trkpt><trkpt lat="45.5085233" lon="10.92259"><ele>144.0</ele><time>2026-04-18T11:27:35.15Z</time></trkpt><trkpt lat="45.5085817" lon="10.9226283"><ele>144.0</ele><time>2026-04-18T11:27:36.159Z</time></trkpt><trkpt lat="45.508685" lon="10.922665"><ele>144.0</ele><time>2026-04-18T11:27:38.152Z</time></trkpt><trkpt lat="45.5088017" lon="10.9226767"><ele>142.33333333333334</ele><time>2026-04-18T11:27:40.159Z</time></trkpt><trkpt lat="45.5088767" lon="10.922685"><ele>140.66666666666666</ele><time>2026-04-18T11:27:41.15Z</time></trkpt><trkpt lat="45.5089533" lon="10.922695"><ele>139.0</ele><time>2026-04-18T11:27:42.161Z</time></trkpt><trkpt lat="45.50903" lon="10.9227033"><ele>137.33333333333331</ele><time>2026-04-18T11:27:43.156Z</time></trkpt><trkpt lat="45.50911" lon="10.9227133"><ele>135.66666666666666</ele><time>2026-04-18T11:27:44.156Z</time></trkpt><trkpt lat="45.509185" lon="10.92272"><ele>134.0</ele><time>2026-04-18T11:27:45.161Z</time></trkpt><trkpt lat="45.50925" lon="10.9227283"><ele>134.0</ele><time>2026-04-18T11:27:46.151Z</time></trkpt><trkpt lat="45.5093333" lon="10.9227383"><ele>134.0</ele><time>2026-04-18T11:27:48.158Z</time></trkpt><trkpt lat="45.5094" lon="10.9227583"><ele>134.0</ele><time>2026-04-18T11:27:52.174Z</time></trkpt><trkpt lat="45.5094517" lon="10.9228483"><ele>134.0</ele><time>2026-04-18T11:27:55.156Z</time></trkpt><trkpt lat="45.509505" lon="10.9229083"><ele>134.0</ele><time>2026-04-18T11:27:57.151Z</time></trkpt><trkpt lat="45.5095967" lon="10.9229133"><ele>134.0</ele><time>2026-04-18T11:27:59.151Z</time></trkpt><trkpt lat="45.50967" lon="10.9228983"><ele>133.33333333333331</ele><time>2026-04-18T11:28:00.162Z</time></trkpt><trkpt lat="45.5097483" lon="10.9228817"><ele>132.66666666666666</ele><time>2026-04-18T11:28:01.151Z</time></trkpt><trkpt lat="45.5098317" lon="10.9228617"><ele>132.0</ele><time>2026-04-18T11:28:02.159Z</time></trkpt><trkpt lat="45.5099083" lon="10.9228417"><ele>131.33333333333334</ele><time>2026-04-18T11:28:03.165Z</time></trkpt><trkpt lat="45.50998" lon="10.92282"><ele>130.66666666666669</ele><time>2026-04-18T11:28:04.162Z</time></trkpt><trkpt lat="45.51005" lon="10.9227983"><ele>130.0</ele><time>2026-04-18T11:28:05.151Z</time></trkpt><trkpt lat="45.510125" lon="10.9227733"><ele>130.0</ele><time>2026-04-18T11:28:06.151Z</time></trkpt><trkpt lat="45.510205" lon="10.9227383"><ele>130.0</ele><time>2026-04-18T11:28:07.152Z</time></trkpt><trkpt lat="45.51028" lon="10.9227033"><ele>130.0</ele><time>2026-04-18T11:28:08.162Z</time></trkpt><trkpt lat="45.5103533" lon="10.9226683"><ele>130.0</ele><time>2026-04-18T11:28:09.152Z</time></trkpt><trkpt lat="45.51043" lon="10.92263"><ele>130.0</ele><time>2026-04-18T11:28:10.151Z</time></trkpt><trkpt lat="45.5105033" lon="10.9225967"><ele>130.0</ele><time>2026-04-18T11:28:11.16Z</time></trkpt><trkpt lat="45.510575" lon="10.9225583"><ele>132.83333333333334</ele><time>2026-04-18T11:28:12.154Z</time></trkpt><trkpt lat="45.51064" lon="10.922525"><ele>135.66666666666669</ele><time>2026-04-18T11:28:13.157Z</time></trkpt><trkpt lat="45.5107033" lon="10.9224917"><ele>138.5</ele><time>2026-04-18T11:28:14.156Z</time></trkpt><trkpt lat="45.5108183" lon="10.9224183"><ele>141.33333333333334</ele><time>2026-04-18T11:28:16.153Z</time></trkpt><trkpt lat="45.5109183" lon="10.9223717"><ele>144.16666666666666</ele><time>2026-04-18T11:28:18.16Z</time></trkpt><trkpt lat="45.5109817" lon="10.9223583"><ele>147.0</ele><time>2026-04-18T11:28:19.158Z</time></trkpt><trkpt lat="45.5110467" lon="10.922345"><ele>147.0</ele><time>2026-04-18T11:28:20.158Z</time></trkpt><trkpt lat="45.5111167" lon="10.9223217"><ele>147.0</ele><time>2026-04-18T11:28:21.156Z</time></trkpt><trkpt lat="45.5111917" lon="10.9222967"><ele>147.0</ele><time>2026-04-18T11:28:22.149Z</time></trkpt><trkpt lat="45.5112733" lon="10.9222717"><ele>147.0</ele><time>2026-04-18T11:28:23.159Z</time></trkpt><trkpt lat="45.51136" lon="10.9222483"><ele>147.0</ele><time>2026-04-18T11:28:24.166Z</time></trkpt><trkpt lat="45.5114483" lon="10.9222283"><ele>147.0</ele><time>2026-04-18T11:28:25.153Z</time></trkpt><trkpt lat="45.511535" lon="10.9222"><ele>146.42857142857142</ele><time>2026-04-18T11:28:26.16Z</time></trkpt><trkpt lat="45.5116133" lon="10.92218"><ele>145.85714285714286</ele><time>2026-04-18T11:28:27.156Z</time></trkpt><trkpt lat="45.5116833" lon="10.922165"><ele>145.28571428571428</ele><time>2026-04-18T11:28:28.15Z</time></trkpt><trkpt lat="45.5117467" lon="10.9221533"><ele>144.71428571428572</ele><time>2026-04-18T11:28:29.153Z</time></trkpt><trkpt lat="45.5118433" lon="10.92215"><ele>144.14285714285714</ele><time>2026-04-18T11:28:31.161Z</time></trkpt><trkpt lat="45.51191" lon="10.9221517"><ele>143.57142857142856</ele><time>2026-04-18T11:28:33.153Z</time></trkpt><trkpt lat="45.5119733" lon="10.9221933"><ele>143.0</ele><time>2026-04-18T11:28:35.15Z</time></trkpt><trkpt lat="45.51202" lon="10.9222917"><ele>143.0</ele><time>2026-04-18T11:28:37.152Z</time></trkpt><trkpt lat="45.5120417" lon="10.92242"><ele>143.0</ele><time>2026-04-18T11:28:39.155Z</time></trkpt><trkpt lat="45.512055" lon="10.9225517"><ele>143.0</ele><time>2026-04-18T11:28:41.151Z</time></trkpt><trkpt lat="45.5120683" lon="10.9226583"><ele>143.0</ele><time>2026-04-18T11:28:43.161Z</time></trkpt><trkpt lat="45.51214" lon="10.9227183"><ele>143.0</ele><time>2026-04-18T11:28:45.158Z</time></trkpt><trkpt lat="45.51226" lon="10.9227283"><ele>141.83333333333331</ele><time>2026-04-18T11:28:47.156Z</time></trkpt><trkpt lat="45.5123367" lon="10.922735"><ele>140.66666666666666</ele><time>2026-04-18T11:28:48.153Z</time></trkpt><trkpt lat="45.5124183" lon="10.922745"><ele>139.5</ele><time>2026-04-18T11:28:49.169Z</time></trkpt><trkpt lat="45.5125083" lon="10.9227583"><ele>138.33333333333334</ele><time>2026-04-18T11:28:50.158Z</time></trkpt><trkpt lat="45.5126" lon="10.9227683"><ele>137.16666666666669</ele><time>2026-04-18T11:28:51.161Z</time></trkpt><trkpt lat="45.5126883" lon="10.922775"><ele>136.0</ele><time>2026-04-18T11:28:52.153Z</time></trkpt><trkpt lat="45.5127767" lon="10.9227817"><ele>136.0</ele><time>2026-04-18T11:28:53.157Z</time></trkpt><trkpt lat="45.51286" lon="10.9227867"><ele>136.0</ele><time>2026-04-18T11:28:54.157Z</time></trkpt><trkpt lat="45.5129433" lon="10.9227883"><ele>136.0</ele><time>2026-04-18T11:28:55.165Z</time></trkpt><trkpt lat="45.513025" lon="10.9227933"><ele>136.0</ele><time>2026-04-18T11:28:56.159Z</time></trkpt><trkpt lat="45.5131133" lon="10.9227983"><ele>136.0</ele><time>2026-04-18T11:28:57.153Z</time></trkpt><trkpt lat="45.513205" lon="10.9228067"><ele>136.0</ele><time>2026-04-18T11:28:58.16Z</time></trkpt><trkpt lat="45.5132983" lon="10.9228133"><ele>137.33333333333334</ele><time>2026-04-18T11:28:59.167Z</time></trkpt><trkpt lat="45.513375" lon="10.9228283"><ele>138.66666666666669</ele><time>2026-04-18T11:29:00.162Z</time></trkpt><trkpt lat="45.5134517" lon="10.9228467"><ele>140.0</ele><time>2026-04-18T11:29:01.153Z</time></trkpt><trkpt lat="45.5135233" lon="10.92286"><ele>141.33333333333334</ele><time>2026-04-18T11:29:02.154Z</time></trkpt><trkpt lat="45.51363" lon="10.9228933"><ele>142.66666666666666</ele><time>2026-04-18T11:29:04.158Z</time></trkpt><trkpt lat="45.5136883" lon="10.9229733"><ele>144.0</ele><time>2026-04-18T11:29:06.167Z</time></trkpt><trkpt lat="45.5137167" lon="10.9230883"><ele>145.6</ele><time>2026-04-18T11:29:08.164Z</time></trkpt><trkpt lat="45.5137467" lon="10.9232267"><ele>147.2</ele><time>2026-04-18T11:29:10.155Z</time></trkpt><trkpt lat="45.513785" lon="10.9233683"><ele>148.79999999999998</ele><time>2026-04-18T11:29:12.163Z</time></trkpt><trkpt lat="45.5138317" lon="10.9235"><ele>150.4</ele><time>2026-04-18T11:29:14.157Z</time></trkpt><trkpt lat="45.5138683" lon="10.9236267"><ele>152.0</ele><time>2026-04-18T11:29:16.156Z</time></trkpt><trkpt lat="45.5139033" lon="10.9237917"><ele>152.0</ele><time>2026-04-18T11:29:18.161Z</time></trkpt><trkpt lat="45.5139383" lon="10.9238783"><ele>152.0</ele><time>2026-04-18T11:29:19.167Z</time></trkpt><trkpt lat="45.513985" lon="10.92396"><ele>152.0</ele><time>2026-04-18T11:29:20.152Z</time></trkpt><trkpt lat="45.514045" lon="10.9240333"><ele>152.0</ele><time>2026-04-18T11:29:21.154Z</time></trkpt><trkpt lat="45.5141117" lon="10.9241067"><ele>152.0</ele><time>2026-04-18T11:29:22.161Z</time></trkpt><trkpt lat="45.5141833" lon="10.9241717"><ele>152.0</ele><time>2026-04-18T11:29:23.157Z</time></trkpt><trkpt lat="45.514255" lon="10.9242367"><ele>152.83333333333331</ele><time>2026-04-18T11:29:24.158Z</time></trkpt><trkpt lat="45.5143267" lon="10.9243033"><ele>153.66666666666666</ele><time>2026-04-18T11:29:25.154Z</time></trkpt><trkpt lat="45.514395" lon="10.924375"><ele>154.5</ele><time>2026-04-18T11:29:26.162Z</time></trkpt><trkpt lat="45.5144633" lon="10.9244583"><ele>155.33333333333334</ele><time>2026-04-18T11:29:27.164Z</time></trkpt><trkpt lat="45.5145283" lon="10.9245467"><ele>156.16666666666669</ele><time>2026-04-18T11:29:28.157Z</time></trkpt><trkpt lat="45.514585" lon="10.9246333"><ele>157.0</ele><time>2026-04-18T11:29:29.15Z</time></trkpt><trkpt lat="45.51464" lon="10.9247167"><ele>157.0</ele><time>2026-04-18T11:29:30.154Z</time></trkpt><trkpt lat="45.5146933" lon="10.9247883"><ele>157.0</ele><time>2026-04-18T11:29:31.159Z</time></trkpt><trkpt lat="45.5147817" lon="10.9249117"><ele>157.0</ele><time>2026-04-18T11:29:33.154Z</time></trkpt><trkpt lat="45.5148367" lon="10.9249633"><ele>157.0</ele><time>2026-04-18T11:29:34.156Z</time></trkpt><trkpt lat="45.5149017" lon="10.9250183"><ele>157.0</ele><time>2026-04-18T11:29:35.152Z</time></trkpt><trkpt lat="45.5149717" lon="10.9250783"><ele>157.0</ele><time>2026-04-18T11:29:36.152Z</time></trkpt><trkpt lat="45.5150417" lon="10.92514"><ele>157.0</ele><time>2026-04-18T11:29:37.163Z</time></trkpt><trkpt lat="45.5151133" lon="10.9251983"><ele>157.0</ele><time>2026-04-18T11:29:38.157Z</time></trkpt><trkpt lat="45.5151867" lon="10.92526"><ele>157.0</ele><time>2026-04-18T11:29:39.155Z</time></trkpt><trkpt lat="45.5152617" lon="10.9253283"><ele>157.0</ele><time>2026-04-18T11:29:40.159Z</time></trkpt><trkpt lat="45.5153483" lon="10.9254033"><ele>157.0</ele><time>2026-04-18T11:29:41.152Z</time></trkpt><trkpt lat="45.5154383" lon="10.9254633"><ele>157.0</ele><time>2026-04-18T11:29:42.15Z</time></trkpt><trkpt lat="45.51552" lon="10.925515"><ele>157.0</ele><time>2026-04-18T11:29:43.152Z</time></trkpt><trkpt lat="45.5155983" lon="10.92558"><ele>157.0</ele><time>2026-04-18T11:29:44.163Z</time></trkpt><trkpt lat="45.5156667" lon="10.9256483"><ele>157.0</ele><time>2026-04-18T11:29:45.152Z</time></trkpt><trkpt lat="45.5157333" lon="10.9257167"><ele>157.0</ele><time>2026-04-18T11:29:46.15Z</time></trkpt><trkpt lat="45.5158083" lon="10.92578"><ele>157.0</ele><time>2026-04-18T11:29:47.151Z</time></trkpt><trkpt lat="45.515885" lon="10.9258433"><ele>157.0</ele><time>2026-04-18T11:29:48.154Z</time></trkpt><trkpt lat="45.5159617" lon="10.9259083"><ele>157.0</ele><time>2026-04-18T11:29:49.162Z</time></trkpt><trkpt lat="45.5160383" lon="10.9259683"><ele>157.0</ele><time>2026-04-18T11:29:50.158Z</time></trkpt><trkpt lat="45.5161217" lon="10.92603"><ele>157.0</ele><time>2026-04-18T11:29:51.167Z</time></trkpt><trkpt lat="45.5161933" lon="10.9260867"><ele>157.0</ele><time>2026-04-18T11:29:52.151Z</time></trkpt><trkpt lat="45.5162633" lon="10.9261367"><ele>157.0</ele><time>2026-04-18T11:29:53.163Z</time></trkpt><trkpt lat="45.5163217" lon="10.9261783"><ele>157.0</ele><time>2026-04-18T11:29:54.158Z</time></trkpt><trkpt lat="45.5164167" lon="10.926205"><ele>157.0</ele><time>2026-04-18T11:29:56.165Z</time></trkpt><trkpt lat="45.5164983" lon="10.9261633"><ele>157.0</ele><time>2026-04-18T11:29:58.156Z</time></trkpt><trkpt lat="45.5165917" lon="10.9261667"><ele>157.0</ele><time>2026-04-18T11:30:00.169Z</time></trkpt><trkpt lat="45.5167033" lon="10.9262767"><ele>157.0</ele><time>2026-04-18T11:30:02.152Z</time></trkpt><trkpt lat="45.5167683" lon="10.9263467"><ele>157.0</ele><time>2026-04-18T11:30:03.157Z</time></trkpt><trkpt lat="45.5168383" lon="10.9264133"><ele>157.0</ele><time>2026-04-18T11:30:04.156Z</time></trkpt><trkpt lat="45.5168983" lon="10.9264933"><ele>157.0</ele><time>2026-04-18T11:30:05.155Z</time></trkpt><trkpt lat="45.516965" lon="10.92657"><ele>157.0</ele><time>2026-04-18T11:30:06.166Z</time></trkpt><trkpt lat="45.5170267" lon="10.9266317"><ele>157.0</ele><time>2026-04-18T11:30:07.155Z</time></trkpt><trkpt lat="45.517095" lon="10.9267467"><ele>157.0</ele><time>2026-04-18T11:30:09.158Z</time></trkpt><trkpt lat="45.51709" lon="10.92686"><ele>157.16666666666669</ele><time>2026-04-18T11:30:11.154Z</time></trkpt><trkpt lat="45.517025" lon="10.9269883"><ele>157.33333333333334</ele><time>2026-04-18T11:30:13.163Z</time></trkpt><trkpt lat="45.51697" lon="10.927065"><ele>157.5</ele><time>2026-04-18T11:30:14.158Z</time></trkpt><trkpt lat="45.5169183" lon="10.9271583"><ele>157.66666666666666</ele><time>2026-04-18T11:30:15.155Z</time></trkpt><trkpt lat="45.5168683" lon="10.927265"><ele>157.83333333333331</ele><time>2026-04-18T11:30:16.166Z</time></trkpt><trkpt lat="45.5168283" lon="10.927365"><ele>158.0</ele><time>2026-04-18T11:30:17.154Z</time></trkpt><trkpt lat="45.5167967" lon="10.927465"><ele>158.33333333333331</ele><time>2026-04-18T11:30:18.154Z</time></trkpt><trkpt lat="45.5167667" lon="10.9275633"><ele>158.66666666666666</ele><time>2026-04-18T11:30:19.161Z</time></trkpt><trkpt lat="45.516745" lon="10.9276667"><ele>159.0</ele><time>2026-04-18T11:30:20.152Z</time></trkpt><trkpt lat="45.5167233" lon="10.9277633"><ele>159.33333333333334</ele><time>2026-04-18T11:30:21.156Z</time></trkpt><trkpt lat="45.5167083" lon="10.9278517"><ele>159.66666666666669</ele><time>2026-04-18T11:30:22.163Z</time></trkpt><trkpt lat="45.5167" lon="10.927995"><ele>160.0</ele><time>2026-04-18T11:30:24.155Z</time></trkpt><trkpt lat="45.5167167" lon="10.928115"><ele>160.0</ele><time>2026-04-18T11:30:26.162Z</time></trkpt><trkpt lat="45.5167467" lon="10.92822"><ele>160.0</ele><time>2026-04-18T11:30:28.16Z</time></trkpt><trkpt lat="45.5168117" lon="10.928255"><ele>160.0</ele><time>2026-04-18T11:30:42.153Z</time></trkpt><trkpt lat="45.5168767" lon="10.9282783"><ele>160.0</ele><time>2026-04-18T11:30:44.15Z</time></trkpt><trkpt lat="45.516995" lon="10.9282733"><ele>160.0</ele><time>2026-04-18T11:30:46.149Z</time></trkpt><trkpt lat="45.5170667" lon="10.9282683"><ele>160.0</ele><time>2026-04-18T11:30:47.155Z</time></trkpt><trkpt lat="45.5171317" lon="10.9282583"><ele>160.66666666666669</ele><time>2026-04-18T11:30:48.153Z</time></trkpt><trkpt lat="45.5172067" lon="10.9282533"><ele>161.33333333333334</ele><time>2026-04-18T11:30:49.157Z</time></trkpt><trkpt lat="45.5172783" lon="10.92826"><ele>162.0</ele><time>2026-04-18T11:30:50.152Z</time></trkpt><trkpt lat="45.5173533" lon="10.9282683"><ele>162.66666666666666</ele><time>2026-04-18T11:30:51.151Z</time></trkpt><trkpt lat="45.5174367" lon="10.9282767"><ele>163.33333333333331</ele><time>2026-04-18T11:30:52.153Z</time></trkpt><trkpt lat="45.5175333" lon="10.9282683"><ele>164.0</ele><time>2026-04-18T11:30:53.155Z</time></trkpt><trkpt lat="45.5176233" lon="10.9282833"><ele>164.0</ele><time>2026-04-18T11:30:54.151Z</time></trkpt><trkpt lat="45.5177017" lon="10.9283233"><ele>164.0</ele><time>2026-04-18T11:30:55.155Z</time></trkpt><trkpt lat="45.5177767" lon="10.92835"><ele>164.0</ele><time>2026-04-18T11:30:56.162Z</time></trkpt><trkpt lat="45.5178567" lon="10.92839"><ele>164.0</ele><time>2026-04-18T11:30:57.151Z</time></trkpt><trkpt lat="45.5179333" lon="10.9284333"><ele>164.0</ele><time>2026-04-18T11:30:58.155Z</time></trkpt><trkpt lat="45.5180167" lon="10.9284767"><ele>164.0</ele><time>2026-04-18T11:30:59.152Z</time></trkpt><trkpt lat="45.5181067" lon="10.92852"><ele>162.6</ele><time>2026-04-18T11:31:00.155Z</time></trkpt><trkpt lat="45.5182067" lon="10.92857"><ele>161.2</ele><time>2026-04-18T11:31:01.161Z</time></trkpt><trkpt lat="45.5183083" lon="10.928625"><ele>159.79999999999998</ele><time>2026-04-18T11:31:02.15Z</time></trkpt><trkpt lat="45.5184083" lon="10.92868"><ele>158.39999999999998</ele><time>2026-04-18T11:31:03.162Z</time></trkpt><trkpt lat="45.5185267" lon="10.9287333"><ele>157.0</ele><time>2026-04-18T11:31:04.153Z</time></trkpt><trkpt lat="45.5186533" lon="10.9287683"><ele>157.25</ele><time>2026-04-18T11:31:05.152Z</time></trkpt><trkpt lat="45.5187683" lon="10.9287683"><ele>157.5</ele><time>2026-04-18T11:31:06.156Z</time></trkpt><trkpt lat="45.5188917" lon="10.9287567"><ele>157.75</ele><time>2026-04-18T11:31:07.154Z</time></trkpt><trkpt lat="45.5190067" lon="10.9287383"><ele>158.0</ele><time>2026-04-18T11:31:08.156Z</time></trkpt><trkpt lat="45.51911" lon="10.9287217"><ele>158.0</ele><time>2026-04-18T11:31:09.16Z</time></trkpt><trkpt lat="45.5192" lon="10.9287067"><ele>158.0</ele><time>2026-04-18T11:31:10.155Z</time></trkpt><trkpt lat="45.519295" lon="10.9287083"><ele>158.0</ele><time>2026-04-18T11:31:11.156Z</time></trkpt><trkpt lat="45.5193767" lon="10.9287533"><ele>158.0</ele><time>2026-04-18T11:31:12.155Z</time></trkpt><trkpt lat="45.51944" lon="10.9288317"><ele>158.0</ele><time>2026-04-18T11:31:13.153Z</time></trkpt><trkpt lat="45.5195" lon="10.9289233"><ele>158.0</ele><time>2026-04-18T11:31:14.165Z</time></trkpt><trkpt lat="45.519555" lon="10.929055"><ele>159.2</ele><time>2026-04-18T11:31:15.156Z</time></trkpt><trkpt lat="45.5195983" lon="10.92919"><ele>160.4</ele><time>2026-04-18T11:31:16.156Z</time></trkpt><trkpt lat="45.51964" lon="10.9292967"><ele>161.6</ele><time>2026-04-18T11:31:17.15Z</time></trkpt><trkpt lat="45.5196733" lon="10.929415"><ele>162.79999999999998</ele><time>2026-04-18T11:31:18.156Z</time></trkpt><trkpt lat="45.5197033" lon="10.929545"><ele>164.0</ele><time>2026-04-18T11:31:19.156Z</time></trkpt><trkpt lat="45.5197233" lon="10.9296683"><ele>164.16666666666666</ele><time>2026-04-18T11:31:20.158Z</time></trkpt><trkpt lat="45.5197633" lon="10.92979"><ele>164.33333333333331</ele><time>2026-04-18T11:31:21.155Z</time></trkpt><trkpt lat="45.5197867" lon="10.9299117"><ele>164.5</ele><time>2026-04-18T11:31:22.149Z</time></trkpt><trkpt lat="45.519795" lon="10.930025"><ele>164.66666666666666</ele><time>2026-04-18T11:31:23.152Z</time></trkpt><trkpt lat="45.519805" lon="10.9301283"><ele>164.83333333333334</ele><time>2026-04-18T11:31:24.169Z</time></trkpt><trkpt lat="45.519815" lon="10.9302233"><ele>165.0</ele><time>2026-04-18T11:31:25.16Z</time></trkpt><trkpt lat="45.5198217" lon="10.93032"><ele>165.00000000000003</ele><time>2026-04-18T11:31:26.152Z</time></trkpt><trkpt lat="45.51983" lon="10.9304267"><ele>165.0</ele><time>2026-04-18T11:31:27.156Z</time></trkpt><trkpt lat="45.5198417" lon="10.93054"><ele>165.0</ele><time>2026-04-18T11:31:28.153Z</time></trkpt><trkpt lat="45.5198433" lon="10.9306483"><ele>165.0</ele><time>2026-04-18T11:31:29.155Z</time></trkpt><trkpt lat="45.5198533" lon="10.930745"><ele>165.0</ele><time>2026-04-18T11:31:30.15Z</time></trkpt><trkpt lat="45.5198833" lon="10.9308317"><ele>165.00000000000003</ele><time>2026-04-18T11:31:31.155Z</time></trkpt><trkpt lat="45.519935" lon="10.9309083"><ele>165.0</ele><time>2026-04-18T11:31:32.16Z</time></trkpt><trkpt lat="45.5199933" lon="10.9309883"><ele>165.6</ele><time>2026-04-18T11:31:33.155Z</time></trkpt><trkpt lat="45.5200617" lon="10.93107"><ele>166.2</ele><time>2026-04-18T11:31:34.159Z</time></trkpt><trkpt lat="45.520135" lon="10.9311467"><ele>166.8</ele><time>2026-04-18T11:31:35.163Z</time></trkpt><trkpt lat="45.5202283" lon="10.93123"><ele>167.4</ele><time>2026-04-18T11:31:36.157Z</time></trkpt><trkpt lat="45.5203283" lon="10.931285"><ele>168.0</ele><time>2026-04-18T11:31:37.153Z</time></trkpt><trkpt lat="45.5204367" lon="10.9313433"><ele>168.0</ele><time>2026-04-18T11:31:38.151Z</time></trkpt><trkpt lat="45.5205533" lon="10.931395"><ele>168.0</ele><time>2026-04-18T11:31:39.153Z</time></trkpt><trkpt lat="45.5206517" lon="10.9314617"><ele>168.0</ele><time>2026-04-18T11:31:40.15Z</time></trkpt><trkpt lat="45.5207483" lon="10.9315183"><ele>168.0</ele><time>2026-04-18T11:31:41.15Z</time></trkpt><trkpt lat="45.520865" lon="10.93159"><ele>168.0</ele><time>2026-04-18T11:31:42.158Z</time></trkpt><trkpt lat="45.5209767" lon="10.93163"><ele>168.0</ele><time>2026-04-18T11:31:43.149Z</time></trkpt><trkpt lat="45.52108" lon="10.9316867"><ele>168.0</ele><time>2026-04-18T11:31:44.153Z</time></trkpt><trkpt lat="45.5211717" lon="10.9317367"><ele>168.0</ele><time>2026-04-18T11:31:45.158Z</time></trkpt><trkpt lat="45.5212667" lon="10.9317417"><ele>168.0</ele><time>2026-04-18T11:31:46.153Z</time></trkpt><trkpt lat="45.5213867" lon="10.9317633"><ele>166.5</ele><time>2026-04-18T11:31:47.15Z</time></trkpt><trkpt lat="45.5214917" lon="10.931845"><ele>165.0</ele><time>2026-04-18T11:31:48.157Z</time></trkpt><trkpt lat="45.5215983" lon="10.9319067"><ele>163.5</ele><time>2026-04-18T11:31:49.154Z</time></trkpt><trkpt lat="45.5217083" lon="10.9319633"><ele>162.0</ele><time>2026-04-18T11:31:50.151Z</time></trkpt><trkpt lat="45.521825" lon="10.9320117"><ele>162.0</ele><time>2026-04-18T11:31:51.154Z</time></trkpt><trkpt lat="45.5219367" lon="10.9320683"><ele>162.0</ele><time>2026-04-18T11:31:52.155Z</time></trkpt><trkpt lat="45.5220483" lon="10.93213"><ele>162.0</ele><time>2026-04-18T11:31:53.15Z</time></trkpt><trkpt lat="45.522175" lon="10.932195"><ele>162.0</ele><time>2026-04-18T11:31:54.15Z</time></trkpt><trkpt lat="45.52232" lon="10.93227"><ele>163.25</ele><time>2026-04-18T11:31:55.158Z</time></trkpt><trkpt lat="45.522445" lon="10.932345"><ele>164.5</ele><time>2026-04-18T11:31:56.154Z</time></trkpt><trkpt lat="45.5225767" lon="10.9324"><ele>165.75</ele><time>2026-04-18T11:31:57.161Z</time></trkpt><trkpt lat="45.5227083" lon="10.9324767"><ele>167.0</ele><time>2026-04-18T11:31:58.164Z</time></trkpt><trkpt lat="45.52284" lon="10.9325317"><ele>167.5</ele><time>2026-04-18T11:31:59.158Z</time></trkpt><trkpt lat="45.52296" lon="10.9326017"><ele>168.0</ele><time>2026-04-18T11:32:00.16Z</time></trkpt><trkpt lat="45.5230867" lon="10.9326667"><ele>168.5</ele><time>2026-04-18T11:32:01.162Z</time></trkpt><trkpt lat="45.5232117" lon="10.9327333"><ele>169.0</ele><time>2026-04-18T11:32:02.15Z</time></trkpt><trkpt lat="45.5233333" lon="10.9328117"><ele>169.0</ele><time>2026-04-18T11:32:03.156Z</time></trkpt><trkpt lat="45.5234633" lon="10.9328933"><ele>169.0</ele><time>2026-04-18T11:32:04.155Z</time></trkpt><trkpt lat="45.5235867" lon="10.932995"><ele>169.0</ele><time>2026-04-18T11:32:05.161Z</time></trkpt><trkpt lat="45.52371" lon="10.9330833"><ele>169.0</ele><time>2026-04-18T11:32:06.159Z</time></trkpt><trkpt lat="45.5238233" lon="10.9331983"><ele>170.0</ele><time>2026-04-18T11:32:07.155Z</time></trkpt><trkpt lat="45.5239517" lon="10.9332883"><ele>171.0</ele><time>2026-04-18T11:32:08.159Z</time></trkpt><trkpt lat="45.524055" lon="10.9333833"><ele>172.0</ele><time>2026-04-18T11:32:09.152Z</time></trkpt><trkpt lat="45.5241467" lon="10.9334533"><ele>173.0</ele><time>2026-04-18T11:32:10.151Z</time></trkpt><trkpt lat="45.5242283" lon="10.9335133"><ele>173.0</ele><time>2026-04-18T11:32:11.157Z</time></trkpt><trkpt lat="45.52432" lon="10.9335217"><ele>173.0</ele><time>2026-04-18T11:32:12.168Z</time></trkpt><trkpt lat="45.5243717" lon="10.93359"><ele>173.0</ele><time>2026-04-18T11:32:14.16Z</time></trkpt><trkpt lat="45.5243717" lon="10.93373"><ele>173.0</ele><time>2026-04-18T11:32:23.166Z</time></trkpt><trkpt lat="45.524325" lon="10.9338967"><ele>173.0</ele><time>2026-04-18T11:32:25.154Z</time></trkpt><trkpt lat="45.5242983" lon="10.9339833"><ele>173.0</ele><time>2026-04-18T11:32:26.155Z</time></trkpt><trkpt lat="45.5242717" lon="10.9340733"><ele>173.0</ele><time>2026-04-18T11:32:27.158Z</time></trkpt><trkpt lat="45.5242433" lon="10.9341717"><ele>173.0</ele><time>2026-04-18T11:32:28.156Z</time></trkpt><trkpt lat="45.52421" lon="10.93428"><ele>173.0</ele><time>2026-04-18T11:32:29.159Z</time></trkpt><trkpt lat="45.52417" lon="10.9344"><ele>173.0</ele><time>2026-04-18T11:32:30.159Z</time></trkpt><trkpt lat="45.5241117" lon="10.934555"><ele>173.0</ele><time>2026-04-18T11:32:31.161Z</time></trkpt><trkpt lat="45.5240717" lon="10.934735"><ele>171.75</ele><time>2026-04-18T11:32:32.163Z</time></trkpt><trkpt lat="45.5240583" lon="10.9349067"><ele>170.5</ele><time>2026-04-18T11:32:33.157Z</time></trkpt><trkpt lat="45.5240483" lon="10.9351"><ele>169.25</ele><time>2026-04-18T11:32:34.16Z</time></trkpt><trkpt lat="45.52404" lon="10.9353133"><ele>168.0</ele><time>2026-04-18T11:32:35.155Z</time></trkpt><trkpt lat="45.5240333" lon="10.9355233"><ele>168.0</ele><time>2026-04-18T11:32:36.159Z</time></trkpt><trkpt lat="45.524025" lon="10.9357117"><ele>168.0</ele><time>2026-04-18T11:32:37.159Z</time></trkpt><trkpt lat="45.5240183" lon="10.9358917"><ele>168.0</ele><time>2026-04-18T11:32:38.157Z</time></trkpt><trkpt lat="45.524" lon="10.9360683"><ele>168.0</ele><time>2026-04-18T11:32:39.161Z</time></trkpt><trkpt lat="45.5239817" lon="10.9362117"><ele>167.8</ele><time>2026-04-18T11:32:40.155Z</time></trkpt><trkpt lat="45.5239833" lon="10.9363383"><ele>167.60000000000002</ele><time>2026-04-18T11:32:41.154Z</time></trkpt><trkpt lat="45.5240167" lon="10.9364833"><ele>167.39999999999998</ele><time>2026-04-18T11:32:43.158Z</time></trkpt><trkpt lat="45.5241433" lon="10.9365717"><ele>167.2</ele><time>2026-04-18T11:32:45.152Z</time></trkpt><trkpt lat="45.5242433" lon="10.9365983"><ele>167.0</ele><time>2026-04-18T11:32:46.158Z</time></trkpt><trkpt lat="45.52435" lon="10.936625"><ele>167.0</ele><time>2026-04-18T11:32:47.159Z</time></trkpt><trkpt lat="45.5244633" lon="10.9366617"><ele>167.0</ele><time>2026-04-18T11:32:48.156Z</time></trkpt><trkpt lat="45.5245867" lon="10.9367083"><ele>167.0</ele><time>2026-04-18T11:32:49.159Z</time></trkpt><trkpt lat="45.5247033" lon="10.936775"><ele>167.0</ele><time>2026-04-18T11:32:50.158Z</time></trkpt><trkpt lat="45.52485" lon="10.936825"><ele>167.66666666666666</ele><time>2026-04-18T11:32:51.15Z</time></trkpt><trkpt lat="45.524995" lon="10.9368833"><ele>168.33333333333334</ele><time>2026-04-18T11:32:52.158Z</time></trkpt><trkpt lat="45.5251317" lon="10.9369667"><ele>169.0</ele><time>2026-04-18T11:32:53.153Z</time></trkpt><trkpt lat="45.5253067" lon="10.9370083"><ele>169.33333333333334</ele><time>2026-04-18T11:32:54.152Z</time></trkpt><trkpt lat="45.525475" lon="10.9371083"><ele>169.66666666666666</ele><time>2026-04-18T11:32:55.158Z</time></trkpt><trkpt lat="45.5256267" lon="10.9371867"><ele>170.0</ele><time>2026-04-18T11:32:56.157Z</time></trkpt><trkpt lat="45.5257617" lon="10.937235"><ele>170.0</ele><time>2026-04-18T11:32:57.15Z</time></trkpt><trkpt lat="45.52588" lon="10.9372817"><ele>170.0</ele><time>2026-04-18T11:32:58.157Z</time></trkpt><trkpt lat="45.5259783" lon="10.9373167"><ele>170.0</ele><time>2026-04-18T11:32:59.16Z</time></trkpt><trkpt lat="45.52605" lon="10.9373483"><ele>170.0</ele><time>2026-04-18T11:33:00.173Z</time></trkpt><trkpt lat="45.526125" lon="10.9374333"><ele>170.0</ele><time>2026-04-18T11:33:02.157Z</time></trkpt><trkpt lat="45.5261417" lon="10.9375767"><ele>170.0</ele><time>2026-04-18T11:33:04.155Z</time></trkpt><trkpt lat="45.5261117" lon="10.9377133"><ele>170.0</ele><time>2026-04-18T11:33:05.15Z</time></trkpt><trkpt lat="45.5260533" lon="10.9378683"><ele>170.0</ele><time>2026-04-18T11:33:06.155Z</time></trkpt><trkpt lat="45.52602" lon="10.9380583"><ele>170.0</ele><time>2026-04-18T11:33:07.154Z</time></trkpt><trkpt lat="45.5259983" lon="10.9382483"><ele>170.75</ele><time>2026-04-18T11:33:08.156Z</time></trkpt><trkpt lat="45.5260267" lon="10.9384583"><ele>171.5</ele><time>2026-04-18T11:33:09.157Z</time></trkpt><trkpt lat="45.526065" lon="10.9386083"><ele>172.25</ele><time>2026-04-18T11:33:10.149Z</time></trkpt><trkpt lat="45.5261267" lon="10.9387333"><ele>173.0</ele><time>2026-04-18T11:33:11.168Z</time></trkpt><trkpt lat="45.526235" lon="10.9388367"><ele>173.66666666666666</ele><time>2026-04-18T11:33:12.162Z</time></trkpt><trkpt lat="45.5263683" lon="10.9389183"><ele>174.33333333333334</ele><time>2026-04-18T11:33:13.151Z</time></trkpt><trkpt lat="45.5265083" lon="10.9389967"><ele>175.0</ele><time>2026-04-18T11:33:14.164Z</time></trkpt><trkpt lat="45.526685" lon="10.93906"><ele>175.0</ele><time>2026-04-18T11:33:15.156Z</time></trkpt><trkpt lat="45.52687" lon="10.9391217"><ele>175.0</ele><time>2026-04-18T11:33:16.154Z</time></trkpt><trkpt lat="45.5270517" lon="10.9392083"><ele>175.0</ele><time>2026-04-18T11:33:17.156Z</time></trkpt><trkpt lat="45.5272183" lon="10.9392717"><ele>176.0</ele><time>2026-04-18T11:33:18.159Z</time></trkpt><trkpt lat="45.527365" lon="10.9393267"><ele>177.0</ele><time>2026-04-18T11:33:19.153Z</time></trkpt><trkpt lat="45.52753" lon="10.9393167"><ele>178.0</ele><time>2026-04-18T11:33:20.173Z</time></trkpt><trkpt lat="45.527685" lon="10.9392983"><ele>178.0</ele><time>2026-04-18T11:33:21.166Z</time></trkpt><trkpt lat="45.5278267" lon="10.9393017"><ele>178.0</ele><time>2026-04-18T11:33:22.164Z</time></trkpt><trkpt lat="45.5279417" lon="10.9393133"><ele>178.0</ele><time>2026-04-18T11:33:23.162Z</time></trkpt><trkpt lat="45.5280683" lon="10.9393433"><ele>178.0</ele><time>2026-04-18T11:33:24.165Z</time></trkpt><trkpt lat="45.5281933" lon="10.9393717"><ele>178.4</ele><time>2026-04-18T11:33:25.188Z</time></trkpt><trkpt lat="45.5283033" lon="10.93939"><ele>178.8</ele><time>2026-04-18T11:33:26.173Z</time></trkpt><trkpt lat="45.5284033" lon="10.9394133"><ele>179.2</ele><time>2026-04-18T11:33:27.173Z</time></trkpt><trkpt lat="45.5285017" lon="10.9394433"><ele>179.6</ele><time>2026-04-18T11:33:28.16Z</time></trkpt><trkpt lat="45.528595" lon="10.9394683"><ele>180.0</ele><time>2026-04-18T11:33:29.157Z</time></trkpt><trkpt lat="45.5286867" lon="10.9395067"><ele>180.5</ele><time>2026-04-18T11:33:30.153Z</time></trkpt><trkpt lat="45.5287617" lon="10.9395533"><ele>181.0</ele><time>2026-04-18T11:33:31.156Z</time></trkpt><trkpt lat="45.52885" lon="10.9395967"><ele>181.5</ele><time>2026-04-18T11:33:32.154Z</time></trkpt><trkpt lat="45.528925" lon="10.9396417"><ele>182.0</ele><time>2026-04-18T11:33:33.175Z</time></trkpt><trkpt lat="45.5290033" lon="10.9396867"><ele>182.5</ele><time>2026-04-18T11:33:34.158Z</time></trkpt><trkpt lat="45.5290833" lon="10.9397283"><ele>183.0</ele><time>2026-04-18T11:33:35.163Z</time></trkpt><trkpt lat="45.52917" lon="10.9397667"><ele>183.0</ele><time>2026-04-18T11:33:36.167Z</time></trkpt><trkpt lat="45.5292517" lon="10.939795"><ele>183.0</ele><time>2026-04-18T11:33:37.163Z</time></trkpt><trkpt lat="45.52933" lon="10.93982"><ele>183.0</ele><time>2026-04-18T11:33:38.166Z</time></trkpt><trkpt lat="45.529395" lon="10.93983"><ele>183.0</ele><time>2026-04-18T11:33:39.169Z</time></trkpt><trkpt lat="45.5294633" lon="10.93984"><ele>183.0</ele><time>2026-04-18T11:33:41.175Z</time></trkpt><trkpt lat="45.5295233" lon="10.9399383"><ele>183.0</ele><time>2026-04-18T11:33:48.164Z</time></trkpt><trkpt lat="45.5295467" lon="10.9401167"><ele>183.33333333333334</ele><time>2026-04-18T11:33:50.172Z</time></trkpt><trkpt lat="45.52958" lon="10.940195"><ele>183.66666666666666</ele><time>2026-04-18T11:33:51.183Z</time></trkpt><trkpt lat="45.5296367" lon="10.9402433"><ele>184.0</ele><time>2026-04-18T11:33:52.172Z</time></trkpt><trkpt lat="45.5297183" lon="10.9402483"><ele>184.33333333333331</ele><time>2026-04-18T11:33:53.179Z</time></trkpt><trkpt lat="45.5298117" lon="10.940225"><ele>184.66666666666666</ele><time>2026-04-18T11:33:54.18Z</time></trkpt><trkpt lat="45.52994" lon="10.9401567"><ele>185.0</ele><time>2026-04-18T11:33:55.163Z</time></trkpt><trkpt lat="45.5300767" lon="10.9400417"><ele>185.0</ele><time>2026-04-18T11:33:56.179Z</time></trkpt><trkpt lat="45.53021" lon="10.9399033"><ele>185.0</ele><time>2026-04-18T11:33:57.162Z</time></trkpt><trkpt lat="45.53032" lon="10.9397683"><ele>185.0</ele><time>2026-04-18T11:33:58.166Z</time></trkpt><trkpt lat="45.5304033" lon="10.9396633"><ele>185.0</ele><time>2026-04-18T11:33:59.166Z</time></trkpt><trkpt lat="45.530455" lon="10.9395933"><ele>188.0</ele><time>2026-04-18T11:34:00.171Z</time></trkpt><trkpt lat="45.5305233" lon="10.939525"><ele>188.0</ele><time>2026-04-18T11:34:02.173Z</time></trkpt><trkpt lat="45.530555" lon="10.9393767"><ele>188.0</ele><time>2026-04-18T11:34:04.164Z</time></trkpt><trkpt lat="45.530555" lon="10.93928"><ele>188.0</ele><time>2026-04-18T11:34:06.165Z</time></trkpt><trkpt lat="45.530535" lon="10.9391917"><ele>189.0</ele><time>2026-04-18T11:34:09.168Z</time></trkpt></trkseg></trk></gpx>